PWSweather.com
Personal Weather Stations
Station Observations
HVALPSUND
Hvalpsund, FarsoeDK 9640

HvalpsundFarsoeDK 9640

Lat: 56.705311, Lon: 9.203638

Elevation: 5

Station Type: Vantage Pro2

http://hvalpsundvejr.dk

High Low Average
Temperature 63.3°F17.4°C 51.3°F10.7°C 57.8°F14.3°C
Dew Point 52.3°F11.3°C 47.8°F8.8°C 50.4°F10.2°C
Winds 16.2 mph 26.1 kmh 1.8 mph 2.9 kmh 9.0 mph WSW14.5 kmh WSW
Wind Gusts 22.0 mph35.4 kmh -- 11.0 mph17.7 kmh
Humidity 93% 61% 77%
Pressure 29.63 in1003.4 mb 29.44 in997.0 mb -
Precipitation 0.00 in0.0 mm - -
Hour Temp Dew Point Humidity Winds Wind Gusts Pressure Precip Precip Rate Daily Precip Total
12:00 AM 56.2°F13.4°C 52.1°F11.2°C 86% 13.5 mph W21.7 kmh W 16.0 mph25.7 kmh 29.44 in997.0 mb 0.00 in0.0 mm 0.00 in0.0 mm 0.00 in0.0 mm
12:01 AM 56.2°F13.4°C 51.7°F10.9°C 85% 13.6 mph W21.9 kmh W 16.0 mph25.7 kmh 29.44 in997.0 mb 0.00 in0.0 mm 0.00 in0.0 mm 0.00 in0.0 mm
12:02 AM 56.2°F13.4°C 52.1°F11.2°C 86% 13.4 mph W21.6 kmh W 17.0 mph27.4 kmh 29.44 in997.0 mb 0.00 in0.0 mm 0.00 in0.0 mm 0.00 in0.0 mm
12:03 AM 56.2°F13.4°C 51.7°F10.9°C 85% 15.0 mph W24.1 kmh W 18.0 mph29.0 kmh 29.44 in997.0 mb 0.00 in0.0 mm 0.00 in0.0 mm 0.00 in0.0 mm
12:04 AM 56.2°F13.4°C 51.7°F10.9°C 85% 13.1 mph W21.1 kmh W 18.0 mph29.0 kmh 29.44 in997.0 mb 0.00 in0.0 mm 0.00 in0.0 mm 0.00 in0.0 mm
12:05 AM 56.2°F13.4°C 51.7°F10.9°C 85% 13.1 mph W21.1 kmh W 15.0 mph24.1 kmh 29.44 in997.0 mb 0.00 in0.0 mm 0.00 in0.0 mm 0.00 in0.0 mm
12:06 AM 56.2°F13.4°C 51.7°F10.9°C 85% 12.9 mph W20.8 kmh W 15.0 mph24.1 kmh 29.44 in997.0 mb 0.00 in0.0 mm 0.00 in0.0 mm 0.00 in0.0 mm
12:07 AM 56.2°F13.4°C 51.7°F10.9°C 85% 12.1 mph W19.5 kmh W 15.0 mph24.1 kmh 29.44 in997.0 mb 0.00 in0.0 mm 0.00 in0.0 mm 0.00 in0.0 mm
12:08 AM 56.2°F13.4°C 51.7°F10.9°C 85% 12.4 mph W20.0 kmh W 15.0 mph24.1 kmh 29.44 in997.0 mb 0.00 in0.0 mm 0.00 in0.0 mm 0.00 in0.0 mm
12:09 AM 56.2°F13.4°C 51.7°F10.9°C 85% 11.3 mph W18.2 kmh W 16.0 mph25.7 kmh 29.44 in997.0 mb 0.00 in0.0 mm 0.00 in0.0 mm 0.00 in0.0 mm
12:10 AM 56.3°F13.5°C 51.8°F11.0°C 85% 12.4 mph W20.0 kmh W 16.0 mph25.7 kmh 29.44 in997.0 mb 0.00 in0.0 mm 0.00 in0.0 mm 0.00 in0.0 mm
12:11 AM 56.2°F13.4°C 51.7°F10.9°C 85% 13.3 mph W21.4 kmh W 16.0 mph25.7 kmh 29.44 in997.0 mb 0.00 in0.0 mm 0.00 in0.0 mm 0.00 in0.0 mm
12:12 AM 56.2°F13.4°C 51.7°F10.9°C 85% 11.5 mph W18.5 kmh W 16.0 mph25.7 kmh 29.44 in997.0 mb 0.00 in0.0 mm 0.00 in0.0 mm 0.00 in0.0 mm
12:13 AM 56.2°F13.4°C 51.7°F10.9°C 85% 11.4 mph W18.3 kmh W 15.0 mph24.1 kmh 29.44 in997.0 mb 0.00 in0.0 mm 0.00 in0.0 mm 0.00 in0.0 mm
12:14 AM 56.2°F13.4°C 51.7°F10.9°C 85% 13.5 mph W21.7 kmh W 17.0 mph27.4 kmh 29.44 in997.0 mb 0.00 in0.0 mm 0.00 in0.0 mm 0.00 in0.0 mm
12:15 AM 56.2°F13.4°C 51.7°F10.9°C 85% 13.4 mph W21.6 kmh W 17.0 mph27.4 kmh 29.44 in997.0 mb 0.00 in0.0 mm 0.00 in0.0 mm 0.00 in0.0 mm
12:16 AM 56.2°F13.4°C 51.7°F10.9°C 85% 14.0 mph W22.5 kmh W 17.0 mph27.4 kmh 29.44 in997.0 mb 0.00 in0.0 mm 0.00 in0.0 mm 0.00 in0.0 mm
12:17 AM 56.2°F13.4°C 51.7°F10.9°C 85% 13.5 mph W21.7 kmh W 17.0 mph27.4 kmh 29.45 in997.3 mb 0.00 in0.0 mm 0.00 in0.0 mm 0.00 in0.0 mm
12:18 AM 56.2°F13.4°C 51.7°F10.9°C 85% 13.9 mph W22.4 kmh W 16.0 mph25.7 kmh 29.44 in997.0 mb 0.00 in0.0 mm 0.00 in0.0 mm 0.00 in0.0 mm
12:19 AM 56.2°F13.4°C 51.7°F10.9°C 85% 13.0 mph W20.9 kmh W 16.0 mph25.7 kmh 29.45 in997.3 mb 0.00 in0.0 mm 0.00 in0.0 mm 0.00 in0.0 mm
12:20 AM 56.2°F13.4°C 51.7°F10.9°C 85% 12.3 mph W19.8 kmh W 15.0 mph24.1 kmh 29.45 in997.3 mb 0.00 in0.0 mm 0.00 in0.0 mm 0.00 in0.0 mm
12:21 AM 56.2°F13.4°C 51.7°F10.9°C 85% 13.6 mph W21.9 kmh W 17.0 mph27.4 kmh 29.45 in997.3 mb 0.00 in0.0 mm 0.00 in0.0 mm 0.00 in0.0 mm
12:22 AM 56.2°F13.4°C 51.7°F10.9°C 85% 14.4 mph W23.2 kmh W 17.0 mph27.4 kmh 29.45 in997.3 mb 0.00 in0.0 mm 0.00 in0.0 mm 0.00 in0.0 mm
12:23 AM 56.2°F13.4°C 51.7°F10.9°C 85% 13.2 mph W21.2 kmh W 17.0 mph27.4 kmh 29.45 in997.3 mb 0.00 in0.0 mm 0.00 in0.0 mm 0.00 in0.0 mm
12:24 AM 56.2°F13.4°C 52.1°F11.2°C 86% 13.8 mph W22.2 kmh W 17.0 mph27.4 kmh 29.45 in997.3 mb 0.00 in0.0 mm 0.00 in0.0 mm 0.00 in0.0 mm
12:25 AM 56.2°F13.4°C 51.7°F10.9°C 85% 14.1 mph W22.7 kmh W 17.0 mph27.4 kmh 29.45 in997.3 mb 0.00 in0.0 mm 0.00 in0.0 mm 0.00 in0.0 mm
12:26 AM 56.2°F13.4°C 51.7°F10.9°C 85% 14.1 mph W22.7 kmh W 17.0 mph27.4 kmh 29.45 in997.3 mb 0.00 in0.0 mm 0.00 in0.0 mm 0.00 in0.0 mm
12:27 AM 56.2°F13.4°C 51.7°F10.9°C 85% 13.4 mph W21.6 kmh W 16.0 mph25.7 kmh 29.45 in997.3 mb 0.00 in0.0 mm 0.00 in0.0 mm 0.00 in0.0 mm
12:28 AM 56.2°F13.4°C 52.1°F11.2°C 86% 13.0 mph W20.9 kmh W 16.0 mph25.7 kmh 29.45 in997.3 mb 0.00 in0.0 mm 0.00 in0.0 mm 0.00 in0.0 mm
12:29 AM 56.2°F13.4°C 52.1°F11.2°C 86% 14.5 mph W23.3 kmh W 17.0 mph27.4 kmh 29.45 in997.3 mb 0.00 in0.0 mm 0.00 in0.0 mm 0.00 in0.0 mm
12:30 AM 56.2°F13.4°C 51.7°F10.9°C 85% 12.7 mph W20.4 kmh W 17.0 mph27.4 kmh 29.45 in997.3 mb 0.00 in0.0 mm 0.00 in0.0 mm 0.00 in0.0 mm
12:31 AM 56.1°F13.4°C 51.7°F10.9°C 85% 13.5 mph W21.7 kmh W 16.0 mph25.7 kmh 29.45 in997.3 mb 0.00 in0.0 mm 0.00 in0.0 mm 0.00 in0.0 mm
12:32 AM 56.1°F13.4°C 51.7°F10.9°C 85% 14.4 mph W23.2 kmh W 17.0 mph27.4 kmh 29.45 in997.3 mb 0.00 in0.0 mm 0.00 in0.0 mm 0.00 in0.0 mm
12:33 AM 56.2°F13.4°C 51.7°F10.9°C 85% 12.6 mph W20.3 kmh W 17.0 mph27.4 kmh 29.45 in997.3 mb 0.00 in0.0 mm 0.00 in0.0 mm 0.00 in0.0 mm
12:34 AM 56.2°F13.4°C 52.1°F11.2°C 86% 13.4 mph W21.6 kmh W 16.0 mph25.7 kmh 29.45 in997.3 mb 0.00 in0.0 mm 0.00 in0.0 mm 0.00 in0.0 mm
12:35 AM 56.2°F13.4°C 51.7°F10.9°C 85% 13.7 mph W22.0 kmh W 17.0 mph27.4 kmh 29.45 in997.3 mb 0.00 in0.0 mm 0.00 in0.0 mm 0.00 in0.0 mm
12:36 AM 56.1°F13.4°C 51.7°F10.9°C 85% 14.4 mph W23.2 kmh W 18.0 mph29.0 kmh 29.45 in997.3 mb 0.00 in0.0 mm 0.00 in0.0 mm 0.00 in0.0 mm
12:37 AM 56.1°F13.4°C 52.0°F11.1°C 86% 12.7 mph W20.4 kmh W 18.0 mph29.0 kmh 29.45 in997.3 mb 0.00 in0.0 mm 0.00 in0.0 mm 0.00 in0.0 mm
12:38 AM 56.1°F13.4°C 51.7°F10.9°C 85% 14.6 mph W23.5 kmh W 18.0 mph29.0 kmh 29.45 in997.3 mb 0.00 in0.0 mm 0.00 in0.0 mm 0.00 in0.0 mm
12:39 AM 56.1°F13.4°C 51.7°F10.9°C 85% 12.6 mph W20.3 kmh W 18.0 mph29.0 kmh 29.45 in997.3 mb 0.00 in0.0 mm 0.00 in0.0 mm 0.00 in0.0 mm
12:40 AM 56.2°F13.4°C 52.1°F11.2°C 86% 12.2 mph W19.6 kmh W 15.0 mph24.1 kmh 29.45 in997.3 mb 0.00 in0.0 mm 0.00 in0.0 mm 0.00 in0.0 mm
12:41 AM 56.2°F13.4°C 51.7°F10.9°C 85% 13.5 mph W21.7 kmh W 17.0 mph27.4 kmh 29.45 in997.3 mb 0.00 in0.0 mm 0.00 in0.0 mm 0.00 in0.0 mm
12:42 AM 56.1°F13.4°C 51.7°F10.9°C 85% 13.2 mph W21.2 kmh W 17.0 mph27.4 kmh 29.45 in997.3 mb 0.00 in0.0 mm 0.00 in0.0 mm 0.00 in0.0 mm
12:43 AM 56.1°F13.4°C 51.7°F10.9°C 85% 12.6 mph W20.3 kmh W 16.0 mph25.7 kmh 29.45 in997.3 mb 0.00 in0.0 mm 0.00 in0.0 mm 0.00 in0.0 mm
12:44 AM 56.1°F13.4°C 51.7°F10.9°C 85% 13.5 mph W21.7 kmh W 16.0 mph25.7 kmh 29.45 in997.3 mb 0.00 in0.0 mm 0.00 in0.0 mm 0.00 in0.0 mm
12:45 AM 56.1°F13.4°C 51.7°F10.9°C 85% 14.9 mph W24.0 kmh W 22.0 mph35.4 kmh 29.45 in997.3 mb 0.00 in0.0 mm 0.00 in0.0 mm 0.00 in0.0 mm
12:46 AM 56.0°F13.3°C 51.6°F10.9°C 85% 14.1 mph W22.7 kmh W 22.0 mph35.4 kmh 29.45 in997.3 mb 0.00 in0.0 mm 0.00 in0.0 mm 0.00 in0.0 mm
12:47 AM 56.1°F13.4°C 51.7°F10.9°C 85% 13.7 mph W22.0 kmh W 18.0 mph29.0 kmh 29.45 in997.3 mb 0.00 in0.0 mm 0.00 in0.0 mm 0.00 in0.0 mm
12:48 AM 56.0°F13.3°C 51.2°F10.7°C 84% 14.9 mph W24.0 kmh W 19.0 mph30.6 kmh 29.45 in997.3 mb 0.00 in0.0 mm 0.00 in0.0 mm 0.00 in0.0 mm
12:49 AM 56.1°F13.4°C 51.3°F10.7°C 84% 14.2 mph W22.9 kmh W 19.0 mph30.6 kmh 29.45 in997.3 mb 0.00 in0.0 mm 0.00 in0.0 mm 0.00 in0.0 mm
12:50 AM 56.1°F13.4°C 51.3°F10.7°C 84% 12.9 mph W20.8 kmh W 17.0 mph27.4 kmh 29.45 in997.3 mb 0.00 in0.0 mm 0.00 in0.0 mm 0.00 in0.0 mm
12:51 AM 56.1°F13.4°C 51.7°F10.9°C 85% 10.5 mph W16.9 kmh W 16.0 mph25.7 kmh 29.45 in997.3 mb 0.00 in0.0 mm 0.00 in0.0 mm 0.00 in0.0 mm
12:52 AM 56.1°F13.4°C 51.7°F10.9°C 85% 12.6 mph W20.3 kmh W 14.0 mph22.5 kmh 29.45 in997.3 mb 0.00 in0.0 mm 0.00 in0.0 mm 0.00 in0.0 mm
12:53 AM 56.0°F13.3°C 51.6°F10.9°C 85% 12.8 mph W20.6 kmh W 15.0 mph24.1 kmh 29.45 in997.3 mb 0.00 in0.0 mm 0.00 in0.0 mm 0.00 in0.0 mm
12:54 AM 56.0°F13.3°C 51.6°F10.9°C 85% 11.9 mph W19.2 kmh W 15.0 mph24.1 kmh 29.45 in997.3 mb 0.00 in0.0 mm 0.00 in0.0 mm 0.00 in0.0 mm
12:55 AM 56.0°F13.3°C 51.2°F10.7°C 84% 14.0 mph W22.5 kmh W 15.0 mph24.1 kmh 29.45 in997.3 mb 0.00 in0.0 mm 0.00 in0.0 mm 0.00 in0.0 mm
12:56 AM 56.0°F13.3°C 51.2°F10.7°C 84% 14.1 mph W22.7 kmh W 16.0 mph25.7 kmh 29.45 in997.3 mb 0.00 in0.0 mm 0.00 in0.0 mm 0.00 in0.0 mm
12:57 AM 56.0°F13.3°C 51.2°F10.7°C 84% 12.3 mph W19.8 kmh W 16.0 mph25.7 kmh 29.45 in997.3 mb 0.00 in0.0 mm 0.00 in0.0 mm 0.00 in0.0 mm
12:58 AM 56.0°F13.3°C 51.6°F10.9°C 85% 11.1 mph W17.9 kmh W 15.0 mph24.1 kmh 29.46 in997.6 mb 0.00 in0.0 mm 0.00 in0.0 mm 0.00 in0.0 mm
12:59 AM 56.0°F13.3°C 51.9°F11.1°C 86% 10.7 mph W17.2 kmh W 13.0 mph20.9 kmh 29.45 in997.3 mb 0.00 in0.0 mm 0.00 in0.0 mm 0.00 in0.0 mm
01:00 AM 56.0°F13.3°C 51.6°F10.9°C 85% 10.2 mph W16.4 kmh W 13.0 mph20.9 kmh 29.45 in997.3 mb 0.00 in0.0 mm 0.00 in0.0 mm 0.00 in0.0 mm
01:01 AM 56.0°F13.3°C 51.6°F10.9°C 85% 12.9 mph W20.8 kmh W 16.0 mph25.7 kmh 29.45 in997.3 mb 0.00 in0.0 mm 0.00 in0.0 mm 0.00 in0.0 mm
01:02 AM 56.0°F13.3°C 51.6°F10.9°C 85% 13.0 mph W20.9 kmh W 16.0 mph25.7 kmh 29.46 in997.6 mb 0.00 in0.0 mm 0.00 in0.0 mm 0.00 in0.0 mm
01:03 AM 56.0°F13.3°C 51.2°F10.7°C 84% 11.5 mph W18.5 kmh W 16.0 mph25.7 kmh 29.46 in997.6 mb 0.00 in0.0 mm 0.00 in0.0 mm 0.00 in0.0 mm
01:04 AM 56.0°F13.3°C 51.6°F10.9°C 85% 11.4 mph W18.3 kmh W 15.0 mph24.1 kmh 29.46 in997.6 mb 0.00 in0.0 mm 0.00 in0.0 mm 0.00 in0.0 mm
01:05 AM 56.0°F13.3°C 51.6°F10.9°C 85% 12.2 mph W19.6 kmh W 15.0 mph24.1 kmh 29.46 in997.6 mb 0.00 in0.0 mm 0.00 in0.0 mm 0.00 in0.0 mm
01:06 AM 55.9°F13.3°C 51.1°F10.6°C 84% 12.7 mph W20.4 kmh W 15.0 mph24.1 kmh 29.46 in997.6 mb 0.00 in0.0 mm 0.00 in0.0 mm 0.00 in0.0 mm
01:07 AM 56.0°F13.3°C 51.6°F10.9°C 85% 10.9 mph W17.5 kmh W 14.0 mph22.5 kmh 29.46 in997.6 mb 0.00 in0.0 mm 0.00 in0.0 mm 0.00 in0.0 mm
01:08 AM 55.9°F13.3°C 51.5°F10.8°C 85% 13.7 mph W22.0 kmh W 15.0 mph24.1 kmh 29.46 in997.6 mb 0.00 in0.0 mm 0.00 in0.0 mm 0.00 in0.0 mm
01:09 AM 55.9°F13.3°C 51.1°F10.6°C 84% 12.1 mph W19.5 kmh W 15.0 mph24.1 kmh 29.46 in997.6 mb 0.00 in0.0 mm 0.00 in0.0 mm 0.00 in0.0 mm
01:10 AM 55.9°F13.3°C 51.1°F10.6°C 84% 11.6 mph W18.7 kmh W 14.0 mph22.5 kmh 29.46 in997.6 mb 0.00 in0.0 mm 0.00 in0.0 mm 0.00 in0.0 mm
01:11 AM 55.9°F13.3°C 51.5°F10.8°C 85% 12.0 mph W19.3 kmh W 14.0 mph22.5 kmh 29.46 in997.6 mb 0.00 in0.0 mm 0.00 in0.0 mm 0.00 in0.0 mm
01:12 AM 55.9°F13.3°C 51.5°F10.8°C 85% 11.1 mph W17.9 kmh W 14.0 mph22.5 kmh 29.46 in997.6 mb 0.00 in0.0 mm 0.00 in0.0 mm 0.00 in0.0 mm
01:13 AM 55.9°F13.3°C 51.5°F10.8°C 85% 10.7 mph W17.2 kmh W 15.0 mph24.1 kmh 29.46 in997.6 mb 0.00 in0.0 mm 0.00 in0.0 mm 0.00 in0.0 mm
01:14 AM 55.9°F13.3°C 51.5°F10.8°C 85% 11.3 mph W18.2 kmh W 15.0 mph24.1 kmh 29.46 in997.6 mb 0.00 in0.0 mm 0.00 in0.0 mm 0.00 in0.0 mm
01:15 AM 55.9°F13.3°C 51.5°F10.8°C 85% 12.0 mph W19.3 kmh W 15.0 mph24.1 kmh 29.46 in997.6 mb 0.00 in0.0 mm 0.00 in0.0 mm 0.00 in0.0 mm
01:16 AM 55.9°F13.3°C 51.5°F10.8°C 85% 12.4 mph W20.0 kmh W 15.0 mph24.1 kmh 29.46 in997.6 mb 0.00 in0.0 mm 0.00 in0.0 mm 0.00 in0.0 mm
01:17 AM 55.9°F13.3°C 51.5°F10.8°C 85% 12.3 mph W19.8 kmh W 15.0 mph24.1 kmh 29.46 in997.6 mb 0.00 in0.0 mm 0.00 in0.0 mm 0.00 in0.0 mm
01:18 AM 55.9°F13.3°C 51.5°F10.8°C 85% 12.3 mph W19.8 kmh W 15.0 mph24.1 kmh 29.46 in997.6 mb 0.00 in0.0 mm 0.00 in0.0 mm 0.00 in0.0 mm
01:19 AM 55.9°F13.3°C 51.1°F10.6°C 84% 13.0 mph W20.9 kmh W 16.0 mph25.7 kmh 29.46 in997.6 mb 0.00 in0.0 mm 0.00 in0.0 mm 0.00 in0.0 mm
01:20 AM 55.9°F13.3°C 51.5°F10.8°C 85% 10.2 mph W16.4 kmh W 16.0 mph25.7 kmh 29.46 in997.6 mb 0.00 in0.0 mm 0.00 in0.0 mm 0.00 in0.0 mm
01:21 AM 55.9°F13.3°C 51.5°F10.8°C 85% 12.6 mph W20.3 kmh W 15.0 mph24.1 kmh 29.46 in997.6 mb 0.00 in0.0 mm 0.00 in0.0 mm 0.00 in0.0 mm
01:22 AM 55.9°F13.3°C 51.5°F10.8°C 85% 11.6 mph W18.7 kmh W 15.0 mph24.1 kmh 29.46 in997.6 mb 0.00 in0.0 mm 0.00 in0.0 mm 0.00 in0.0 mm
01:23 AM 55.9°F13.3°C 51.1°F10.6°C 84% 12.1 mph W19.5 kmh W 14.0 mph22.5 kmh 29.46 in997.6 mb 0.00 in0.0 mm 0.00 in0.0 mm 0.00 in0.0 mm
01:24 AM 55.9°F13.3°C 51.5°F10.8°C 85% 10.5 mph W16.9 kmh W 14.0 mph22.5 kmh 29.46 in997.6 mb 0.00 in0.0 mm 0.00 in0.0 mm 0.00 in0.0 mm
01:25 AM 55.9°F13.3°C 51.5°F10.8°C 85% 11.3 mph W18.2 kmh W 13.0 mph20.9 kmh 29.46 in997.6 mb 0.00 in0.0 mm 0.00 in0.0 mm 0.00 in0.0 mm
01:26 AM 55.9°F13.3°C 51.1°F10.6°C 84% 9.9 mph W15.9 kmh W 13.0 mph20.9 kmh 29.46 in997.6 mb 0.00 in0.0 mm 0.00 in0.0 mm 0.00 in0.0 mm
01:27 AM 55.9°F13.3°C 51.1°F10.6°C 84% 12.0 mph W19.3 kmh W 14.0 mph22.5 kmh 29.46 in997.6 mb 0.00 in0.0 mm 0.00 in0.0 mm 0.00 in0.0 mm
01:28 AM 55.9°F13.3°C 51.1°F10.6°C 84% 11.7 mph W18.8 kmh W 15.0 mph24.1 kmh 29.46 in997.6 mb 0.00 in0.0 mm 0.00 in0.0 mm 0.00 in0.0 mm
01:29 AM 55.9°F13.3°C 51.1°F10.6°C 84% 11.8 mph W19.0 kmh W 15.0 mph24.1 kmh 29.46 in997.6 mb 0.00 in0.0 mm 0.00 in0.0 mm 0.00 in0.0 mm
01:30 AM 55.9°F13.3°C 51.1°F10.6°C 84% 11.7 mph W18.8 kmh W 15.0 mph24.1 kmh 29.46 in997.6 mb 0.00 in0.0 mm 0.00 in0.0 mm 0.00 in0.0 mm
01:31 AM 55.9°F13.3°C 51.1°F10.6°C 84% 11.4 mph W18.3 kmh W 14.0 mph22.5 kmh 29.46 in997.6 mb 0.00 in0.0 mm 0.00 in0.0 mm 0.00 in0.0 mm
01:32 AM 55.9°F13.3°C 51.1°F10.6°C 84% 12.3 mph W19.8 kmh W 15.0 mph24.1 kmh 29.46 in997.6 mb 0.00 in0.0 mm 0.00 in0.0 mm 0.00 in0.0 mm
01:33 AM 55.9°F13.3°C 51.1°F10.6°C 84% 10.9 mph W17.5 kmh W 15.0 mph24.1 kmh 29.46 in997.6 mb 0.00 in0.0 mm 0.00 in0.0 mm 0.00 in0.0 mm
01:34 AM 55.9°F13.3°C 51.1°F10.6°C 84% 12.7 mph W20.4 kmh W 17.0 mph27.4 kmh 29.46 in997.6 mb 0.00 in0.0 mm 0.00 in0.0 mm 0.00 in0.0 mm
01:35 AM 55.9°F13.3°C 51.5°F10.8°C 85% 9.6 mph W15.4 kmh W 17.0 mph27.4 kmh 29.47 in998.0 mb 0.00 in0.0 mm 0.00 in0.0 mm 0.00 in0.0 mm
01:36 AM 55.9°F13.3°C 51.1°F10.6°C 84% 12.3 mph W19.8 kmh W 14.0 mph22.5 kmh 29.47 in998.0 mb 0.00 in0.0 mm 0.00 in0.0 mm 0.00 in0.0 mm
01:37 AM 55.9°F13.3°C 51.1°F10.6°C 84% 13.5 mph W21.7 kmh W 15.0 mph24.1 kmh 29.46 in997.6 mb 0.00 in0.0 mm 0.00 in0.0 mm 0.00 in0.0 mm
01:38 AM 55.9°F13.3°C 51.1°F10.6°C 84% 12.4 mph W20.0 kmh W 15.0 mph24.1 kmh 29.46 in997.6 mb 0.00 in0.0 mm 0.00 in0.0 mm 0.00 in0.0 mm
01:39 AM 56.0°F13.3°C 51.2°F10.7°C 84% 12.6 mph W20.3 kmh W 15.0 mph24.1 kmh 29.47 in998.0 mb 0.00 in0.0 mm 0.00 in0.0 mm 0.00 in0.0 mm
01:40 AM 56.0°F13.3°C 51.2°F10.7°C 84% 12.2 mph W19.6 kmh W 15.0 mph24.1 kmh 29.47 in998.0 mb 0.00 in0.0 mm 0.00 in0.0 mm 0.00 in0.0 mm
01:41 AM 56.0°F13.3°C 51.2°F10.7°C 84% 13.5 mph W21.7 kmh W 17.0 mph27.4 kmh 29.46 in997.6 mb 0.00 in0.0 mm 0.00 in0.0 mm 0.00 in0.0 mm
01:42 AM 56.0°F13.3°C 51.2°F10.7°C 84% 12.1 mph W19.5 kmh W 17.0 mph27.4 kmh 29.46 in997.6 mb 0.00 in0.0 mm 0.00 in0.0 mm 0.00 in0.0 mm
01:43 AM 56.0°F13.3°C 51.2°F10.7°C 84% 13.1 mph W21.1 kmh W 16.0 mph25.7 kmh 29.47 in998.0 mb 0.00 in0.0 mm 0.00 in0.0 mm 0.00 in0.0 mm
01:44 AM 56.0°F13.3°C 51.2°F10.7°C 84% 12.8 mph W20.6 kmh W 16.0 mph25.7 kmh 29.47 in998.0 mb 0.00 in0.0 mm 0.00 in0.0 mm 0.00 in0.0 mm
01:45 AM 56.0°F13.3°C 51.2°F10.7°C 84% 11.7 mph W18.8 kmh W 16.0 mph25.7 kmh 29.47 in998.0 mb 0.00 in0.0 mm 0.00 in0.0 mm 0.00 in0.0 mm
01:46 AM 56.0°F13.3°C 51.2°F10.7°C 84% 11.6 mph W18.7 kmh W 15.0 mph24.1 kmh 29.47 in998.0 mb 0.00 in0.0 mm 0.00 in0.0 mm 0.00 in0.0 mm
01:47 AM 56.0°F13.3°C 50.9°F10.5°C 83% 13.0 mph W20.9 kmh W 17.0 mph27.4 kmh 29.47 in998.0 mb 0.00 in0.0 mm 0.00 in0.0 mm 0.00 in0.0 mm
01:48 AM 56.0°F13.3°C 51.2°F10.7°C 84% 11.3 mph W18.2 kmh W 17.0 mph27.4 kmh 29.47 in998.0 mb 0.00 in0.0 mm 0.00 in0.0 mm 0.00 in0.0 mm
01:49 AM 56.0°F13.3°C 51.2°F10.7°C 84% 13.5 mph W21.7 kmh W 16.0 mph25.7 kmh 29.47 in998.0 mb 0.00 in0.0 mm 0.00 in0.0 mm 0.00 in0.0 mm
01:50 AM 56.1°F13.4°C 51.3°F10.7°C 84% 13.6 mph W21.9 kmh W 16.0 mph25.7 kmh 29.47 in998.0 mb 0.00 in0.0 mm 0.00 in0.0 mm 0.00 in0.0 mm
01:51 AM 56.1°F13.4°C 51.0°F10.6°C 83% 16.1 mph W25.9 kmh W 19.0 mph30.6 kmh 29.47 in998.0 mb 0.00 in0.0 mm 0.00 in0.0 mm 0.00 in0.0 mm
01:52 AM 56.2°F13.4°C 51.1°F10.6°C 83% 12.5 mph W20.1 kmh W 19.0 mph30.6 kmh 29.47 in998.0 mb 0.00 in0.0 mm 0.00 in0.0 mm 0.00 in0.0 mm
01:53 AM 56.1°F13.4°C 51.0°F10.6°C 83% 14.1 mph W22.7 kmh W 18.0 mph29.0 kmh 29.47 in998.0 mb 0.00 in0.0 mm 0.00 in0.0 mm 0.00 in0.0 mm
01:54 AM 56.2°F13.4°C 51.1°F10.6°C 83% 14.3 mph W23.0 kmh W 19.0 mph30.6 kmh 29.47 in998.0 mb 0.00 in0.0 mm 0.00 in0.0 mm 0.00 in0.0 mm
01:55 AM 56.3°F13.5°C 51.2°F10.7°C 83% 14.5 mph W23.3 kmh W 19.0 mph30.6 kmh 29.47 in998.0 mb 0.00 in0.0 mm 0.00 in0.0 mm 0.00 in0.0 mm
01:56 AM 56.2°F13.4°C 51.1°F10.6°C 83% 13.4 mph W21.6 kmh W 17.0 mph27.4 kmh 29.47 in998.0 mb 0.00 in0.0 mm 0.00 in0.0 mm 0.00 in0.0 mm
01:57 AM 56.3°F13.5°C 51.5°F10.8°C 84% 12.9 mph W20.8 kmh W 16.0 mph25.7 kmh 29.47 in998.0 mb 0.00 in0.0 mm 0.00 in0.0 mm 0.00 in0.0 mm
01:58 AM 56.3°F13.5°C 51.2°F10.7°C 83% 12.9 mph W20.8 kmh W 16.0 mph25.7 kmh 29.47 in998.0 mb 0.00 in0.0 mm 0.00 in0.0 mm 0.00 in0.0 mm
01:59 AM 56.3°F13.5°C 51.2°F10.7°C 83% 13.0 mph W20.9 kmh W 16.0 mph25.7 kmh 29.47 in998.0 mb 0.00 in0.0 mm 0.00 in0.0 mm 0.00 in0.0 mm
02:00 AM 56.3°F13.5°C 51.2°F10.7°C 83% 13.6 mph W21.9 kmh W 16.0 mph25.7 kmh 29.47 in998.0 mb 0.00 in0.0 mm 0.00 in0.0 mm 0.00 in0.0 mm
02:01 AM 56.3°F13.5°C 51.5°F10.8°C 84% 12.7 mph W20.4 kmh W 16.0 mph25.7 kmh 29.47 in998.0 mb 0.00 in0.0 mm 0.00 in0.0 mm 0.00 in0.0 mm
02:02 AM 56.3°F13.5°C 51.2°F10.7°C 83% 14.2 mph W22.9 kmh W 17.0 mph27.4 kmh 29.47 in998.0 mb 0.00 in0.0 mm 0.00 in0.0 mm 0.00 in0.0 mm
02:03 AM 56.4°F13.6°C 51.0°F10.6°C 82% 13.3 mph W21.4 kmh W 17.0 mph27.4 kmh 29.47 in998.0 mb 0.00 in0.0 mm 0.00 in0.0 mm 0.00 in0.0 mm
02:04 AM 56.3°F13.5°C 51.2°F10.7°C 83% 12.8 mph W20.6 kmh W 17.0 mph27.4 kmh 29.47 in998.0 mb 0.00 in0.0 mm 0.00 in0.0 mm 0.00 in0.0 mm
02:05 AM 56.4°F13.6°C 51.3°F10.7°C 83% 12.9 mph W20.8 kmh W 17.0 mph27.4 kmh 29.47 in998.0 mb 0.00 in0.0 mm 0.00 in0.0 mm 0.00 in0.0 mm
02:06 AM 56.3°F13.5°C 50.9°F10.5°C 82% 13.2 mph W21.2 kmh W 15.0 mph24.1 kmh 29.47 in998.0 mb 0.00 in0.0 mm 0.00 in0.0 mm 0.00 in0.0 mm
02:07 AM 56.3°F13.5°C 51.2°F10.7°C 83% 12.6 mph W20.3 kmh W 15.0 mph24.1 kmh 29.47 in998.0 mb 0.00 in0.0 mm 0.00 in0.0 mm 0.00 in0.0 mm
02:08 AM 56.3°F13.5°C 50.9°F10.5°C 82% 12.2 mph W19.6 kmh W 15.0 mph24.1 kmh 29.47 in998.0 mb 0.00 in0.0 mm 0.00 in0.0 mm 0.00 in0.0 mm
02:09 AM 56.3°F13.5°C 50.9°F10.5°C 82% 12.7 mph WSW20.4 kmh WSW 14.0 mph22.5 kmh 29.47 in998.0 mb 0.00 in0.0 mm 0.00 in0.0 mm 0.00 in0.0 mm
02:10 AM 56.3°F13.5°C 50.9°F10.5°C 82% 12.6 mph W20.3 kmh W 14.0 mph22.5 kmh 29.47 in998.0 mb 0.00 in0.0 mm 0.00 in0.0 mm 0.00 in0.0 mm
02:11 AM 56.3°F13.5°C 51.2°F10.7°C 83% 12.5 mph W20.1 kmh W 14.0 mph22.5 kmh 29.47 in998.0 mb 0.00 in0.0 mm 0.00 in0.0 mm 0.00 in0.0 mm
02:12 AM 56.3°F13.5°C 50.9°F10.5°C 82% 13.7 mph W22.0 kmh W 16.0 mph25.7 kmh 29.47 in998.0 mb 0.00 in0.0 mm 0.00 in0.0 mm 0.00 in0.0 mm
02:13 AM 56.3°F13.5°C 50.9°F10.5°C 82% 13.1 mph W21.1 kmh W 16.0 mph25.7 kmh 29.47 in998.0 mb 0.00 in0.0 mm 0.00 in0.0 mm 0.00 in0.0 mm
02:14 AM 56.3°F13.5°C 50.9°F10.5°C 82% 12.2 mph W19.6 kmh W 15.0 mph24.1 kmh 29.47 in998.0 mb 0.00 in0.0 mm 0.00 in0.0 mm 0.00 in0.0 mm
02:15 AM 56.3°F13.5°C 50.9°F10.5°C 82% 13.8 mph W22.2 kmh W 16.0 mph25.7 kmh 29.47 in998.0 mb 0.00 in0.0 mm 0.00 in0.0 mm 0.00 in0.0 mm
02:16 AM 56.3°F13.5°C 50.9°F10.5°C 82% 11.9 mph W19.2 kmh W 16.0 mph25.7 kmh 29.47 in998.0 mb 0.00 in0.0 mm 0.00 in0.0 mm 0.00 in0.0 mm
02:17 AM 56.3°F13.5°C 50.9°F10.5°C 82% 13.4 mph W21.6 kmh W 16.0 mph25.7 kmh 29.48 in998.3 mb 0.00 in0.0 mm 0.00 in0.0 mm 0.00 in0.0 mm
02:18 AM 56.3°F13.5°C 51.2°F10.7°C 83% 12.4 mph W20.0 kmh W 16.0 mph25.7 kmh 29.48 in998.3 mb 0.00 in0.0 mm 0.00 in0.0 mm 0.00 in0.0 mm
02:19 AM 56.3°F13.5°C 51.2°F10.7°C 83% 13.2 mph W21.2 kmh W 15.0 mph24.1 kmh 29.47 in998.0 mb 0.00 in0.0 mm 0.00 in0.0 mm 0.00 in0.0 mm
02:20 AM 56.3°F13.5°C 50.9°F10.5°C 82% 13.0 mph W20.9 kmh W 15.0 mph24.1 kmh 29.48 in998.3 mb 0.00 in0.0 mm 0.00 in0.0 mm 0.00 in0.0 mm
02:21 AM 56.3°F13.5°C 51.2°F10.7°C 83% 14.1 mph W22.7 kmh W 16.0 mph25.7 kmh 29.48 in998.3 mb 0.00 in0.0 mm 0.00 in0.0 mm 0.00 in0.0 mm
02:22 AM 56.3°F13.5°C 51.2°F10.7°C 83% 13.3 mph W21.4 kmh W 16.0 mph25.7 kmh 29.48 in998.3 mb 0.00 in0.0 mm 0.00 in0.0 mm 0.00 in0.0 mm
02:23 AM 56.3°F13.5°C 50.9°F10.5°C 82% 14.2 mph W22.9 kmh W 17.0 mph27.4 kmh 29.48 in998.3 mb 0.00 in0.0 mm 0.00 in0.0 mm 0.00 in0.0 mm
02:24 AM 56.3°F13.5°C 50.9°F10.5°C 82% 14.7 mph W23.7 kmh W 17.0 mph27.4 kmh 29.48 in998.3 mb 0.00 in0.0 mm 0.00 in0.0 mm 0.00 in0.0 mm
02:25 AM 56.3°F13.5°C 50.9°F10.5°C 82% 14.4 mph W23.2 kmh W 18.0 mph29.0 kmh 29.48 in998.3 mb 0.00 in0.0 mm 0.00 in0.0 mm 0.00 in0.0 mm
02:26 AM 56.3°F13.5°C 51.2°F10.7°C 83% 13.3 mph W21.4 kmh W 18.0 mph29.0 kmh 29.48 in998.3 mb 0.00 in0.0 mm 0.00 in0.0 mm 0.00 in0.0 mm
02:27 AM 56.3°F13.5°C 50.9°F10.5°C 82% 15.5 mph W24.9 kmh W 19.0 mph30.6 kmh 29.48 in998.3 mb 0.00 in0.0 mm 0.00 in0.0 mm 0.00 in0.0 mm
02:28 AM 56.3°F13.5°C 50.9°F10.5°C 82% 13.8 mph W22.2 kmh W 19.0 mph30.6 kmh 29.48 in998.3 mb 0.00 in0.0 mm 0.00 in0.0 mm 0.00 in0.0 mm
02:29 AM 56.4°F13.6°C 51.0°F10.6°C 82% 16.2 mph W26.1 kmh W 18.0 mph29.0 kmh 29.48 in998.3 mb 0.00 in0.0 mm 0.00 in0.0 mm 0.00 in0.0 mm
02:30 AM 56.4°F13.6°C 51.0°F10.6°C 82% 13.7 mph W22.0 kmh W 18.0 mph29.0 kmh 29.48 in998.3 mb 0.00 in0.0 mm 0.00 in0.0 mm 0.00 in0.0 mm
02:31 AM 56.3°F13.5°C 50.9°F10.5°C 82% 13.1 mph W21.1 kmh W 16.0 mph25.7 kmh 29.48 in998.3 mb 0.00 in0.0 mm 0.00 in0.0 mm 0.00 in0.0 mm
02:32 AM 56.3°F13.5°C 51.2°F10.7°C 83% 11.6 mph W18.7 kmh W 16.0 mph25.7 kmh 29.48 in998.3 mb 0.00 in0.0 mm 0.00 in0.0 mm 0.00 in0.0 mm
02:33 AM 56.3°F13.5°C 50.9°F10.5°C 82% 13.1 mph W21.1 kmh W 16.0 mph25.7 kmh 29.48 in998.3 mb 0.00 in0.0 mm 0.00 in0.0 mm 0.00 in0.0 mm
02:34 AM 56.3°F13.5°C 50.9°F10.5°C 82% 13.2 mph W21.2 kmh W 16.0 mph25.7 kmh 29.48 in998.3 mb 0.00 in0.0 mm 0.00 in0.0 mm 0.00 in0.0 mm
02:35 AM 56.3°F13.5°C 51.2°F10.7°C 83% 13.8 mph W22.2 kmh W 15.0 mph24.1 kmh 29.48 in998.3 mb 0.00 in0.0 mm 0.00 in0.0 mm 0.00 in0.0 mm
02:36 AM 56.3°F13.5°C 50.9°F10.5°C 82% 14.2 mph W22.9 kmh W 17.0 mph27.4 kmh 29.48 in998.3 mb 0.00 in0.0 mm 0.00 in0.0 mm 0.00 in0.0 mm
02:37 AM 56.3°F13.5°C 50.9°F10.5°C 82% 13.3 mph W21.4 kmh W 17.0 mph27.4 kmh 29.48 in998.3 mb 0.00 in0.0 mm 0.00 in0.0 mm 0.00 in0.0 mm
02:38 AM 56.3°F13.5°C 51.2°F10.7°C 83% 12.6 mph W20.3 kmh W 16.0 mph25.7 kmh 29.48 in998.3 mb 0.00 in0.0 mm 0.00 in0.0 mm 0.00 in0.0 mm
02:39 AM 56.4°F13.6°C 51.0°F10.6°C 82% 14.0 mph W22.5 kmh W 16.0 mph25.7 kmh 29.48 in998.3 mb 0.00 in0.0 mm 0.00 in0.0 mm 0.00 in0.0 mm
02:40 AM 56.4°F13.6°C 51.3°F10.7°C 83% 13.3 mph W21.4 kmh W 16.0 mph25.7 kmh 29.48 in998.3 mb 0.00 in0.0 mm 0.00 in0.0 mm 0.00 in0.0 mm
02:41 AM 56.3°F13.5°C 51.2°F10.7°C 83% 11.7 mph W18.8 kmh W 15.0 mph24.1 kmh 29.48 in998.3 mb 0.00 in0.0 mm 0.00 in0.0 mm 0.00 in0.0 mm
02:42 AM 56.3°F13.5°C 51.2°F10.7°C 83% 12.3 mph W19.8 kmh W 14.0 mph22.5 kmh 29.48 in998.3 mb 0.00 in0.0 mm 0.00 in0.0 mm 0.00 in0.0 mm
02:43 AM 56.3°F13.5°C 50.9°F10.5°C 82% 10.7 mph W17.2 kmh W 14.0 mph22.5 kmh 29.48 in998.3 mb 0.00 in0.0 mm 0.00 in0.0 mm 0.00 in0.0 mm
02:44 AM 56.3°F13.5°C 51.2°F10.7°C 83% 12.5 mph W20.1 kmh W 15.0 mph24.1 kmh 29.48 in998.3 mb 0.00 in0.0 mm 0.00 in0.0 mm 0.00 in0.0 mm
02:45 AM 56.3°F13.5°C 50.9°F10.5°C 82% 13.0 mph W20.9 kmh W 16.0 mph25.7 kmh 29.48 in998.3 mb 0.00 in0.0 mm 0.00 in0.0 mm 0.00 in0.0 mm
02:46 AM 56.3°F13.5°C 50.9°F10.5°C 82% 11.3 mph W18.2 kmh W 15.0 mph24.1 kmh 29.48 in998.3 mb 0.00 in0.0 mm 0.00 in0.0 mm 0.00 in0.0 mm
02:47 AM 56.3°F13.5°C 51.2°F10.7°C 83% 11.0 mph W17.7 kmh W 14.0 mph22.5 kmh 29.48 in998.3 mb 0.00 in0.0 mm 0.00 in0.0 mm 0.00 in0.0 mm
02:48 AM 56.3°F13.5°C 50.9°F10.5°C 82% 10.6 mph W17.1 kmh W 14.0 mph22.5 kmh 29.48 in998.3 mb 0.00 in0.0 mm 0.00 in0.0 mm 0.00 in0.0 mm
02:49 AM 56.3°F13.5°C 51.2°F10.7°C 83% 12.2 mph W19.6 kmh W 17.0 mph27.4 kmh 29.48 in998.3 mb 0.00 in0.0 mm 0.00 in0.0 mm 0.00 in0.0 mm
02:50 AM 56.3°F13.5°C 50.9°F10.5°C 82% 11.6 mph W18.7 kmh W 17.0 mph27.4 kmh 29.48 in998.3 mb 0.00 in0.0 mm 0.00 in0.0 mm 0.00 in0.0 mm
02:51 AM 56.3°F13.5°C 50.9°F10.5°C 82% 12.2 mph W19.6 kmh W 15.0 mph24.1 kmh 29.48 in998.3 mb 0.00 in0.0 mm 0.00 in0.0 mm 0.00 in0.0 mm
02:52 AM 56.3°F13.5°C 50.9°F10.5°C 82% 12.3 mph W19.8 kmh W 16.0 mph25.7 kmh 29.48 in998.3 mb 0.00 in0.0 mm 0.00 in0.0 mm 0.00 in0.0 mm
02:53 AM 56.4°F13.6°C 51.3°F10.7°C 83% 10.8 mph W17.4 kmh W 16.0 mph25.7 kmh 29.48 in998.3 mb 0.00 in0.0 mm 0.00 in0.0 mm 0.00 in0.0 mm
02:54 AM 56.4°F13.6°C 51.0°F10.6°C 82% 12.1 mph W19.5 kmh W 14.0 mph22.5 kmh 29.48 in998.3 mb 0.00 in0.0 mm 0.00 in0.0 mm 0.00 in0.0 mm
02:55 AM 56.3°F13.5°C 50.9°F10.5°C 82% 12.6 mph W20.3 kmh W 15.0 mph24.1 kmh 29.49 in998.6 mb 0.00 in0.0 mm 0.00 in0.0 mm 0.00 in0.0 mm
02:56 AM 56.3°F13.5°C 50.9°F10.5°C 82% 10.7 mph W17.2 kmh W 15.0 mph24.1 kmh 29.48 in998.3 mb 0.00 in0.0 mm 0.00 in0.0 mm 0.00 in0.0 mm
02:57 AM 56.3°F13.5°C 50.9°F10.5°C 82% 9.9 mph W15.9 kmh W 12.0 mph19.3 kmh 29.49 in998.6 mb 0.00 in0.0 mm 0.00 in0.0 mm 0.00 in0.0 mm
02:58 AM 56.4°F13.6°C 51.3°F10.7°C 83% 11.7 mph W18.8 kmh W 17.0 mph27.4 kmh 29.48 in998.3 mb 0.00 in0.0 mm 0.00 in0.0 mm 0.00 in0.0 mm
02:59 AM 56.3°F13.5°C 50.9°F10.5°C 82% 13.8 mph W22.2 kmh W 17.0 mph27.4 kmh 29.49 in998.6 mb 0.00 in0.0 mm 0.00 in0.0 mm 0.00 in0.0 mm
03:00 AM 56.3°F13.5°C 50.5°F10.3°C 81% 12.5 mph W20.1 kmh W 16.0 mph25.7 kmh 29.49 in998.6 mb 0.00 in0.0 mm 0.00 in0.0 mm 0.00 in0.0 mm
03:01 AM 56.4°F13.6°C 51.0°F10.6°C 82% 12.3 mph W19.8 kmh W 14.0 mph22.5 kmh 29.49 in998.6 mb 0.00 in0.0 mm 0.00 in0.0 mm 0.00 in0.0 mm
03:02 AM 56.4°F13.6°C 51.0°F10.6°C 82% 11.5 mph W18.5 kmh W 14.0 mph22.5 kmh 29.49 in998.6 mb 0.00 in0.0 mm 0.00 in0.0 mm 0.00 in0.0 mm
03:03 AM 56.4°F13.6°C 50.6°F10.3°C 81% 13.9 mph W22.4 kmh W 16.0 mph25.7 kmh 29.49 in998.6 mb 0.00 in0.0 mm 0.00 in0.0 mm 0.00 in0.0 mm
03:04 AM 56.5°F13.6°C 50.7°F10.4°C 81% 11.8 mph W19.0 kmh W 16.0 mph25.7 kmh 29.49 in998.6 mb 0.00 in0.0 mm 0.00 in0.0 mm 0.00 in0.0 mm
03:05 AM 56.5°F13.6°C 51.1°F10.6°C 82% 11.6 mph W18.7 kmh W 15.0 mph24.1 kmh 29.49 in998.6 mb 0.00 in0.0 mm 0.00 in0.0 mm 0.00 in0.0 mm
03:06 AM 56.4°F13.6°C 51.0°F10.6°C 82% 12.4 mph W20.0 kmh W 14.0 mph22.5 kmh 29.49 in998.6 mb 0.00 in0.0 mm 0.00 in0.0 mm 0.00 in0.0 mm
03:07 AM 56.5°F13.6°C 50.7°F10.4°C 81% 11.8 mph W19.0 kmh W 14.0 mph22.5 kmh 29.49 in998.6 mb 0.00 in0.0 mm 0.00 in0.0 mm 0.00 in0.0 mm
03:08 AM 56.5°F13.6°C 50.7°F10.4°C 81% 11.6 mph W18.7 kmh W 14.0 mph22.5 kmh 29.49 in998.6 mb 0.00 in0.0 mm 0.00 in0.0 mm 0.00 in0.0 mm
03:09 AM 56.4°F13.6°C 50.6°F10.3°C 81% 11.4 mph W18.3 kmh W 15.0 mph24.1 kmh 29.49 in998.6 mb 0.00 in0.0 mm 0.00 in0.0 mm 0.00 in0.0 mm
03:10 AM 56.5°F13.6°C 51.1°F10.6°C 82% 10.4 mph W16.7 kmh W 15.0 mph24.1 kmh 29.49 in998.6 mb 0.00 in0.0 mm 0.00 in0.0 mm 0.00 in0.0 mm
03:11 AM 56.5°F13.6°C 50.7°F10.4°C 81% 11.8 mph W19.0 kmh W 13.0 mph20.9 kmh 29.49 in998.6 mb 0.00 in0.0 mm 0.00 in0.0 mm 0.00 in0.0 mm
03:12 AM 56.5°F13.6°C 50.7°F10.4°C 81% 11.7 mph W18.8 kmh W 14.0 mph22.5 kmh 29.49 in998.6 mb 0.00 in0.0 mm 0.00 in0.0 mm 0.00 in0.0 mm
03:13 AM 56.5°F13.6°C 50.7°F10.4°C 81% 11.7 mph W18.8 kmh W 14.0 mph22.5 kmh 29.49 in998.6 mb 0.00 in0.0 mm 0.00 in0.0 mm 0.00 in0.0 mm
03:14 AM 56.5°F13.6°C 50.7°F10.4°C 81% 11.8 mph W19.0 kmh W 14.0 mph22.5 kmh 29.49 in998.6 mb 0.00 in0.0 mm 0.00 in0.0 mm 0.00 in0.0 mm
03:15 AM 56.5°F13.6°C 50.4°F10.2°C 80% 11.5 mph W18.5 kmh W 14.0 mph22.5 kmh 29.49 in998.6 mb 0.00 in0.0 mm 0.00 in0.0 mm 0.00 in0.0 mm
03:16 AM 56.5°F13.6°C 51.1°F10.6°C 82% 10.5 mph W16.9 kmh W 14.0 mph22.5 kmh 29.50 in999.0 mb 0.00 in0.0 mm 0.00 in0.0 mm 0.00 in0.0 mm
03:17 AM 56.5°F13.6°C 50.7°F10.4°C 81% 12.9 mph W20.8 kmh W 16.0 mph25.7 kmh 29.49 in998.6 mb 0.00 in0.0 mm 0.00 in0.0 mm 0.00 in0.0 mm
03:18 AM 56.5°F13.6°C 50.4°F10.2°C 80% 12.4 mph W20.0 kmh W 16.0 mph25.7 kmh 29.50 in999.0 mb 0.00 in0.0 mm 0.00 in0.0 mm 0.00 in0.0 mm
03:19 AM 56.5°F13.6°C 50.7°F10.4°C 81% 12.0 mph W19.3 kmh W 15.0 mph24.1 kmh 29.50 in999.0 mb 0.00 in0.0 mm 0.00 in0.0 mm 0.00 in0.0 mm
03:20 AM 56.5°F13.6°C 50.7°F10.4°C 81% 13.1 mph W21.1 kmh W 15.0 mph24.1 kmh 29.49 in998.6 mb 0.00 in0.0 mm 0.00 in0.0 mm 0.00 in0.0 mm
03:21 AM 56.5°F13.6°C 50.4°F10.2°C 80% 12.7 mph W20.4 kmh W 15.0 mph24.1 kmh 29.49 in998.6 mb 0.00 in0.0 mm 0.00 in0.0 mm 0.00 in0.0 mm
03:22 AM 56.5°F13.6°C 50.7°F10.4°C 81% 13.3 mph W21.4 kmh W 16.0 mph25.7 kmh 29.49 in998.6 mb 0.00 in0.0 mm 0.00 in0.0 mm 0.00 in0.0 mm
03:23 AM 56.4°F13.6°C 50.3°F10.2°C 80% 13.4 mph W21.6 kmh W 16.0 mph25.7 kmh 29.50 in999.0 mb 0.00 in0.0 mm 0.00 in0.0 mm 0.00 in0.0 mm
03:24 AM 56.5°F13.6°C 50.7°F10.4°C 81% 13.3 mph W21.4 kmh W 16.0 mph25.7 kmh 29.50 in999.0 mb 0.00 in0.0 mm 0.00 in0.0 mm 0.00 in0.0 mm
03:25 AM 56.5°F13.6°C 50.4°F10.2°C 80% 13.6 mph W21.9 kmh W 18.0 mph29.0 kmh 29.50 in999.0 mb 0.00 in0.0 mm 0.00 in0.0 mm 0.00 in0.0 mm
03:26 AM 56.5°F13.6°C 50.4°F10.2°C 80% 13.9 mph W22.4 kmh W 18.0 mph29.0 kmh 29.50 in999.0 mb 0.00 in0.0 mm 0.00 in0.0 mm 0.00 in0.0 mm
03:27 AM 56.5°F13.6°C 50.4°F10.2°C 80% 12.1 mph W19.5 kmh W 16.0 mph25.7 kmh 29.50 in999.0 mb 0.00 in0.0 mm 0.00 in0.0 mm 0.00 in0.0 mm
03:28 AM 56.5°F13.6°C 50.4°F10.2°C 80% 14.1 mph W22.7 kmh W 18.0 mph29.0 kmh 29.50 in999.0 mb 0.00 in0.0 mm 0.00 in0.0 mm 0.00 in0.0 mm
03:29 AM 56.5°F13.6°C 50.1°F10.1°C 79% 13.3 mph W21.4 kmh W 18.0 mph29.0 kmh 29.50 in999.0 mb 0.00 in0.0 mm 0.00 in0.0 mm 0.00 in0.0 mm
03:30 AM 56.5°F13.6°C 50.4°F10.2°C 80% 13.2 mph W21.2 kmh W 16.0 mph25.7 kmh 29.50 in999.0 mb 0.00 in0.0 mm 0.00 in0.0 mm 0.00 in0.0 mm
03:31 AM 56.5°F13.6°C 50.1°F10.1°C 79% 13.2 mph W21.2 kmh W 17.0 mph27.4 kmh 29.50 in999.0 mb 0.00 in0.0 mm 0.00 in0.0 mm 0.00 in0.0 mm
03:32 AM 56.5°F13.6°C 50.7°F10.4°C 81% 12.6 mph W20.3 kmh W 17.0 mph27.4 kmh 29.50 in999.0 mb 0.00 in0.0 mm 0.00 in0.0 mm 0.00 in0.0 mm
03:33 AM 56.5°F13.6°C 50.4°F10.2°C 80% 13.1 mph W21.1 kmh W 16.0 mph25.7 kmh 29.50 in999.0 mb 0.00 in0.0 mm 0.00 in0.0 mm 0.00 in0.0 mm
03:34 AM 56.5°F13.6°C 50.4°F10.2°C 80% 13.2 mph W21.2 kmh W 16.0 mph25.7 kmh 29.50 in999.0 mb 0.00 in0.0 mm 0.00 in0.0 mm 0.00 in0.0 mm
03:35 AM 56.5°F13.6°C 50.4°F10.2°C 80% 13.2 mph W21.2 kmh W 15.0 mph24.1 kmh 29.50 in999.0 mb 0.00 in0.0 mm 0.00 in0.0 mm 0.00 in0.0 mm
03:36 AM 56.5°F13.6°C 50.4°F10.2°C 80% 12.8 mph W20.6 kmh W 15.0 mph24.1 kmh 29.50 in999.0 mb 0.00 in0.0 mm 0.00 in0.0 mm 0.00 in0.0 mm
03:37 AM 56.5°F13.6°C 50.7°F10.4°C 81% 12.4 mph W20.0 kmh W 15.0 mph24.1 kmh 29.50 in999.0 mb 0.00 in0.0 mm 0.00 in0.0 mm 0.00 in0.0 mm
03:38 AM 56.5°F13.6°C 50.4°F10.2°C 80% 13.8 mph W22.2 kmh W 19.0 mph30.6 kmh 29.50 in999.0 mb 0.00 in0.0 mm 0.00 in0.0 mm 0.00 in0.0 mm
03:39 AM 56.5°F13.6°C 50.4°F10.2°C 80% 12.5 mph W20.1 kmh W 19.0 mph30.6 kmh 29.50 in999.0 mb 0.00 in0.0 mm 0.00 in0.0 mm 0.00 in0.0 mm
03:40 AM 56.5°F13.6°C 50.4°F10.2°C 80% 12.1 mph W19.5 kmh W 15.0 mph24.1 kmh 29.50 in999.0 mb 0.00 in0.0 mm 0.00 in0.0 mm 0.00 in0.0 mm
03:41 AM 56.5°F13.6°C 50.4°F10.2°C 80% 12.3 mph W19.8 kmh W 14.0 mph22.5 kmh 29.50 in999.0 mb 0.00 in0.0 mm 0.00 in0.0 mm 0.00 in0.0 mm
03:42 AM 56.5°F13.6°C 50.4°F10.2°C 80% 11.9 mph W19.2 kmh W 15.0 mph24.1 kmh 29.50 in999.0 mb 0.00 in0.0 mm 0.00 in0.0 mm 0.00 in0.0 mm
03:43 AM 56.4°F13.6°C 50.6°F10.3°C 81% 11.7 mph WSW18.8 kmh WSW 16.0 mph25.7 kmh 29.50 in999.0 mb 0.00 in0.0 mm 0.00 in0.0 mm 0.00 in0.0 mm
03:44 AM 56.4°F13.6°C 50.3°F10.2°C 80% 13.4 mph W21.6 kmh W 16.0 mph25.7 kmh 29.50 in999.0 mb 0.00 in0.0 mm 0.00 in0.0 mm 0.00 in0.0 mm
03:45 AM 56.4°F13.6°C 50.3°F10.2°C 80% 11.6 mph W18.7 kmh W 16.0 mph25.7 kmh 29.50 in999.0 mb 0.00 in0.0 mm 0.00 in0.0 mm 0.00 in0.0 mm
03:46 AM 56.4°F13.6°C 51.0°F10.6°C 82% 11.4 mph W18.3 kmh W 14.0 mph22.5 kmh 29.50 in999.0 mb 0.00 in0.0 mm 0.00 in0.0 mm 0.00 in0.0 mm
03:47 AM 56.4°F13.6°C 50.6°F10.3°C 81% 12.9 mph W20.8 kmh W 15.0 mph24.1 kmh 29.50 in999.0 mb 0.00 in0.0 mm 0.00 in0.0 mm 0.00 in0.0 mm
03:48 AM 56.4°F13.6°C 50.0°F10.0°C 79% 13.5 mph W21.7 kmh W 16.0 mph25.7 kmh 29.50 in999.0 mb 0.00 in0.0 mm 0.00 in0.0 mm 0.00 in0.0 mm
03:49 AM 56.4°F13.6°C 50.3°F10.2°C 80% 12.8 mph W20.6 kmh W 16.0 mph25.7 kmh 29.50 in999.0 mb 0.00 in0.0 mm 0.00 in0.0 mm 0.00 in0.0 mm
03:50 AM 56.4°F13.6°C 50.3°F10.2°C 80% 13.2 mph W21.2 kmh W 15.0 mph24.1 kmh 29.50 in999.0 mb 0.00 in0.0 mm 0.00 in0.0 mm 0.00 in0.0 mm
03:51 AM 56.4°F13.6°C 50.3°F10.2°C 80% 12.3 mph W19.8 kmh W 15.0 mph24.1 kmh 29.50 in999.0 mb 0.00 in0.0 mm 0.00 in0.0 mm 0.00 in0.0 mm
03:52 AM 56.4°F13.6°C 50.3°F10.2°C 80% 13.4 mph W21.6 kmh W 15.0 mph24.1 kmh 29.50 in999.0 mb 0.00 in0.0 mm 0.00 in0.0 mm 0.00 in0.0 mm
03:53 AM 56.4°F13.6°C 50.0°F10.0°C 79% 11.9 mph W19.2 kmh W 15.0 mph24.1 kmh 29.50 in999.0 mb 0.00 in0.0 mm 0.00 in0.0 mm 0.00 in0.0 mm
03:54 AM 56.3°F13.5°C 50.2°F10.1°C 80% 12.5 mph WSW20.1 kmh WSW 15.0 mph24.1 kmh 29.50 in999.0 mb 0.00 in0.0 mm 0.00 in0.0 mm 0.00 in0.0 mm
03:55 AM 56.3°F13.5°C 49.9°F9.9°C 79% 12.4 mph W20.0 kmh W 16.0 mph25.7 kmh 29.50 in999.0 mb 0.00 in0.0 mm 0.00 in0.0 mm 0.00 in0.0 mm
03:56 AM 56.3°F13.5°C 50.2°F10.1°C 80% 11.4 mph WSW18.3 kmh WSW 16.0 mph25.7 kmh 29.50 in999.0 mb 0.00 in0.0 mm 0.00 in0.0 mm 0.00 in0.0 mm
03:57 AM 56.3°F13.5°C 50.2°F10.1°C 80% 10.8 mph WSW17.4 kmh WSW 14.0 mph22.5 kmh 29.50 in999.0 mb 0.00 in0.0 mm 0.00 in0.0 mm 0.00 in0.0 mm
03:58 AM 56.3°F13.5°C 50.5°F10.3°C 81% 11.3 mph WSW18.2 kmh WSW 13.0 mph20.9 kmh 29.50 in999.0 mb 0.00 in0.0 mm 0.00 in0.0 mm 0.00 in0.0 mm
03:59 AM 56.3°F13.5°C 50.2°F10.1°C 80% 12.0 mph WSW19.3 kmh WSW 14.0 mph22.5 kmh 29.50 in999.0 mb 0.00 in0.0 mm 0.00 in0.0 mm 0.00 in0.0 mm
04:00 AM 56.3°F13.5°C 50.2°F10.1°C 80% 11.8 mph WSW19.0 kmh WSW 15.0 mph24.1 kmh 29.50 in999.0 mb 0.00 in0.0 mm 0.00 in0.0 mm 0.00 in0.0 mm
04:01 AM 56.3°F13.5°C 50.5°F10.3°C 81% 12.2 mph W19.6 kmh W 16.0 mph25.7 kmh 29.50 in999.0 mb 0.00 in0.0 mm 0.00 in0.0 mm 0.00 in0.0 mm
04:02 AM 56.3°F13.5°C 50.2°F10.1°C 80% 12.8 mph WSW20.6 kmh WSW 16.0 mph25.7 kmh 29.50 in999.0 mb 0.00 in0.0 mm 0.00 in0.0 mm 0.00 in0.0 mm
04:03 AM 56.4°F13.6°C 50.3°F10.2°C 80% 15.0 mph WSW24.1 kmh WSW 17.0 mph27.4 kmh 29.50 in999.0 mb 0.00 in0.0 mm 0.00 in0.0 mm 0.00 in0.0 mm
04:04 AM 56.3°F13.5°C 50.2°F10.1°C 80% 13.5 mph WSW21.7 kmh WSW 17.0 mph27.4 kmh 29.50 in999.0 mb 0.00 in0.0 mm 0.00 in0.0 mm 0.00 in0.0 mm
04:05 AM 56.3°F13.5°C 50.2°F10.1°C 80% 13.5 mph WSW21.7 kmh WSW 16.0 mph25.7 kmh 29.50 in999.0 mb 0.00 in0.0 mm 0.00 in0.0 mm 0.00 in0.0 mm
04:06 AM 56.3°F13.5°C 50.2°F10.1°C 80% 14.1 mph W22.7 kmh W 17.0 mph27.4 kmh 29.50 in999.0 mb 0.00 in0.0 mm 0.00 in0.0 mm 0.00 in0.0 mm
04:07 AM 56.3°F13.5°C 50.2°F10.1°C 80% 12.7 mph WSW20.4 kmh WSW 17.0 mph27.4 kmh 29.50 in999.0 mb 0.00 in0.0 mm 0.00 in0.0 mm 0.00 in0.0 mm
04:08 AM 56.4°F13.6°C 50.6°F10.3°C 81% 13.6 mph W21.9 kmh W 18.0 mph29.0 kmh 29.50 in999.0 mb 0.00 in0.0 mm 0.00 in0.0 mm 0.00 in0.0 mm
04:09 AM 56.3°F13.5°C 50.2°F10.1°C 80% 13.6 mph WSW21.9 kmh WSW 18.0 mph29.0 kmh 29.50 in999.0 mb 0.00 in0.0 mm 0.00 in0.0 mm 0.00 in0.0 mm
04:10 AM 56.4°F13.6°C 50.3°F10.2°C 80% 13.4 mph W21.6 kmh W 16.0 mph25.7 kmh 29.50 in999.0 mb 0.00 in0.0 mm 0.00 in0.0 mm 0.00 in0.0 mm
04:11 AM 56.4°F13.6°C 50.6°F10.3°C 81% 11.2 mph W18.0 kmh W 16.0 mph25.7 kmh 29.50 in999.0 mb 0.00 in0.0 mm 0.00 in0.0 mm 0.00 in0.0 mm
04:12 AM 56.3°F13.5°C 50.5°F10.3°C 81% 12.7 mph W20.4 kmh W 15.0 mph24.1 kmh 29.50 in999.0 mb 0.00 in0.0 mm 0.00 in0.0 mm 0.00 in0.0 mm
04:13 AM 56.3°F13.5°C 50.2°F10.1°C 80% 13.2 mph WSW21.2 kmh WSW 15.0 mph24.1 kmh 29.50 in999.0 mb 0.00 in0.0 mm 0.00 in0.0 mm 0.00 in0.0 mm
04:14 AM 56.3°F13.5°C 50.5°F10.3°C 81% 13.5 mph WSW21.7 kmh WSW 16.0 mph25.7 kmh 29.50 in999.0 mb 0.00 in0.0 mm 0.00 in0.0 mm 0.00 in0.0 mm
04:15 AM 56.3°F13.5°C 50.2°F10.1°C 80% 13.8 mph WSW22.2 kmh WSW 16.0 mph25.7 kmh 29.50 in999.0 mb 0.00 in0.0 mm 0.00 in0.0 mm 0.00 in0.0 mm
04:16 AM 56.3°F13.5°C 50.5°F10.3°C 81% 14.5 mph W23.3 kmh W 18.0 mph29.0 kmh 29.50 in999.0 mb 0.00 in0.0 mm 0.00 in0.0 mm 0.00 in0.0 mm
04:17 AM 56.3°F13.5°C 50.5°F10.3°C 81% 14.1 mph W22.7 kmh W 18.0 mph29.0 kmh 29.50 in999.0 mb 0.00 in0.0 mm 0.00 in0.0 mm 0.00 in0.0 mm
04:18 AM 56.2°F13.4°C 50.1°F10.1°C 80% 14.9 mph W24.0 kmh W 18.0 mph29.0 kmh 29.50 in999.0 mb 0.00 in0.0 mm 0.00 in0.0 mm 0.00 in0.0 mm
04:19 AM 56.2°F13.4°C 50.8°F10.4°C 82% 12.1 mph W19.5 kmh W 18.0 mph29.0 kmh 29.50 in999.0 mb 0.00 in0.0 mm 0.00 in0.0 mm 0.00 in0.0 mm
04:20 AM 56.2°F13.4°C 50.1°F10.1°C 80% 13.5 mph W21.7 kmh W 17.0 mph27.4 kmh 29.50 in999.0 mb 0.00 in0.0 mm 0.00 in0.0 mm 0.00 in0.0 mm
04:21 AM 56.2°F13.4°C 50.4°F10.2°C 81% 12.8 mph W20.6 kmh W 17.0 mph27.4 kmh 29.50 in999.0 mb 0.00 in0.0 mm 0.00 in0.0 mm 0.00 in0.0 mm
04:22 AM 56.2°F13.4°C 50.4°F10.2°C 81% 11.5 mph WSW18.5 kmh WSW 15.0 mph24.1 kmh 29.50 in999.0 mb 0.00 in0.0 mm 0.00 in0.0 mm 0.00 in0.0 mm
04:23 AM 56.2°F13.4°C 50.1°F10.1°C 80% 11.7 mph WSW18.8 kmh WSW 15.0 mph24.1 kmh 29.50 in999.0 mb 0.00 in0.0 mm 0.00 in0.0 mm 0.00 in0.0 mm
04:24 AM 56.1°F13.4°C 50.7°F10.4°C 82% 11.9 mph W19.2 kmh W 15.0 mph24.1 kmh 29.50 in999.0 mb 0.00 in0.0 mm 0.00 in0.0 mm 0.00 in0.0 mm
04:25 AM 56.1°F13.4°C 50.3°F10.2°C 81% 14.1 mph W22.7 kmh W 18.0 mph29.0 kmh 29.50 in999.0 mb 0.00 in0.0 mm 0.00 in0.0 mm 0.00 in0.0 mm
04:26 AM 56.2°F13.4°C 50.4°F10.2°C 81% 13.6 mph W21.9 kmh W 18.0 mph29.0 kmh 29.50 in999.0 mb 0.00 in0.0 mm 0.00 in0.0 mm 0.00 in0.0 mm
04:27 AM 56.2°F13.4°C 50.4°F10.2°C 81% 13.1 mph W21.1 kmh W 16.0 mph25.7 kmh 29.51 in999.3 mb 0.00 in0.0 mm 0.00 in0.0 mm 0.00 in0.0 mm
04:28 AM 56.2°F13.4°C 50.4°F10.2°C 81% 12.0 mph W19.3 kmh W 16.0 mph25.7 kmh 29.51 in999.3 mb 0.00 in0.0 mm 0.00 in0.0 mm 0.00 in0.0 mm
04:29 AM 56.2°F13.4°C 50.4°F10.2°C 81% 11.3 mph WSW18.2 kmh WSW 14.0 mph22.5 kmh 29.51 in999.3 mb 0.00 in0.0 mm 0.00 in0.0 mm 0.00 in0.0 mm
04:30 AM 56.1°F13.4°C 50.7°F10.4°C 82% 12.5 mph W20.1 kmh W 14.0 mph22.5 kmh 29.51 in999.3 mb 0.00 in0.0 mm 0.00 in0.0 mm 0.00 in0.0 mm
04:31 AM 56.1°F13.4°C 50.3°F10.2°C 81% 13.7 mph WSW22.0 kmh WSW 17.0 mph27.4 kmh 29.51 in999.3 mb 0.00 in0.0 mm 0.00 in0.0 mm 0.00 in0.0 mm
04:32 AM 56.1°F13.4°C 50.7°F10.4°C 82% 12.4 mph WSW20.0 kmh WSW 17.0 mph27.4 kmh 29.51 in999.3 mb 0.00 in0.0 mm 0.00 in0.0 mm 0.00 in0.0 mm
04:33 AM 56.1°F13.4°C 50.3°F10.2°C 81% 13.2 mph W21.2 kmh W 17.0 mph27.4 kmh 29.51 in999.3 mb 0.00 in0.0 mm 0.00 in0.0 mm 0.00 in0.0 mm
04:34 AM 56.2°F13.4°C 50.8°F10.4°C 82% 13.0 mph WSW20.9 kmh WSW 17.0 mph27.4 kmh 29.51 in999.3 mb 0.00 in0.0 mm 0.00 in0.0 mm 0.00 in0.0 mm
04:35 AM 56.2°F13.4°C 50.1°F10.1°C 80% 15.8 mph WSW25.4 kmh WSW 18.0 mph29.0 kmh 29.51 in999.3 mb 0.00 in0.0 mm 0.00 in0.0 mm 0.00 in0.0 mm
04:36 AM 56.1°F13.4°C 50.3°F10.2°C 81% 12.5 mph WSW20.1 kmh WSW 18.0 mph29.0 kmh 29.51 in999.3 mb 0.00 in0.0 mm 0.00 in0.0 mm 0.00 in0.0 mm
04:37 AM 56.1°F13.4°C 50.3°F10.2°C 81% 13.4 mph WSW21.6 kmh WSW 17.0 mph27.4 kmh 29.51 in999.3 mb 0.00 in0.0 mm 0.00 in0.0 mm 0.00 in0.0 mm
04:38 AM 56.2°F13.4°C 50.4°F10.2°C 81% 12.7 mph WSW20.4 kmh WSW 17.0 mph27.4 kmh 29.51 in999.3 mb 0.00 in0.0 mm 0.00 in0.0 mm 0.00 in0.0 mm
04:39 AM 56.1°F13.4°C 50.3°F10.2°C 81% 14.0 mph WSW22.5 kmh WSW 17.0 mph27.4 kmh 29.51 in999.3 mb 0.00 in0.0 mm 0.00 in0.0 mm 0.00 in0.0 mm
04:40 AM 56.1°F13.4°C 50.3°F10.2°C 81% 14.8 mph W23.8 kmh W 17.0 mph27.4 kmh 29.51 in999.3 mb 0.00 in0.0 mm 0.00 in0.0 mm 0.00 in0.0 mm
04:41 AM 56.1°F13.4°C 50.3°F10.2°C 81% 15.1 mph W24.3 kmh W 18.0 mph29.0 kmh 29.51 in999.3 mb 0.00 in0.0 mm 0.00 in0.0 mm 0.00 in0.0 mm
04:42 AM 56.1°F13.4°C 50.0°F10.0°C 80% 14.4 mph W23.2 kmh W 18.0 mph29.0 kmh 29.51 in999.3 mb 0.00 in0.0 mm 0.00 in0.0 mm 0.00 in0.0 mm
04:43 AM 56.1°F13.4°C 50.3°F10.2°C 81% 13.1 mph W21.1 kmh W 18.0 mph29.0 kmh 29.51 in999.3 mb 0.00 in0.0 mm 0.00 in0.0 mm 0.00 in0.0 mm
04:44 AM 56.2°F13.4°C 50.4°F10.2°C 81% 12.7 mph W20.4 kmh W 16.0 mph25.7 kmh 29.51 in999.3 mb 0.00 in0.0 mm 0.00 in0.0 mm 0.00 in0.0 mm
04:45 AM 56.2°F13.4°C 50.1°F10.1°C 80% 13.2 mph W21.2 kmh W 16.0 mph25.7 kmh 29.51 in999.3 mb 0.00 in0.0 mm 0.00 in0.0 mm 0.00 in0.0 mm
04:46 AM 56.2°F13.4°C 50.8°F10.4°C 82% 11.7 mph W18.8 kmh W 16.0 mph25.7 kmh 29.51 in999.3 mb 0.00 in0.0 mm 0.00 in0.0 mm 0.00 in0.0 mm
04:47 AM 56.2°F13.4°C 50.8°F10.4°C 82% 10.0 mph W16.1 kmh W 13.0 mph20.9 kmh 29.51 in999.3 mb 0.00 in0.0 mm 0.00 in0.0 mm 0.00 in0.0 mm
04:48 AM 56.2°F13.4°C 50.4°F10.2°C 81% 12.2 mph W19.6 kmh W 15.0 mph24.1 kmh 29.51 in999.3 mb 0.00 in0.0 mm 0.00 in0.0 mm 0.00 in0.0 mm
04:49 AM 56.1°F13.4°C 50.3°F10.2°C 81% 12.8 mph W20.6 kmh W 15.0 mph24.1 kmh 29.51 in999.3 mb 0.00 in0.0 mm 0.00 in0.0 mm 0.00 in0.0 mm
04:50 AM 56.1°F13.4°C 50.3°F10.2°C 81% 13.2 mph W21.2 kmh W 16.0 mph25.7 kmh 29.51 in999.3 mb 0.00 in0.0 mm 0.00 in0.0 mm 0.00 in0.0 mm
04:51 AM 56.1°F13.4°C 50.3°F10.2°C 81% 11.1 mph W17.9 kmh W 16.0 mph25.7 kmh 29.51 in999.3 mb 0.00 in0.0 mm 0.00 in0.0 mm 0.00 in0.0 mm
04:52 AM 56.1°F13.4°C 50.7°F10.4°C 82% 12.0 mph W19.3 kmh W 14.0 mph22.5 kmh 29.51 in999.3 mb 0.00 in0.0 mm 0.00 in0.0 mm 0.00 in0.0 mm
04:53 AM 56.0°F13.3°C 50.3°F10.2°C 81% 12.9 mph W20.8 kmh W 14.0 mph22.5 kmh 29.51 in999.3 mb 0.00 in0.0 mm 0.00 in0.0 mm 0.00 in0.0 mm
04:54 AM 56.0°F13.3°C 50.3°F10.2°C 81% 11.9 mph W19.2 kmh W 14.0 mph22.5 kmh 29.51 in999.3 mb 0.00 in0.0 mm 0.00 in0.0 mm 0.00 in0.0 mm
04:55 AM 56.0°F13.3°C 50.3°F10.2°C 81% 12.9 mph W20.8 kmh W 15.0 mph24.1 kmh 29.51 in999.3 mb 0.00 in0.0 mm 0.00 in0.0 mm 0.00 in0.0 mm
04:56 AM 56.0°F13.3°C 50.3°F10.2°C 81% 12.0 mph W19.3 kmh W 15.0 mph24.1 kmh 29.51 in999.3 mb 0.00 in0.0 mm 0.00 in0.0 mm 0.00 in0.0 mm
04:57 AM 56.0°F13.3°C 50.3°F10.2°C 81% 12.3 mph W19.8 kmh W 15.0 mph24.1 kmh 29.51 in999.3 mb 0.00 in0.0 mm 0.00 in0.0 mm 0.00 in0.0 mm
04:58 AM 55.9°F13.3°C 50.2°F10.1°C 81% 11.3 mph W18.2 kmh W 14.0 mph22.5 kmh 29.51 in999.3 mb 0.00 in0.0 mm 0.00 in0.0 mm 0.00 in0.0 mm
04:59 AM 55.9°F13.3°C 50.2°F10.1°C 81% 13.0 mph W20.9 kmh W 15.0 mph24.1 kmh 29.51 in999.3 mb 0.00 in0.0 mm 0.00 in0.0 mm 0.00 in0.0 mm
05:00 AM 55.9°F13.3°C 50.2°F10.1°C 81% 12.8 mph W20.6 kmh W 15.0 mph24.1 kmh 29.51 in999.3 mb 0.00 in0.0 mm 0.00 in0.0 mm 0.00 in0.0 mm
05:01 AM 55.9°F13.3°C 49.8°F9.9°C 80% 12.1 mph W19.5 kmh W 14.0 mph22.5 kmh 29.51 in999.3 mb 0.00 in0.0 mm 0.00 in0.0 mm 0.00 in0.0 mm
05:02 AM 55.8°F13.2°C 50.1°F10.1°C 81% 11.5 mph W18.5 kmh W 14.0 mph22.5 kmh 29.51 in999.3 mb 0.00 in0.0 mm 0.00 in0.0 mm 0.00 in0.0 mm
05:03 AM 55.9°F13.3°C 50.2°F10.1°C 81% 10.6 mph W17.1 kmh W 13.0 mph20.9 kmh 29.51 in999.3 mb 0.00 in0.0 mm 0.00 in0.0 mm 0.00 in0.0 mm
05:04 AM 55.8°F13.2°C 50.1°F10.1°C 81% 11.8 mph W19.0 kmh W 14.0 mph22.5 kmh 29.51 in999.3 mb 0.00 in0.0 mm 0.00 in0.0 mm 0.00 in0.0 mm
05:05 AM 55.7°F13.2°C 50.0°F10.0°C 81% 11.0 mph W17.7 kmh W 14.0 mph22.5 kmh 29.51 in999.3 mb 0.00 in0.0 mm 0.00 in0.0 mm 0.00 in0.0 mm
05:06 AM 55.7°F13.2°C 49.6°F9.8°C 80% 13.1 mph W21.1 kmh W 14.0 mph22.5 kmh 29.51 in999.3 mb 0.00 in0.0 mm 0.00 in0.0 mm 0.00 in0.0 mm
05:07 AM 55.7°F13.2°C 50.3°F10.2°C 82% 10.4 mph W16.7 kmh W 14.0 mph22.5 kmh 29.51 in999.3 mb 0.00 in0.0 mm 0.00 in0.0 mm 0.00 in0.0 mm
05:08 AM 55.7°F13.2°C 50.3°F10.2°C 82% 10.0 mph W16.1 kmh W 13.0 mph20.9 kmh 29.51 in999.3 mb 0.00 in0.0 mm 0.00 in0.0 mm 0.00 in0.0 mm
05:09 AM 55.7°F13.2°C 50.3°F10.2°C 82% 10.9 mph W17.5 kmh W 13.0 mph20.9 kmh 29.51 in999.3 mb 0.00 in0.0 mm 0.00 in0.0 mm 0.00 in0.0 mm
05:10 AM 55.7°F13.2°C 50.0°F10.0°C 81% 11.3 mph W18.2 kmh W 14.0 mph22.5 kmh 29.51 in999.3 mb 0.00 in0.0 mm 0.00 in0.0 mm 0.00 in0.0 mm
05:11 AM 55.6°F13.1°C 49.9°F9.9°C 81% 12.4 mph W20.0 kmh W 14.0 mph22.5 kmh 29.51 in999.3 mb 0.00 in0.0 mm 0.00 in0.0 mm 0.00 in0.0 mm
05:12 AM 55.7°F13.2°C 50.0°F10.0°C 81% 11.8 mph W19.0 kmh W 14.0 mph22.5 kmh 29.52 in999.7 mb 0.00 in0.0 mm 0.00 in0.0 mm 0.00 in0.0 mm
05:13 AM 55.7°F13.2°C 50.0°F10.0°C 81% 11.5 mph W18.5 kmh W 14.0 mph22.5 kmh 29.52 in999.7 mb 0.00 in0.0 mm 0.00 in0.0 mm 0.00 in0.0 mm
05:14 AM 55.7°F13.2°C 50.0°F10.0°C 81% 11.1 mph W17.9 kmh W 14.0 mph22.5 kmh 29.51 in999.3 mb 0.00 in0.0 mm 0.00 in0.0 mm 0.00 in0.0 mm
05:15 AM 55.7°F13.2°C 50.0°F10.0°C 81% 11.0 mph W17.7 kmh W 13.0 mph20.9 kmh 29.52 in999.7 mb 0.00 in0.0 mm 0.00 in0.0 mm 0.00 in0.0 mm
05:16 AM 55.7°F13.2°C 49.6°F9.8°C 80% 10.7 mph W17.2 kmh W 13.0 mph20.9 kmh 29.52 in999.7 mb 0.00 in0.0 mm 0.00 in0.0 mm 0.00 in0.0 mm
05:17 AM 55.7°F13.2°C 50.0°F10.0°C 81% 11.7 mph WSW18.8 kmh WSW 13.0 mph20.9 kmh 29.52 in999.7 mb 0.00 in0.0 mm 0.00 in0.0 mm 0.00 in0.0 mm
05:18 AM 55.6°F13.1°C 49.9°F9.9°C 81% 9.7 mph WSW15.6 kmh WSW 13.0 mph20.9 kmh 29.52 in999.7 mb 0.00 in0.0 mm 0.00 in0.0 mm 0.00 in0.0 mm
05:19 AM 55.6°F13.1°C 49.9°F9.9°C 81% 11.2 mph WSW18.0 kmh WSW 14.0 mph22.5 kmh 29.52 in999.7 mb 0.00 in0.0 mm 0.00 in0.0 mm 0.00 in0.0 mm
05:20 AM 55.7°F13.2°C 50.0°F10.0°C 81% 10.7 mph WSW17.2 kmh WSW 14.0 mph22.5 kmh 29.52 in999.7 mb 0.00 in0.0 mm 0.00 in0.0 mm 0.00 in0.0 mm
05:21 AM 55.7°F13.2°C 50.0°F10.0°C 81% 9.2 mph WSW14.8 kmh WSW 13.0 mph20.9 kmh 29.52 in999.7 mb 0.00 in0.0 mm 0.00 in0.0 mm 0.00 in0.0 mm
05:22 AM 55.7°F13.2°C 50.0°F10.0°C 81% 11.0 mph W17.7 kmh W 14.0 mph22.5 kmh 29.52 in999.7 mb 0.00 in0.0 mm 0.00 in0.0 mm 0.00 in0.0 mm
05:23 AM 55.7°F13.2°C 50.0°F10.0°C 81% 10.8 mph W17.4 kmh W 14.0 mph22.5 kmh 29.52 in999.7 mb 0.00 in0.0 mm 0.00 in0.0 mm 0.00 in0.0 mm
05:24 AM 55.7°F13.2°C 50.3°F10.2°C 82% 9.9 mph WSW15.9 kmh WSW 14.0 mph22.5 kmh 29.52 in999.7 mb 0.00 in0.0 mm 0.00 in0.0 mm 0.00 in0.0 mm
05:25 AM 55.7°F13.2°C 50.0°F10.0°C 81% 10.8 mph W17.4 kmh W 12.0 mph19.3 kmh 29.52 in999.7 mb 0.00 in0.0 mm 0.00 in0.0 mm 0.00 in0.0 mm
05:26 AM 55.7°F13.2°C 50.0°F10.0°C 81% 11.9 mph W19.2 kmh W 15.0 mph24.1 kmh 29.52 in999.7 mb 0.00 in0.0 mm 0.00 in0.0 mm 0.00 in0.0 mm
05:27 AM 55.7°F13.2°C 50.0°F10.0°C 81% 10.9 mph W17.5 kmh W 15.0 mph24.1 kmh 29.52 in999.7 mb 0.00 in0.0 mm 0.00 in0.0 mm 0.00 in0.0 mm
05:28 AM 55.7°F13.2°C 49.6°F9.8°C 80% 10.9 mph W17.5 kmh W 13.0 mph20.9 kmh 29.52 in999.7 mb 0.00 in0.0 mm 0.00 in0.0 mm 0.00 in0.0 mm
05:29 AM 55.7°F13.2°C 50.0°F10.0°C 81% 10.3 mph W16.6 kmh W 13.0 mph20.9 kmh 29.52 in999.7 mb 0.00 in0.0 mm 0.00 in0.0 mm 0.00 in0.0 mm
05:30 AM 55.7°F13.2°C 49.6°F9.8°C 80% 12.3 mph W19.8 kmh W 14.0 mph22.5 kmh 29.52 in999.7 mb 0.00 in0.0 mm 0.00 in0.0 mm 0.00 in0.0 mm
05:31 AM 55.6°F13.1°C 49.5°F9.7°C 80% 10.5 mph W16.9 kmh W 14.0 mph22.5 kmh 29.52 in999.7 mb 0.00 in0.0 mm 0.00 in0.0 mm 0.00 in0.0 mm
05:32 AM 55.7°F13.2°C 50.0°F10.0°C 81% 10.6 mph W17.1 kmh W 14.0 mph22.5 kmh 29.52 in999.7 mb 0.00 in0.0 mm 0.00 in0.0 mm 0.00 in0.0 mm
05:33 AM 55.7°F13.2°C 49.6°F9.8°C 80% 11.1 mph W17.9 kmh W 13.0 mph20.9 kmh 29.52 in999.7 mb 0.00 in0.0 mm 0.00 in0.0 mm 0.00 in0.0 mm
05:34 AM 55.6°F13.1°C 49.5°F9.7°C 80% 10.7 mph W17.2 kmh W 13.0 mph20.9 kmh 29.52 in999.7 mb 0.00 in0.0 mm 0.00 in0.0 mm 0.00 in0.0 mm
05:35 AM 55.5°F13.1°C 49.4°F9.7°C 80% 11.1 mph W17.9 kmh W 13.0 mph20.9 kmh 29.52 in999.7 mb 0.00 in0.0 mm 0.00 in0.0 mm 0.00 in0.0 mm
05:36 AM 55.6°F13.1°C 49.9°F9.9°C 81% 10.2 mph W16.4 kmh W 13.0 mph20.9 kmh 29.52 in999.7 mb 0.00 in0.0 mm 0.00 in0.0 mm 0.00 in0.0 mm
05:37 AM 55.6°F13.1°C 49.5°F9.7°C 80% 10.5 mph W16.9 kmh W 13.0 mph20.9 kmh 29.52 in999.7 mb 0.00 in0.0 mm 0.00 in0.0 mm 0.00 in0.0 mm
05:38 AM 55.5°F13.1°C 49.4°F9.7°C 80% 11.4 mph W18.3 kmh W 13.0 mph20.9 kmh 29.52 in999.7 mb 0.00 in0.0 mm 0.00 in0.0 mm 0.00 in0.0 mm
05:39 AM 55.5°F13.1°C 49.4°F9.7°C 80% 12.1 mph W19.5 kmh W 14.0 mph22.5 kmh 29.52 in999.7 mb 0.00 in0.0 mm 0.00 in0.0 mm 0.00 in0.0 mm
05:40 AM 55.5°F13.1°C 49.4°F9.7°C 80% 10.9 mph W17.5 kmh W 14.0 mph22.5 kmh 29.52 in999.7 mb 0.00 in0.0 mm 0.00 in0.0 mm 0.00 in0.0 mm
05:41 AM 55.5°F13.1°C 49.4°F9.7°C 80% 11.8 mph W19.0 kmh W 15.0 mph24.1 kmh 29.52 in999.7 mb 0.00 in0.0 mm 0.00 in0.0 mm 0.00 in0.0 mm
05:42 AM 55.5°F13.1°C 49.1°F9.5°C 79% 12.4 mph WSW20.0 kmh WSW 15.0 mph24.1 kmh 29.52 in999.7 mb 0.00 in0.0 mm 0.00 in0.0 mm 0.00 in0.0 mm
05:43 AM 55.6°F13.1°C 49.2°F9.6°C 79% 11.2 mph WSW18.0 kmh WSW 15.0 mph24.1 kmh 29.52 in999.7 mb 0.00 in0.0 mm 0.00 in0.0 mm 0.00 in0.0 mm
05:44 AM 55.6°F13.1°C 49.2°F9.6°C 79% 11.9 mph W19.2 kmh W 14.0 mph22.5 kmh 29.52 in999.7 mb 0.00 in0.0 mm 0.00 in0.0 mm 0.00 in0.0 mm
05:45 AM 55.6°F13.1°C 49.5°F9.7°C 80% 11.1 mph W17.9 kmh W 14.0 mph22.5 kmh 29.52 in999.7 mb 0.00 in0.0 mm 0.00 in0.0 mm 0.00 in0.0 mm
05:46 AM 55.6°F13.1°C 49.5°F9.7°C 80% 10.1 mph WSW16.3 kmh WSW 13.0 mph20.9 kmh 29.52 in999.7 mb 0.00 in0.0 mm 0.00 in0.0 mm 0.00 in0.0 mm
05:47 AM 55.6°F13.1°C 49.5°F9.7°C 80% 11.5 mph WSW18.5 kmh WSW 14.0 mph22.5 kmh 29.52 in999.7 mb 0.00 in0.0 mm 0.00 in0.0 mm 0.00 in0.0 mm
05:48 AM 55.6°F13.1°C 49.5°F9.7°C 80% 10.6 mph WSW17.1 kmh WSW 14.0 mph22.5 kmh 29.52 in999.7 mb 0.00 in0.0 mm 0.00 in0.0 mm 0.00 in0.0 mm
05:49 AM 55.6°F13.1°C 49.5°F9.7°C 80% 12.0 mph WSW19.3 kmh WSW 13.0 mph20.9 kmh 29.52 in999.7 mb 0.00 in0.0 mm 0.00 in0.0 mm 0.00 in0.0 mm
05:50 AM 55.5°F13.1°C 49.1°F9.5°C 79% 12.5 mph WSW20.1 kmh WSW 15.0 mph24.1 kmh 29.52 in999.7 mb 0.00 in0.0 mm 0.00 in0.0 mm 0.00 in0.0 mm
05:51 AM 55.5°F13.1°C 49.4°F9.7°C 80% 11.9 mph WSW19.2 kmh WSW 15.0 mph24.1 kmh 29.52 in999.7 mb 0.00 in0.0 mm 0.00 in0.0 mm 0.00 in0.0 mm
05:52 AM 55.5°F13.1°C 49.4°F9.7°C 80% 11.7 mph WSW18.8 kmh WSW 14.0 mph22.5 kmh 29.52 in999.7 mb 0.00 in0.0 mm 0.00 in0.0 mm 0.00 in0.0 mm
05:53 AM 55.5°F13.1°C 49.8°F9.9°C 81% 10.0 mph WSW16.1 kmh WSW 14.0 mph22.5 kmh 29.52 in999.7 mb 0.00 in0.0 mm 0.00 in0.0 mm 0.00 in0.0 mm
05:54 AM 55.5°F13.1°C 49.4°F9.7°C 80% 11.8 mph WSW19.0 kmh WSW 13.0 mph20.9 kmh 29.52 in999.7 mb 0.00 in0.0 mm 0.00 in0.0 mm 0.00 in0.0 mm
05:55 AM 55.4°F13.0°C 49.3°F9.6°C 80% 11.4 mph WSW18.3 kmh WSW 14.0 mph22.5 kmh 29.52 in999.7 mb 0.00 in0.0 mm 0.00 in0.0 mm 0.00 in0.0 mm
05:56 AM 55.4°F13.0°C 49.3°F9.6°C 80% 12.4 mph WSW20.0 kmh WSW 14.0 mph22.5 kmh 29.52 in999.7 mb 0.00 in0.0 mm 0.00 in0.0 mm 0.00 in0.0 mm
05:57 AM 55.5°F13.1°C 49.4°F9.7°C 80% 10.8 mph WSW17.4 kmh WSW 14.0 mph22.5 kmh 29.52 in999.7 mb 0.00 in0.0 mm 0.00 in0.0 mm 0.00 in0.0 mm
05:58 AM 55.5°F13.1°C 49.4°F9.7°C 80% 10.4 mph WSW16.7 kmh WSW 13.0 mph20.9 kmh 29.52 in999.7 mb 0.00 in0.0 mm 0.00 in0.0 mm 0.00 in0.0 mm
05:59 AM 55.4°F13.0°C 49.3°F9.6°C 80% 11.1 mph WSW17.9 kmh WSW 14.0 mph22.5 kmh 29.52 in999.7 mb 0.00 in0.0 mm 0.00 in0.0 mm 0.00 in0.0 mm
06:00 AM 55.5°F13.1°C 49.4°F9.7°C 80% 11.4 mph WSW18.3 kmh WSW 14.0 mph22.5 kmh 29.52 in999.7 mb 0.00 in0.0 mm 0.00 in0.0 mm 0.00 in0.0 mm
06:01 AM 55.4°F13.0°C 49.3°F9.6°C 80% 11.0 mph WSW17.7 kmh WSW 14.0 mph22.5 kmh 29.53 in1000.0 mb 0.00 in0.0 mm 0.00 in0.0 mm 0.00 in0.0 mm
06:02 AM 55.4°F13.0°C 49.0°F9.4°C 79% 10.7 mph WSW17.2 kmh WSW 14.0 mph22.5 kmh 29.53 in1000.0 mb 0.00 in0.0 mm 0.00 in0.0 mm 0.00 in0.0 mm
06:03 AM 55.4°F13.0°C 49.3°F9.6°C 80% 10.8 mph WSW17.4 kmh WSW 14.0 mph22.5 kmh 29.53 in1000.0 mb 0.00 in0.0 mm 0.00 in0.0 mm 0.00 in0.0 mm
06:04 AM 55.4°F13.0°C 49.7°F9.8°C 81% 10.6 mph W17.1 kmh W 12.0 mph19.3 kmh 29.53 in1000.0 mb 0.00 in0.0 mm 0.00 in0.0 mm 0.00 in0.0 mm
06:05 AM 55.4°F13.0°C 49.7°F9.8°C 81% 10.2 mph WSW16.4 kmh WSW 12.0 mph19.3 kmh 29.53 in1000.0 mb 0.00 in0.0 mm 0.00 in0.0 mm 0.00 in0.0 mm
06:06 AM 55.4°F13.0°C 49.3°F9.6°C 80% 11.9 mph WSW19.2 kmh WSW 13.0 mph20.9 kmh 29.53 in1000.0 mb 0.00 in0.0 mm 0.00 in0.0 mm 0.00 in0.0 mm
06:07 AM 55.3°F12.9°C 49.2°F9.6°C 80% 10.3 mph WSW16.6 kmh WSW 13.0 mph20.9 kmh 29.53 in1000.0 mb 0.00 in0.0 mm 0.00 in0.0 mm 0.00 in0.0 mm
06:08 AM 55.3°F12.9°C 49.2°F9.6°C 80% 10.2 mph W16.4 kmh W 13.0 mph20.9 kmh 29.53 in1000.0 mb 0.00 in0.0 mm 0.00 in0.0 mm 0.00 in0.0 mm
06:09 AM 55.3°F12.9°C 49.2°F9.6°C 80% 10.8 mph WSW17.4 kmh WSW 14.0 mph22.5 kmh 29.53 in1000.0 mb 0.00 in0.0 mm 0.00 in0.0 mm 0.00 in0.0 mm
06:10 AM 55.3°F12.9°C 49.6°F9.8°C 81% 10.8 mph W17.4 kmh W 14.0 mph22.5 kmh 29.53 in1000.0 mb 0.00 in0.0 mm 0.00 in0.0 mm 0.00 in0.0 mm
06:11 AM 55.2°F12.9°C 49.5°F9.7°C 81% 10.5 mph W16.9 kmh W 13.0 mph20.9 kmh 29.53 in1000.0 mb 0.00 in0.0 mm 0.00 in0.0 mm 0.00 in0.0 mm
06:12 AM 55.2°F12.9°C 49.5°F9.7°C 81% 11.8 mph W19.0 kmh W 14.0 mph22.5 kmh 29.53 in1000.0 mb 0.00 in0.0 mm 0.00 in0.0 mm 0.00 in0.0 mm
06:13 AM 55.2°F12.9°C 49.1°F9.5°C 80% 10.9 mph WSW17.5 kmh WSW 14.0 mph22.5 kmh 29.53 in1000.0 mb 0.00 in0.0 mm 0.00 in0.0 mm 0.00 in0.0 mm
06:14 AM 55.2°F12.9°C 49.5°F9.7°C 81% 9.9 mph W15.9 kmh W 13.0 mph20.9 kmh 29.53 in1000.0 mb 0.00 in0.0 mm 0.00 in0.0 mm 0.00 in0.0 mm
06:15 AM 55.2°F12.9°C 49.5°F9.7°C 81% 10.4 mph W16.7 kmh W 13.0 mph20.9 kmh 29.53 in1000.0 mb 0.00 in0.0 mm 0.00 in0.0 mm 0.00 in0.0 mm
06:16 AM 55.2°F12.9°C 49.5°F9.7°C 81% 11.3 mph W18.2 kmh W 14.0 mph22.5 kmh 29.53 in1000.0 mb 0.00 in0.0 mm 0.00 in0.0 mm 0.00 in0.0 mm
06:17 AM 55.1°F12.8°C 49.0°F9.4°C 80% 11.7 mph W18.8 kmh W 14.0 mph22.5 kmh 29.53 in1000.0 mb 0.00 in0.0 mm 0.00 in0.0 mm 0.00 in0.0 mm
06:18 AM 55.2°F12.9°C 49.5°F9.7°C 81% 11.2 mph W18.0 kmh W 14.0 mph22.5 kmh 29.53 in1000.0 mb 0.00 in0.0 mm 0.00 in0.0 mm 0.00 in0.0 mm
06:19 AM 55.1°F12.8°C 49.0°F9.4°C 80% 9.6 mph W15.4 kmh W 14.0 mph22.5 kmh 29.53 in1000.0 mb 0.00 in0.0 mm 0.00 in0.0 mm 0.00 in0.0 mm
06:20 AM 55.1°F12.8°C 49.4°F9.7°C 81% 9.7 mph WSW15.6 kmh WSW 12.0 mph19.3 kmh 29.53 in1000.0 mb 0.00 in0.0 mm 0.00 in0.0 mm 0.00 in0.0 mm
06:21 AM 55.1°F12.8°C 49.4°F9.7°C 81% 10.7 mph W17.2 kmh W 12.0 mph19.3 kmh 29.53 in1000.0 mb 0.00 in0.0 mm 0.00 in0.0 mm 0.00 in0.0 mm
06:22 AM 55.1°F12.8°C 49.4°F9.7°C 81% 9.5 mph W15.3 kmh W 12.0 mph19.3 kmh 29.53 in1000.0 mb 0.00 in0.0 mm 0.00 in0.0 mm 0.00 in0.0 mm
06:23 AM 55.1°F12.8°C 49.4°F9.7°C 81% 8.7 mph W14.0 kmh W 11.0 mph17.7 kmh 29.53 in1000.0 mb 0.00 in0.0 mm 0.00 in0.0 mm 0.00 in0.0 mm
06:24 AM 55.1°F12.8°C 49.7°F9.8°C 82% 8.6 mph WSW13.8 kmh WSW 11.0 mph17.7 kmh 29.53 in1000.0 mb 0.00 in0.0 mm 0.00 in0.0 mm 0.00 in0.0 mm
06:25 AM 55.1°F12.8°C 49.7°F9.8°C 82% 9.4 mph WSW15.1 kmh WSW 11.0 mph17.7 kmh 29.53 in1000.0 mb 0.00 in0.0 mm 0.00 in0.0 mm 0.00 in0.0 mm
06:26 AM 55.0°F12.8°C 49.6°F9.8°C 82% 8.0 mph WSW12.9 kmh WSW 11.0 mph17.7 kmh 29.53 in1000.0 mb 0.00 in0.0 mm 0.00 in0.0 mm 0.00 in0.0 mm
06:27 AM 55.0°F12.8°C 49.6°F9.8°C 82% 8.8 mph W14.2 kmh W 11.0 mph17.7 kmh 29.53 in1000.0 mb 0.00 in0.0 mm 0.00 in0.0 mm 0.00 in0.0 mm
06:28 AM 54.9°F12.7°C 49.5°F9.7°C 82% 8.6 mph WSW13.8 kmh WSW 11.0 mph17.7 kmh 29.53 in1000.0 mb 0.00 in0.0 mm 0.00 in0.0 mm 0.00 in0.0 mm
06:29 AM 54.9°F12.7°C 49.2°F9.6°C 81% 8.6 mph WSW13.8 kmh WSW 12.0 mph19.3 kmh 29.53 in1000.0 mb 0.00 in0.0 mm 0.00 in0.0 mm 0.00 in0.0 mm
06:30 AM 54.9°F12.7°C 49.5°F9.7°C 82% 8.5 mph W13.7 kmh W 12.0 mph19.3 kmh 29.53 in1000.0 mb 0.00 in0.0 mm 0.00 in0.0 mm 0.00 in0.0 mm
06:31 AM 54.9°F12.7°C 49.5°F9.7°C 82% 8.5 mph WSW13.7 kmh WSW 10.0 mph16.1 kmh 29.53 in1000.0 mb 0.00 in0.0 mm 0.00 in0.0 mm 0.00 in0.0 mm
06:32 AM 54.9°F12.7°C 49.5°F9.7°C 82% 8.9 mph WSW14.3 kmh WSW 11.0 mph17.7 kmh 29.53 in1000.0 mb 0.00 in0.0 mm 0.00 in0.0 mm 0.00 in0.0 mm
06:33 AM 54.9°F12.7°C 49.5°F9.7°C 82% 10.1 mph W16.3 kmh W 13.0 mph20.9 kmh 29.53 in1000.0 mb 0.00 in0.0 mm 0.00 in0.0 mm 0.00 in0.0 mm
06:34 AM 54.9°F12.7°C 49.2°F9.6°C 81% 10.7 mph WSW17.2 kmh WSW 13.0 mph20.9 kmh 29.53 in1000.0 mb 0.00 in0.0 mm 0.00 in0.0 mm 0.00 in0.0 mm
06:35 AM 54.9°F12.7°C 49.2°F9.6°C 81% 10.9 mph WSW17.5 kmh WSW 13.0 mph20.9 kmh 29.53 in1000.0 mb 0.00 in0.0 mm 0.00 in0.0 mm 0.00 in0.0 mm
06:36 AM 54.9°F12.7°C 49.2°F9.6°C 81% 10.1 mph WSW16.3 kmh WSW 12.0 mph19.3 kmh 29.53 in1000.0 mb 0.00 in0.0 mm 0.00 in0.0 mm 0.00 in0.0 mm
06:37 AM 54.9°F12.7°C 49.2°F9.6°C 81% 11.5 mph WSW18.5 kmh WSW 13.0 mph20.9 kmh 29.53 in1000.0 mb 0.00 in0.0 mm 0.00 in0.0 mm 0.00 in0.0 mm
06:38 AM 54.9°F12.7°C 49.2°F9.6°C 81% 10.9 mph WSW17.5 kmh WSW 13.0 mph20.9 kmh 29.53 in1000.0 mb 0.00 in0.0 mm 0.00 in0.0 mm 0.00 in0.0 mm
06:39 AM 54.9°F12.7°C 49.5°F9.7°C 82% 9.3 mph W15.0 kmh W 13.0 mph20.9 kmh 29.53 in1000.0 mb 0.00 in0.0 mm 0.00 in0.0 mm 0.00 in0.0 mm
06:40 AM 55.0°F12.8°C 49.3°F9.6°C 81% 10.6 mph W17.1 kmh W 13.0 mph20.9 kmh 29.53 in1000.0 mb 0.00 in0.0 mm 0.00 in0.0 mm 0.00 in0.0 mm
06:41 AM 55.0°F12.8°C 49.3°F9.6°C 81% 10.7 mph W17.2 kmh W 13.0 mph20.9 kmh 29.53 in1000.0 mb 0.00 in0.0 mm 0.00 in0.0 mm 0.00 in0.0 mm
06:42 AM 55.1°F12.8°C 49.4°F9.7°C 81% 11.5 mph W18.5 kmh W 13.0 mph20.9 kmh 29.53 in1000.0 mb 0.00 in0.0 mm 0.00 in0.0 mm 0.00 in0.0 mm
06:43 AM 55.1°F12.8°C 49.4°F9.7°C 81% 11.2 mph W18.0 kmh W 13.0 mph20.9 kmh 29.53 in1000.0 mb 0.00 in0.0 mm 0.00 in0.0 mm 0.00 in0.0 mm
06:44 AM 55.1°F12.8°C 49.4°F9.7°C 81% 11.5 mph W18.5 kmh W 14.0 mph22.5 kmh 29.53 in1000.0 mb 0.00 in0.0 mm 0.00 in0.0 mm 0.00 in0.0 mm
06:45 AM 55.1°F12.8°C 49.4°F9.7°C 81% 12.0 mph W19.3 kmh W 14.0 mph22.5 kmh 29.53 in1000.0 mb 0.00 in0.0 mm 0.00 in0.0 mm 0.00 in0.0 mm
06:46 AM 55.2°F12.9°C 49.1°F9.5°C 80% 11.5 mph W18.5 kmh W 14.0 mph22.5 kmh 29.53 in1000.0 mb 0.00 in0.0 mm 0.00 in0.0 mm 0.00 in0.0 mm
06:47 AM 55.3°F12.9°C 49.6°F9.8°C 81% 10.5 mph WSW16.9 kmh WSW 14.0 mph22.5 kmh 29.53 in1000.0 mb 0.00 in0.0 mm 0.00 in0.0 mm 0.00 in0.0 mm
06:48 AM 55.3°F12.9°C 49.2°F9.6°C 80% 13.1 mph W21.1 kmh W 17.0 mph27.4 kmh 29.53 in1000.0 mb 0.00 in0.0 mm 0.00 in0.0 mm 0.00 in0.0 mm
06:49 AM 55.3°F12.9°C 49.2°F9.6°C 80% 12.2 mph WSW19.6 kmh WSW 17.0 mph27.4 kmh 29.53 in1000.0 mb 0.00 in0.0 mm 0.00 in0.0 mm 0.00 in0.0 mm
06:50 AM 55.3°F12.9°C 48.6°F9.2°C 78% 12.6 mph W20.3 kmh W 16.0 mph25.7 kmh 29.53 in1000.0 mb 0.00 in0.0 mm 0.00 in0.0 mm 0.00 in0.0 mm
06:51 AM 55.4°F13.0°C 49.0°F9.4°C 79% 12.3 mph W19.8 kmh W 15.0 mph24.1 kmh 29.53 in1000.0 mb 0.00 in0.0 mm 0.00 in0.0 mm 0.00 in0.0 mm
06:52 AM 55.4°F13.0°C 49.3°F9.6°C 80% 11.5 mph W18.5 kmh W 14.0 mph22.5 kmh 29.53 in1000.0 mb 0.00 in0.0 mm 0.00 in0.0 mm 0.00 in0.0 mm
06:53 AM 55.4°F13.0°C 49.3°F9.6°C 80% 10.9 mph W17.5 kmh W 14.0 mph22.5 kmh 29.53 in1000.0 mb 0.00 in0.0 mm 0.00 in0.0 mm 0.00 in0.0 mm
06:54 AM 55.4°F13.0°C 49.3°F9.6°C 80% 12.3 mph WSW19.8 kmh WSW 15.0 mph24.1 kmh 29.53 in1000.0 mb 0.00 in0.0 mm 0.00 in0.0 mm 0.00 in0.0 mm
06:55 AM 55.4°F13.0°C 49.3°F9.6°C 80% 12.0 mph WSW19.3 kmh WSW 15.0 mph24.1 kmh 29.53 in1000.0 mb 0.00 in0.0 mm 0.00 in0.0 mm 0.00 in0.0 mm
06:56 AM 55.5°F13.1°C 49.4°F9.7°C 80% 10.6 mph W17.1 kmh W 14.0 mph22.5 kmh 29.53 in1000.0 mb 0.00 in0.0 mm 0.00 in0.0 mm 0.00 in0.0 mm
06:57 AM 55.5°F13.1°C 49.4°F9.7°C 80% 10.6 mph WSW17.1 kmh WSW 14.0 mph22.5 kmh 29.53 in1000.0 mb 0.00 in0.0 mm 0.00 in0.0 mm 0.00 in0.0 mm
06:58 AM 55.6°F13.1°C 49.5°F9.7°C 80% 11.8 mph W19.0 kmh W 14.0 mph22.5 kmh 29.53 in1000.0 mb 0.00 in0.0 mm 0.00 in0.0 mm 0.00 in0.0 mm
06:59 AM 55.6°F13.1°C 49.5°F9.7°C 80% 10.9 mph WSW17.5 kmh WSW 14.0 mph22.5 kmh 29.53 in1000.0 mb 0.00 in0.0 mm 0.00 in0.0 mm 0.00 in0.0 mm
07:00 AM 55.6°F13.1°C 49.5°F9.7°C 80% 9.9 mph W15.9 kmh W 13.0 mph20.9 kmh 29.53 in1000.0 mb 0.00 in0.0 mm 0.00 in0.0 mm 0.00 in0.0 mm
07:01 AM 55.7°F13.2°C 50.0°F10.0°C 81% 9.5 mph W15.3 kmh W 13.0 mph20.9 kmh 29.53 in1000.0 mb 0.00 in0.0 mm 0.00 in0.0 mm 0.00 in0.0 mm
07:02 AM 55.7°F13.2°C 49.6°F9.8°C 80% 11.3 mph W18.2 kmh W 14.0 mph22.5 kmh 29.53 in1000.0 mb 0.00 in0.0 mm 0.00 in0.0 mm 0.00 in0.0 mm
07:03 AM 55.7°F13.2°C 49.6°F9.8°C 80% 11.8 mph W19.0 kmh W 14.0 mph22.5 kmh 29.53 in1000.0 mb 0.00 in0.0 mm 0.00 in0.0 mm 0.00 in0.0 mm
07:04 AM 55.7°F13.2°C 49.3°F9.6°C 79% 12.4 mph W20.0 kmh W 14.0 mph22.5 kmh 29.53 in1000.0 mb 0.00 in0.0 mm 0.00 in0.0 mm 0.00 in0.0 mm
07:05 AM 55.7°F13.2°C 49.3°F9.6°C 79% 11.7 mph W18.8 kmh W 14.0 mph22.5 kmh 29.53 in1000.0 mb 0.00 in0.0 mm 0.00 in0.0 mm 0.00 in0.0 mm
07:06 AM 55.7°F13.2°C 48.9°F9.4°C 78% 10.2 mph W16.4 kmh W 14.0 mph22.5 kmh 29.53 in1000.0 mb 0.00 in0.0 mm 0.00 in0.0 mm 0.00 in0.0 mm
07:07 AM 55.7°F13.2°C 49.6°F9.8°C 80% 10.1 mph W16.3 kmh W 12.0 mph19.3 kmh 29.53 in1000.0 mb 0.00 in0.0 mm 0.00 in0.0 mm 0.00 in0.0 mm
07:08 AM 55.7°F13.2°C 49.6°F9.8°C 80% 10.9 mph W17.5 kmh W 13.0 mph20.9 kmh 29.53 in1000.0 mb 0.00 in0.0 mm 0.00 in0.0 mm 0.00 in0.0 mm
07:09 AM 55.7°F13.2°C 49.3°F9.6°C 79% 11.1 mph WSW17.9 kmh WSW 14.0 mph22.5 kmh 29.53 in1000.0 mb 0.00 in0.0 mm 0.00 in0.0 mm 0.00 in0.0 mm
07:10 AM 55.7°F13.2°C 49.3°F9.6°C 79% 13.0 mph W20.9 kmh W 15.0 mph24.1 kmh 29.53 in1000.0 mb 0.00 in0.0 mm 0.00 in0.0 mm 0.00 in0.0 mm
07:11 AM 55.7°F13.2°C 49.6°F9.8°C 80% 10.4 mph W16.7 kmh W 15.0 mph24.1 kmh 29.53 in1000.0 mb 0.00 in0.0 mm 0.00 in0.0 mm 0.00 in0.0 mm
07:12 AM 55.7°F13.2°C 49.6°F9.8°C 80% 11.0 mph W17.7 kmh W 14.0 mph22.5 kmh 29.53 in1000.0 mb 0.00 in0.0 mm 0.00 in0.0 mm 0.00 in0.0 mm
07:13 AM 55.8°F13.2°C 49.7°F9.8°C 80% 10.5 mph WSW16.9 kmh WSW 15.0 mph24.1 kmh 29.53 in1000.0 mb 0.00 in0.0 mm 0.00 in0.0 mm 0.00 in0.0 mm
07:14 AM 55.9°F13.3°C 49.8°F9.9°C 80% 12.2 mph WSW19.6 kmh WSW 15.0 mph24.1 kmh 29.53 in1000.0 mb 0.00 in0.0 mm 0.00 in0.0 mm 0.00 in0.0 mm
07:15 AM 55.9°F13.3°C 49.5°F9.7°C 79% 12.6 mph WSW20.3 kmh WSW 15.0 mph24.1 kmh 29.54 in1000.3 mb 0.00 in0.0 mm 0.00 in0.0 mm 0.00 in0.0 mm
07:16 AM 56.0°F13.3°C 49.6°F9.8°C 79% 12.5 mph WSW20.1 kmh WSW 15.0 mph24.1 kmh 29.54 in1000.3 mb 0.00 in0.0 mm 0.00 in0.0 mm 0.00 in0.0 mm
07:17 AM 56.0°F13.3°C 49.6°F9.8°C 79% 12.1 mph WSW19.5 kmh WSW 14.0 mph22.5 kmh 29.54 in1000.3 mb 0.00 in0.0 mm 0.00 in0.0 mm 0.00 in0.0 mm
07:18 AM 56.0°F13.3°C 49.6°F9.8°C 79% 12.2 mph WSW19.6 kmh WSW 14.0 mph22.5 kmh 29.54 in1000.3 mb 0.00 in0.0 mm 0.00 in0.0 mm 0.00 in0.0 mm
07:19 AM 56.1°F13.4°C 49.7°F9.8°C 79% 10.3 mph WSW16.6 kmh WSW 14.0 mph22.5 kmh 29.54 in1000.3 mb 0.00 in0.0 mm 0.00 in0.0 mm 0.00 in0.0 mm
07:20 AM 56.1°F13.4°C 49.7°F9.8°C 79% 11.6 mph WSW18.7 kmh WSW 13.0 mph20.9 kmh 29.54 in1000.3 mb 0.00 in0.0 mm 0.00 in0.0 mm 0.00 in0.0 mm
07:21 AM 56.2°F13.4°C 49.8°F9.9°C 79% 12.2 mph WSW19.6 kmh WSW 15.0 mph24.1 kmh 29.54 in1000.3 mb 0.00 in0.0 mm 0.00 in0.0 mm 0.00 in0.0 mm
07:22 AM 56.2°F13.4°C 49.4°F9.7°C 78% 11.0 mph W17.7 kmh W 15.0 mph24.1 kmh 29.54 in1000.3 mb 0.00 in0.0 mm 0.00 in0.0 mm 0.00 in0.0 mm
07:23 AM 56.2°F13.4°C 49.8°F9.9°C 79% 11.4 mph WSW18.3 kmh WSW 14.0 mph22.5 kmh 29.54 in1000.3 mb 0.00 in0.0 mm 0.00 in0.0 mm 0.00 in0.0 mm
07:24 AM 56.3°F13.5°C 49.5°F9.7°C 78% 10.6 mph W17.1 kmh W 14.0 mph22.5 kmh 29.54 in1000.3 mb 0.00 in0.0 mm 0.00 in0.0 mm 0.00 in0.0 mm
07:25 AM 56.3°F13.5°C 49.9°F9.9°C 79% 9.1 mph WSW14.6 kmh WSW 12.0 mph19.3 kmh 29.54 in1000.3 mb 0.00 in0.0 mm 0.00 in0.0 mm 0.00 in0.0 mm
07:26 AM 56.3°F13.5°C 49.9°F9.9°C 79% 11.1 mph W17.9 kmh W 12.0 mph19.3 kmh 29.54 in1000.3 mb 0.00 in0.0 mm 0.00 in0.0 mm 0.00 in0.0 mm
07:27 AM 56.3°F13.5°C 49.5°F9.7°C 78% 10.0 mph W16.1 kmh W 12.0 mph19.3 kmh 29.54 in1000.3 mb 0.00 in0.0 mm 0.00 in0.0 mm 0.00 in0.0 mm
07:28 AM 56.4°F13.6°C 50.0°F10.0°C 79% 9.7 mph WSW15.6 kmh WSW 12.0 mph19.3 kmh 29.54 in1000.3 mb 0.00 in0.0 mm 0.00 in0.0 mm 0.00 in0.0 mm
07:29 AM 56.4°F13.6°C 50.0°F10.0°C 79% 10.2 mph WSW16.4 kmh WSW 13.0 mph20.9 kmh 29.54 in1000.3 mb 0.00 in0.0 mm 0.00 in0.0 mm 0.00 in0.0 mm
07:30 AM 56.4°F13.6°C 49.3°F9.6°C 77% 9.5 mph WSW15.3 kmh WSW 13.0 mph20.9 kmh 29.54 in1000.3 mb 0.00 in0.0 mm 0.00 in0.0 mm 0.00 in0.0 mm
07:31 AM 56.5°F13.6°C 49.7°F9.8°C 78% 10.7 mph WSW17.2 kmh WSW 13.0 mph20.9 kmh 29.54 in1000.3 mb 0.00 in0.0 mm 0.00 in0.0 mm 0.00 in0.0 mm
07:32 AM 56.5°F13.6°C 50.1°F10.1°C 79% 8.8 mph WSW14.2 kmh WSW 13.0 mph20.9 kmh 29.54 in1000.3 mb 0.00 in0.0 mm 0.00 in0.0 mm 0.00 in0.0 mm
07:33 AM 56.6°F13.7°C 50.2°F10.1°C 79% 9.7 mph WSW15.6 kmh WSW 13.0 mph20.9 kmh 29.54 in1000.3 mb 0.00 in0.0 mm 0.00 in0.0 mm 0.00 in0.0 mm
07:34 AM 56.6°F13.7°C 50.2°F10.1°C 79% 9.4 mph WSW15.1 kmh WSW 13.0 mph20.9 kmh 29.54 in1000.3 mb 0.00 in0.0 mm 0.00 in0.0 mm 0.00 in0.0 mm
07:35 AM 56.7°F13.7°C 49.9°F9.9°C 78% 8.6 mph WSW13.8 kmh WSW 11.0 mph17.7 kmh 29.54 in1000.3 mb 0.00 in0.0 mm 0.00 in0.0 mm 0.00 in0.0 mm
07:36 AM 56.7°F13.7°C 49.9°F9.9°C 78% 9.8 mph WSW15.8 kmh WSW 11.0 mph17.7 kmh 29.54 in1000.3 mb 0.00 in0.0 mm 0.00 in0.0 mm 0.00 in0.0 mm
07:37 AM 56.7°F13.7°C 50.3°F10.2°C 79% 8.7 mph WSW14.0 kmh WSW 11.0 mph17.7 kmh 29.54 in1000.3 mb 0.00 in0.0 mm 0.00 in0.0 mm 0.00 in0.0 mm
07:38 AM 56.7°F13.7°C 50.3°F10.2°C 79% 8.4 mph WSW13.5 kmh WSW 11.0 mph17.7 kmh 29.54 in1000.3 mb 0.00 in0.0 mm 0.00 in0.0 mm 0.00 in0.0 mm
07:39 AM 56.7°F13.7°C 50.3°F10.2°C 79% 9.6 mph WSW15.4 kmh WSW 12.0 mph19.3 kmh 29.54 in1000.3 mb 0.00 in0.0 mm 0.00 in0.0 mm 0.00 in0.0 mm
07:40 AM 56.7°F13.7°C 49.9°F9.9°C 78% 10.9 mph WSW17.5 kmh WSW 12.0 mph19.3 kmh 29.54 in1000.3 mb 0.00 in0.0 mm 0.00 in0.0 mm 0.00 in0.0 mm
07:41 AM 56.7°F13.7°C 49.9°F9.9°C 78% 10.5 mph WSW16.9 kmh WSW 13.0 mph20.9 kmh 29.54 in1000.3 mb 0.00 in0.0 mm 0.00 in0.0 mm 0.00 in0.0 mm
07:42 AM 56.7°F13.7°C 49.9°F9.9°C 78% 9.5 mph WSW15.3 kmh WSW 13.0 mph20.9 kmh 29.54 in1000.3 mb 0.00 in0.0 mm 0.00 in0.0 mm 0.00 in0.0 mm
07:43 AM 56.8°F13.8°C 50.4°F10.2°C 79% 9.8 mph WSW15.8 kmh WSW 12.0 mph19.3 kmh 29.54 in1000.3 mb 0.00 in0.0 mm 0.00 in0.0 mm 0.00 in0.0 mm
07:44 AM 56.8°F13.8°C 50.0°F10.0°C 78% 9.5 mph WSW15.3 kmh WSW 12.0 mph19.3 kmh 29.54 in1000.3 mb 0.00 in0.0 mm 0.00 in0.0 mm 0.00 in0.0 mm
07:45 AM 56.8°F13.8°C 50.4°F10.2°C 79% 9.2 mph WSW14.8 kmh WSW 11.0 mph17.7 kmh 29.54 in1000.3 mb 0.00 in0.0 mm 0.00 in0.0 mm 0.00 in0.0 mm
07:46 AM 56.9°F13.8°C 50.5°F10.3°C 79% 9.4 mph WSW15.1 kmh WSW 12.0 mph19.3 kmh 29.54 in1000.3 mb 0.00 in0.0 mm 0.00 in0.0 mm 0.00 in0.0 mm
07:47 AM 56.9°F13.8°C 50.5°F10.3°C 79% 10.5 mph W16.9 kmh W 14.0 mph22.5 kmh 29.54 in1000.3 mb 0.00 in0.0 mm 0.00 in0.0 mm 0.00 in0.0 mm
07:48 AM 56.9°F13.8°C 50.1°F10.1°C 78% 9.9 mph WSW15.9 kmh WSW 14.0 mph22.5 kmh 29.54 in1000.3 mb 0.00 in0.0 mm 0.00 in0.0 mm 0.00 in0.0 mm
07:49 AM 56.9°F13.8°C 50.5°F10.3°C 79% 9.1 mph WSW14.6 kmh WSW 12.0 mph19.3 kmh 29.54 in1000.3 mb 0.00 in0.0 mm 0.00 in0.0 mm 0.00 in0.0 mm
07:50 AM 57.0°F13.9°C 50.6°F10.3°C 79% 8.9 mph WSW14.3 kmh WSW 12.0 mph19.3 kmh 29.54 in1000.3 mb 0.00 in0.0 mm 0.00 in0.0 mm 0.00 in0.0 mm
07:51 AM 57.0°F13.9°C 50.2°F10.1°C 78% 9.1 mph W14.6 kmh W 11.0 mph17.7 kmh 29.55 in1000.7 mb 0.00 in0.0 mm 0.00 in0.0 mm 0.00 in0.0 mm
07:52 AM 57.0°F13.9°C 50.2°F10.1°C 78% 10.2 mph WSW16.4 kmh WSW 13.0 mph20.9 kmh 29.54 in1000.3 mb 0.00 in0.0 mm 0.00 in0.0 mm 0.00 in0.0 mm
07:53 AM 57.0°F13.9°C 50.2°F10.1°C 78% 9.9 mph W15.9 kmh W 13.0 mph20.9 kmh 29.55 in1000.7 mb 0.00 in0.0 mm 0.00 in0.0 mm 0.00 in0.0 mm
07:54 AM 57.0°F13.9°C 50.6°F10.3°C 79% 8.8 mph W14.2 kmh W 12.0 mph19.3 kmh 29.54 in1000.3 mb 0.00 in0.0 mm 0.00 in0.0 mm 0.00 in0.0 mm
07:55 AM 57.0°F13.9°C 49.9°F9.9°C 77% 9.6 mph WSW15.4 kmh WSW 11.0 mph17.7 kmh 29.54 in1000.3 mb 0.00 in0.0 mm 0.00 in0.0 mm 0.00 in0.0 mm
07:56 AM 57.1°F13.9°C 50.3°F10.2°C 78% 10.2 mph W16.4 kmh W 13.0 mph20.9 kmh 29.54 in1000.3 mb 0.00 in0.0 mm 0.00 in0.0 mm 0.00 in0.0 mm
07:57 AM 57.1°F13.9°C 50.3°F10.2°C 78% 10.2 mph W16.4 kmh W 13.0 mph20.9 kmh 29.55 in1000.7 mb 0.00 in0.0 mm 0.00 in0.0 mm 0.00 in0.0 mm
07:58 AM 57.2°F14.0°C 50.1°F10.1°C 77% 10.4 mph W16.7 kmh W 12.0 mph19.3 kmh 29.55 in1000.7 mb 0.00 in0.0 mm 0.00 in0.0 mm 0.00 in0.0 mm
07:59 AM 57.2°F14.0°C 50.1°F10.1°C 77% 9.3 mph W15.0 kmh W 12.0 mph19.3 kmh 29.55 in1000.7 mb 0.00 in0.0 mm 0.00 in0.0 mm 0.00 in0.0 mm
08:00 AM 57.2°F14.0°C 50.4°F10.2°C 78% 8.5 mph W13.7 kmh W 11.0 mph17.7 kmh 29.55 in1000.7 mb 0.00 in0.0 mm 0.00 in0.0 mm 0.00 in0.0 mm
08:01 AM 57.3°F14.1°C 50.2°F10.1°C 77% 9.9 mph W15.9 kmh W 11.0 mph17.7 kmh 29.55 in1000.7 mb 0.00 in0.0 mm 0.00 in0.0 mm 0.00 in0.0 mm
08:02 AM 57.3°F14.1°C 50.5°F10.3°C 78% 8.7 mph W14.0 kmh W 11.0 mph17.7 kmh 29.55 in1000.7 mb 0.00 in0.0 mm 0.00 in0.0 mm 0.00 in0.0 mm
08:03 AM 57.3°F14.1°C 50.5°F10.3°C 78% 9.0 mph WSW14.5 kmh WSW 13.0 mph20.9 kmh 29.55 in1000.7 mb 0.00 in0.0 mm 0.00 in0.0 mm 0.00 in0.0 mm
08:04 AM 57.4°F14.1°C 50.6°F10.3°C 78% 10.0 mph WSW16.1 kmh WSW 13.0 mph20.9 kmh 29.55 in1000.7 mb 0.00 in0.0 mm 0.00 in0.0 mm 0.00 in0.0 mm
08:05 AM 57.3°F14.1°C 50.2°F10.1°C 77% 10.6 mph W17.1 kmh W 13.0 mph20.9 kmh 29.55 in1000.7 mb 0.00 in0.0 mm 0.00 in0.0 mm 0.00 in0.0 mm
08:06 AM 57.4°F14.1°C 50.2°F10.1°C 77% 8.4 mph W13.5 kmh W 13.0 mph20.9 kmh 29.55 in1000.7 mb 0.00 in0.0 mm 0.00 in0.0 mm 0.00 in0.0 mm
08:07 AM 57.4°F14.1°C 50.6°F10.3°C 78% 7.2 mph W11.6 kmh W 10.0 mph16.1 kmh 29.55 in1000.7 mb 0.00 in0.0 mm 0.00 in0.0 mm 0.00 in0.0 mm
08:08 AM 57.5°F14.2°C 50.7°F10.4°C 78% 7.0 mph W11.3 kmh W 9.0 mph14.5 kmh 29.55 in1000.7 mb 0.00 in0.0 mm 0.00 in0.0 mm 0.00 in0.0 mm
08:09 AM 57.5°F14.2°C 50.3°F10.2°C 77% 7.7 mph W12.4 kmh W 10.0 mph16.1 kmh 29.55 in1000.7 mb 0.00 in0.0 mm 0.00 in0.0 mm 0.00 in0.0 mm
08:10 AM 57.5°F14.2°C 50.3°F10.2°C 77% 8.7 mph W14.0 kmh W 10.0 mph16.1 kmh 29.55 in1000.7 mb 0.00 in0.0 mm 0.00 in0.0 mm 0.00 in0.0 mm
08:11 AM 57.5°F14.2°C 49.6°F9.8°C 75% 8.6 mph W13.8 kmh W 11.0 mph17.7 kmh 29.55 in1000.7 mb 0.00 in0.0 mm 0.00 in0.0 mm 0.00 in0.0 mm
08:12 AM 57.5°F14.2°C 50.0°F10.0°C 76% 9.9 mph W15.9 kmh W 12.0 mph19.3 kmh 29.55 in1000.7 mb 0.00 in0.0 mm 0.00 in0.0 mm 0.00 in0.0 mm
08:13 AM 57.5°F14.2°C 50.0°F10.0°C 76% 8.8 mph W14.2 kmh W 12.0 mph19.3 kmh 29.55 in1000.7 mb 0.00 in0.0 mm 0.00 in0.0 mm 0.00 in0.0 mm
08:14 AM 57.6°F14.2°C 49.7°F9.8°C 75% 9.1 mph W14.6 kmh W 11.0 mph17.7 kmh 29.55 in1000.7 mb 0.00 in0.0 mm 0.00 in0.0 mm 0.00 in0.0 mm
08:15 AM 57.5°F14.2°C 50.0°F10.0°C 76% 9.5 mph W15.3 kmh W 12.0 mph19.3 kmh 29.55 in1000.7 mb 0.00 in0.0 mm 0.00 in0.0 mm 0.00 in0.0 mm
08:16 AM 57.5°F14.2°C 49.3°F9.6°C 74% 9.6 mph W15.4 kmh W 12.0 mph19.3 kmh 29.55 in1000.7 mb 0.00 in0.0 mm 0.00 in0.0 mm 0.00 in0.0 mm
08:17 AM 57.6°F14.2°C 49.7°F9.8°C 75% 9.3 mph WSW15.0 kmh WSW 12.0 mph19.3 kmh 29.55 in1000.7 mb 0.00 in0.0 mm 0.00 in0.0 mm 0.00 in0.0 mm
08:18 AM 57.6°F14.2°C 49.7°F9.8°C 75% 8.2 mph W13.2 kmh W 12.0 mph19.3 kmh 29.55 in1000.7 mb 0.00 in0.0 mm 0.00 in0.0 mm 0.00 in0.0 mm
08:19 AM 57.7°F14.3°C 49.8°F9.9°C 75% 8.9 mph W14.3 kmh W 10.0 mph16.1 kmh 29.55 in1000.7 mb 0.00 in0.0 mm 0.00 in0.0 mm 0.00 in0.0 mm
08:20 AM 57.7°F14.3°C 49.8°F9.9°C 75% 9.5 mph WSW15.3 kmh WSW 11.0 mph17.7 kmh 29.55 in1000.7 mb 0.00 in0.0 mm 0.00 in0.0 mm 0.00 in0.0 mm
08:21 AM 57.7°F14.3°C 49.5°F9.7°C 74% 8.8 mph WSW14.2 kmh WSW 11.0 mph17.7 kmh 29.55 in1000.7 mb 0.00 in0.0 mm 0.00 in0.0 mm 0.00 in0.0 mm
08:22 AM 57.7°F14.3°C 49.5°F9.7°C 74% 8.6 mph W13.8 kmh W 11.0 mph17.7 kmh 29.55 in1000.7 mb 0.00 in0.0 mm 0.00 in0.0 mm 0.00 in0.0 mm
08:23 AM 57.7°F14.3°C 49.8°F9.9°C 75% 8.3 mph W13.4 kmh W 10.0 mph16.1 kmh 29.55 in1000.7 mb 0.00 in0.0 mm 0.00 in0.0 mm 0.00 in0.0 mm
08:24 AM 57.8°F14.3°C 49.9°F9.9°C 75% 8.6 mph W13.8 kmh W 10.0 mph16.1 kmh 29.55 in1000.7 mb 0.00 in0.0 mm 0.00 in0.0 mm 0.00 in0.0 mm
08:25 AM 57.8°F14.3°C 50.3°F10.2°C 76% 8.3 mph W13.4 kmh W 10.0 mph16.1 kmh 29.55 in1000.7 mb 0.00 in0.0 mm 0.00 in0.0 mm 0.00 in0.0 mm
08:26 AM 57.8°F14.3°C 50.3°F10.2°C 76% 8.5 mph WSW13.7 kmh WSW 10.0 mph16.1 kmh 29.55 in1000.7 mb 0.00 in0.0 mm 0.00 in0.0 mm 0.00 in0.0 mm
08:27 AM 57.8°F14.3°C 49.9°F9.9°C 75% 8.5 mph WSW13.7 kmh WSW 11.0 mph17.7 kmh 29.55 in1000.7 mb 0.00 in0.0 mm 0.00 in0.0 mm 0.00 in0.0 mm
08:28 AM 57.9°F14.4°C 50.0°F10.0°C 75% 9.3 mph WSW15.0 kmh WSW 11.0 mph17.7 kmh 29.55 in1000.7 mb 0.00 in0.0 mm 0.00 in0.0 mm 0.00 in0.0 mm
08:29 AM 57.9°F14.4°C 50.0°F10.0°C 75% 8.7 mph WSW14.0 kmh WSW 11.0 mph17.7 kmh 29.55 in1000.7 mb 0.00 in0.0 mm 0.00 in0.0 mm 0.00 in0.0 mm
08:30 AM 57.9°F14.4°C 49.7°F9.8°C 74% 11.4 mph WSW18.3 kmh WSW 14.0 mph22.5 kmh 29.55 in1000.7 mb 0.00 in0.0 mm 0.00 in0.0 mm 0.00 in0.0 mm
08:31 AM 58.0°F14.4°C 49.8°F9.9°C 74% 9.8 mph WSW15.8 kmh WSW 14.0 mph22.5 kmh 29.55 in1000.7 mb 0.00 in0.0 mm 0.00 in0.0 mm 0.00 in0.0 mm
08:32 AM 58.0°F14.4°C 49.8°F9.9°C 74% 10.5 mph WSW16.9 kmh WSW 13.0 mph20.9 kmh 29.55 in1000.7 mb 0.00 in0.0 mm 0.00 in0.0 mm 0.00 in0.0 mm
08:33 AM 58.0°F14.4°C 49.4°F9.7°C 73% 9.7 mph W15.6 kmh W 13.0 mph20.9 kmh 29.55 in1000.7 mb 0.00 in0.0 mm 0.00 in0.0 mm 0.00 in0.0 mm
08:34 AM 58.0°F14.4°C 49.0°F9.4°C 72% 9.8 mph WSW15.8 kmh WSW 13.0 mph20.9 kmh 29.55 in1000.7 mb 0.00 in0.0 mm 0.00 in0.0 mm 0.00 in0.0 mm
08:35 AM 58.0°F14.4°C 49.4°F9.7°C 73% 10.6 mph W17.1 kmh W 13.0 mph20.9 kmh 29.55 in1000.7 mb 0.00 in0.0 mm 0.00 in0.0 mm 0.00 in0.0 mm
08:36 AM 58.1°F14.5°C 49.9°F9.9°C 74% 8.5 mph WSW13.7 kmh WSW 13.0 mph20.9 kmh 29.55 in1000.7 mb 0.00 in0.0 mm 0.00 in0.0 mm 0.00 in0.0 mm
08:37 AM 58.1°F14.5°C 49.9°F9.9°C 74% 8.7 mph W14.0 kmh W 11.0 mph17.7 kmh 29.55 in1000.7 mb 0.00 in0.0 mm 0.00 in0.0 mm 0.00 in0.0 mm
08:38 AM 58.1°F14.5°C 49.9°F9.9°C 74% 10.5 mph W16.9 kmh W 13.0 mph20.9 kmh 29.55 in1000.7 mb 0.00 in0.0 mm 0.00 in0.0 mm 0.00 in0.0 mm
08:39 AM 58.2°F14.6°C 50.0°F10.0°C 74% 11.6 mph WSW18.7 kmh WSW 13.0 mph20.9 kmh 29.55 in1000.7 mb 0.00 in0.0 mm 0.00 in0.0 mm 0.00 in0.0 mm
08:40 AM 58.2°F14.6°C 49.2°F9.6°C 72% 11.3 mph WSW18.2 kmh WSW 14.0 mph22.5 kmh 29.55 in1000.7 mb 0.00 in0.0 mm 0.00 in0.0 mm 0.00 in0.0 mm
08:41 AM 58.2°F14.6°C 49.6°F9.8°C 73% 11.2 mph WSW18.0 kmh WSW 14.0 mph22.5 kmh 29.55 in1000.7 mb 0.00 in0.0 mm 0.00 in0.0 mm 0.00 in0.0 mm
08:42 AM 58.3°F14.6°C 49.3°F9.6°C 72% 9.8 mph WSW15.8 kmh WSW 13.0 mph20.9 kmh 29.55 in1000.7 mb 0.00 in0.0 mm 0.00 in0.0 mm 0.00 in0.0 mm
08:43 AM 58.2°F14.6°C 49.6°F9.8°C 73% 9.3 mph WSW15.0 kmh WSW 12.0 mph19.3 kmh 29.56 in1001.0 mb 0.00 in0.0 mm 0.00 in0.0 mm 0.00 in0.0 mm
08:44 AM 58.3°F14.6°C 50.4°F10.2°C 75% 8.5 mph WSW13.7 kmh WSW 12.0 mph19.3 kmh 29.56 in1001.0 mb 0.00 in0.0 mm 0.00 in0.0 mm 0.00 in0.0 mm
08:45 AM 58.4°F14.7°C 50.5°F10.3°C 75% 12.4 mph WSW20.0 kmh WSW 15.0 mph24.1 kmh 29.56 in1001.0 mb 0.00 in0.0 mm 0.00 in0.0 mm 0.00 in0.0 mm
08:46 AM 58.3°F14.6°C 49.7°F9.8°C 73% 12.2 mph W19.6 kmh W 16.0 mph25.7 kmh 29.56 in1001.0 mb 0.00 in0.0 mm 0.00 in0.0 mm 0.00 in0.0 mm
08:47 AM 58.3°F14.6°C 49.7°F9.8°C 73% 11.2 mph W18.0 kmh W 16.0 mph25.7 kmh 29.56 in1001.0 mb 0.00 in0.0 mm 0.00 in0.0 mm 0.00 in0.0 mm
08:48 AM 58.3°F14.6°C 50.4°F10.2°C 75% 9.3 mph WSW15.0 kmh WSW 13.0 mph20.9 kmh 29.56 in1001.0 mb 0.00 in0.0 mm 0.00 in0.0 mm 0.00 in0.0 mm
08:49 AM 58.3°F14.6°C 50.4°F10.2°C 75% 8.6 mph WSW13.8 kmh WSW 11.0 mph17.7 kmh 29.56 in1001.0 mb 0.00 in0.0 mm 0.00 in0.0 mm 0.00 in0.0 mm
08:50 AM 58.4°F14.7°C 50.1°F10.1°C 74% 10.3 mph WSW16.6 kmh WSW 13.0 mph20.9 kmh 29.56 in1001.0 mb 0.00 in0.0 mm 0.00 in0.0 mm 0.00 in0.0 mm
08:51 AM 58.4°F14.7°C 50.1°F10.1°C 74% 12.5 mph WSW20.1 kmh WSW 14.0 mph22.5 kmh 29.56 in1001.0 mb 0.00 in0.0 mm 0.00 in0.0 mm 0.00 in0.0 mm
08:52 AM 58.5°F14.7°C 49.9°F9.9°C 73% 12.4 mph WSW20.0 kmh WSW 15.0 mph24.1 kmh 29.56 in1001.0 mb 0.00 in0.0 mm 0.00 in0.0 mm 0.00 in0.0 mm
08:53 AM 58.4°F14.7°C 49.4°F9.7°C 72% 13.2 mph WSW21.2 kmh WSW 17.0 mph27.4 kmh 29.56 in1001.0 mb 0.00 in0.0 mm 0.00 in0.0 mm 0.00 in0.0 mm
08:54 AM 58.4°F14.7°C 49.4°F9.7°C 72% 11.6 mph WSW18.7 kmh WSW 17.0 mph27.4 kmh 29.56 in1001.0 mb 0.00 in0.0 mm 0.00 in0.0 mm 0.00 in0.0 mm
08:55 AM 58.4°F14.7°C 49.4°F9.7°C 72% 13.0 mph WSW20.9 kmh WSW 15.0 mph24.1 kmh 29.56 in1001.0 mb 0.00 in0.0 mm 0.00 in0.0 mm 0.00 in0.0 mm
08:56 AM 58.4°F14.7°C 49.0°F9.4°C 71% 12.9 mph WSW20.8 kmh WSW 15.0 mph24.1 kmh 29.56 in1001.0 mb 0.00 in0.0 mm 0.00 in0.0 mm 0.00 in0.0 mm
08:57 AM 58.4°F14.7°C 49.0°F9.4°C 71% 11.7 mph WSW18.8 kmh WSW 14.0 mph22.5 kmh 29.56 in1001.0 mb 0.00 in0.0 mm 0.00 in0.0 mm 0.00 in0.0 mm
08:58 AM 58.5°F14.7°C 48.7°F9.3°C 70% 11.5 mph W18.5 kmh W 14.0 mph22.5 kmh 29.56 in1001.0 mb 0.00 in0.0 mm 0.00 in0.0 mm 0.00 in0.0 mm
08:59 AM 58.5°F14.7°C 49.5°F9.7°C 72% 11.2 mph WSW18.0 kmh WSW 14.0 mph22.5 kmh 29.56 in1001.0 mb 0.00 in0.0 mm 0.00 in0.0 mm 0.00 in0.0 mm
09:00 AM 58.5°F14.7°C 49.5°F9.7°C 72% 11.7 mph WSW18.8 kmh WSW 14.0 mph22.5 kmh 29.56 in1001.0 mb 0.00 in0.0 mm 0.00 in0.0 mm 0.00 in0.0 mm
09:01 AM 58.6°F14.8°C 48.8°F9.3°C 70% 10.9 mph W17.5 kmh W 14.0 mph22.5 kmh 29.56 in1001.0 mb 0.00 in0.0 mm 0.00 in0.0 mm 0.00 in0.0 mm
09:02 AM 58.6°F14.8°C 49.6°F9.8°C 72% 10.6 mph WSW17.1 kmh WSW 13.0 mph20.9 kmh 29.56 in1001.0 mb 0.00 in0.0 mm 0.00 in0.0 mm 0.00 in0.0 mm
09:03 AM 58.6°F14.8°C 49.6°F9.8°C 72% 11.1 mph WSW17.9 kmh WSW 13.0 mph20.9 kmh 29.56 in1001.0 mb 0.00 in0.0 mm 0.00 in0.0 mm 0.00 in0.0 mm
09:04 AM 58.6°F14.8°C 50.0°F10.0°C 73% 10.4 mph WSW16.7 kmh WSW 13.0 mph20.9 kmh 29.56 in1001.0 mb 0.00 in0.0 mm 0.00 in0.0 mm 0.00 in0.0 mm
09:05 AM 58.7°F14.8°C 50.1°F10.1°C 73% 11.0 mph WSW17.7 kmh WSW 13.0 mph20.9 kmh 29.56 in1001.0 mb 0.00 in0.0 mm 0.00 in0.0 mm 0.00 in0.0 mm
09:06 AM 58.6°F14.8°C 50.0°F10.0°C 73% 9.7 mph WSW15.6 kmh WSW 13.0 mph20.9 kmh 29.56 in1001.0 mb 0.00 in0.0 mm 0.00 in0.0 mm 0.00 in0.0 mm
09:07 AM 58.7°F14.8°C 49.3°F9.6°C 71% 11.1 mph WSW17.9 kmh WSW 13.0 mph20.9 kmh 29.56 in1001.0 mb 0.00 in0.0 mm 0.00 in0.0 mm 0.00 in0.0 mm
09:08 AM 58.7°F14.8°C 48.9°F9.4°C 70% 10.5 mph WSW16.9 kmh WSW 13.0 mph20.9 kmh 29.56 in1001.0 mb 0.00 in0.0 mm 0.00 in0.0 mm 0.00 in0.0 mm
09:09 AM 58.7°F14.8°C 49.3°F9.6°C 71% 11.9 mph WSW19.2 kmh WSW 14.0 mph22.5 kmh 29.56 in1001.0 mb 0.00 in0.0 mm 0.00 in0.0 mm 0.00 in0.0 mm
09:10 AM 58.7°F14.8°C 49.7°F9.8°C 72% 10.7 mph WSW17.2 kmh WSW 14.0 mph22.5 kmh 29.56 in1001.0 mb 0.00 in0.0 mm 0.00 in0.0 mm 0.00 in0.0 mm
09:11 AM 58.8°F14.9°C 49.4°F9.7°C 71% 12.1 mph WSW19.5 kmh WSW 14.0 mph22.5 kmh 29.56 in1001.0 mb 0.00 in0.0 mm 0.00 in0.0 mm 0.00 in0.0 mm
09:12 AM 58.8°F14.9°C 49.4°F9.7°C 71% 10.1 mph WSW16.3 kmh WSW 14.0 mph22.5 kmh 29.56 in1001.0 mb 0.00 in0.0 mm 0.00 in0.0 mm 0.00 in0.0 mm
09:13 AM 58.8°F14.9°C 49.4°F9.7°C 71% 11.4 mph WSW18.3 kmh WSW 12.0 mph19.3 kmh 29.56 in1001.0 mb 0.00 in0.0 mm 0.00 in0.0 mm 0.00 in0.0 mm
09:14 AM 58.8°F14.9°C 49.4°F9.7°C 71% 10.3 mph WSW16.6 kmh WSW 13.0 mph20.9 kmh 29.56 in1001.0 mb 0.00 in0.0 mm 0.00 in0.0 mm 0.00 in0.0 mm
09:15 AM 58.8°F14.9°C 49.0°F9.4°C 70% 9.2 mph WSW14.8 kmh WSW 13.0 mph20.9 kmh 29.56 in1001.0 mb 0.00 in0.0 mm 0.00 in0.0 mm 0.00 in0.0 mm
09:16 AM 58.9°F14.9°C 48.7°F9.3°C 69% 9.6 mph W15.4 kmh W 11.0 mph17.7 kmh 29.56 in1001.0 mb 0.00 in0.0 mm 0.00 in0.0 mm 0.00 in0.0 mm
09:17 AM 58.9°F14.9°C 49.9°F9.9°C 72% 8.5 mph W13.7 kmh W 11.0 mph17.7 kmh 29.56 in1001.0 mb 0.00 in0.0 mm 0.00 in0.0 mm 0.00 in0.0 mm
09:18 AM 58.9°F14.9°C 49.9°F9.9°C 72% 8.8 mph W14.2 kmh W 11.0 mph17.7 kmh 29.56 in1001.0 mb 0.00 in0.0 mm 0.00 in0.0 mm 0.00 in0.0 mm
09:19 AM 59.0°F15.0°C 50.0°F10.0°C 72% 8.8 mph WSW14.2 kmh WSW 11.0 mph17.7 kmh 29.57 in1001.4 mb 0.00 in0.0 mm 0.00 in0.0 mm 0.00 in0.0 mm
09:20 AM 59.1°F15.1°C 49.7°F9.8°C 71% 10.8 mph WSW17.4 kmh WSW 13.0 mph20.9 kmh 29.56 in1001.0 mb 0.00 in0.0 mm 0.00 in0.0 mm 0.00 in0.0 mm
09:21 AM 59.0°F15.0°C 49.2°F9.6°C 70% 10.5 mph WSW16.9 kmh WSW 13.0 mph20.9 kmh 29.57 in1001.4 mb 0.00 in0.0 mm 0.00 in0.0 mm 0.00 in0.0 mm
09:22 AM 59.0°F15.0°C 49.2°F9.6°C 70% 10.7 mph W17.2 kmh W 13.0 mph20.9 kmh 29.57 in1001.4 mb 0.00 in0.0 mm 0.00 in0.0 mm 0.00 in0.0 mm
09:23 AM 59.0°F15.0°C 49.2°F9.6°C 70% 11.1 mph WSW17.9 kmh WSW 14.0 mph22.5 kmh 29.57 in1001.4 mb 0.00 in0.0 mm 0.00 in0.0 mm 0.00 in0.0 mm
09:24 AM 59.1°F15.1°C 48.9°F9.4°C 69% 10.3 mph W16.6 kmh W 14.0 mph22.5 kmh 29.57 in1001.4 mb 0.00 in0.0 mm 0.00 in0.0 mm 0.00 in0.0 mm
09:25 AM 59.0°F15.0°C 49.6°F9.8°C 71% 8.9 mph W14.3 kmh W 12.0 mph19.3 kmh 29.57 in1001.4 mb 0.00 in0.0 mm 0.00 in0.0 mm 0.00 in0.0 mm
09:26 AM 59.1°F15.1°C 49.3°F9.6°C 70% 9.6 mph W15.4 kmh W 11.0 mph17.7 kmh 29.57 in1001.4 mb 0.00 in0.0 mm 0.00 in0.0 mm 0.00 in0.0 mm
09:27 AM 59.1°F15.1°C 49.3°F9.6°C 70% 9.8 mph W15.8 kmh W 12.0 mph19.3 kmh 29.57 in1001.4 mb 0.00 in0.0 mm 0.00 in0.0 mm 0.00 in0.0 mm
09:28 AM 59.1°F15.1°C 49.7°F9.8°C 71% 10.1 mph WSW16.3 kmh WSW 13.0 mph20.9 kmh 29.57 in1001.4 mb 0.00 in0.0 mm 0.00 in0.0 mm 0.00 in0.0 mm
09:29 AM 59.1°F15.1°C 48.9°F9.4°C 69% 9.0 mph WSW14.5 kmh WSW 13.0 mph20.9 kmh 29.57 in1001.4 mb 0.00 in0.0 mm 0.00 in0.0 mm 0.00 in0.0 mm
09:30 AM 59.1°F15.1°C 49.7°F9.8°C 71% 9.8 mph W15.8 kmh W 12.0 mph19.3 kmh 29.57 in1001.4 mb 0.00 in0.0 mm 0.00 in0.0 mm 0.00 in0.0 mm
09:31 AM 59.1°F15.1°C 49.7°F9.8°C 71% 11.8 mph WSW19.0 kmh WSW 13.0 mph20.9 kmh 29.57 in1001.4 mb 0.00 in0.0 mm 0.00 in0.0 mm 0.00 in0.0 mm
09:32 AM 59.1°F15.1°C 48.9°F9.4°C 69% 12.4 mph WSW20.0 kmh WSW 15.0 mph24.1 kmh 29.57 in1001.4 mb 0.00 in0.0 mm 0.00 in0.0 mm 0.00 in0.0 mm
09:33 AM 59.2°F15.1°C 49.4°F9.7°C 70% 12.0 mph WSW19.3 kmh WSW 15.0 mph24.1 kmh 29.57 in1001.4 mb 0.00 in0.0 mm 0.00 in0.0 mm 0.00 in0.0 mm
09:34 AM 59.1°F15.1°C 48.9°F9.4°C 69% 11.7 mph WSW18.8 kmh WSW 15.0 mph24.1 kmh 29.57 in1001.4 mb 0.00 in0.0 mm 0.00 in0.0 mm 0.00 in0.0 mm
09:35 AM 59.1°F15.1°C 48.9°F9.4°C 69% 11.4 mph WSW18.3 kmh WSW 13.0 mph20.9 kmh 29.57 in1001.4 mb 0.00 in0.0 mm 0.00 in0.0 mm 0.00 in0.0 mm
09:36 AM 59.2°F15.1°C 49.0°F9.4°C 69% 11.0 mph W17.7 kmh W 13.0 mph20.9 kmh 29.57 in1001.4 mb 0.00 in0.0 mm 0.00 in0.0 mm 0.00 in0.0 mm
09:37 AM 59.2°F15.1°C 49.4°F9.7°C 70% 10.7 mph W17.2 kmh W 13.0 mph20.9 kmh 29.57 in1001.4 mb 0.00 in0.0 mm 0.00 in0.0 mm 0.00 in0.0 mm
09:38 AM 59.1°F15.1°C 48.9°F9.4°C 69% 9.9 mph WSW15.9 kmh WSW 12.0 mph19.3 kmh 29.57 in1001.4 mb 0.00 in0.0 mm 0.00 in0.0 mm 0.00 in0.0 mm
09:39 AM 59.2°F15.1°C 49.4°F9.7°C 70% 9.9 mph WSW15.9 kmh WSW 12.0 mph19.3 kmh 29.57 in1001.4 mb 0.00 in0.0 mm 0.00 in0.0 mm 0.00 in0.0 mm
09:40 AM 59.2°F15.1°C 49.4°F9.7°C 70% 11.7 mph WSW18.8 kmh WSW 14.0 mph22.5 kmh 29.57 in1001.4 mb 0.00 in0.0 mm 0.00 in0.0 mm 0.00 in0.0 mm
09:41 AM 59.3°F15.2°C 49.5°F9.7°C 70% 11.5 mph WSW18.5 kmh WSW 14.0 mph22.5 kmh 29.57 in1001.4 mb 0.00 in0.0 mm 0.00 in0.0 mm 0.00 in0.0 mm
09:42 AM 59.3°F15.2°C 49.5°F9.7°C 70% 11.5 mph WSW18.5 kmh WSW 13.0 mph20.9 kmh 29.57 in1001.4 mb 0.00 in0.0 mm 0.00 in0.0 mm 0.00 in0.0 mm
09:43 AM 59.3°F15.2°C 49.1°F9.5°C 69% 10.0 mph SW16.1 kmh SW 13.0 mph20.9 kmh 29.57 in1001.4 mb 0.00 in0.0 mm 0.00 in0.0 mm 0.00 in0.0 mm
09:44 AM 59.5°F15.3°C 49.3°F9.6°C 69% 9.7 mph WSW15.6 kmh WSW 12.0 mph19.3 kmh 29.57 in1001.4 mb 0.00 in0.0 mm 0.00 in0.0 mm 0.00 in0.0 mm
09:45 AM 59.5°F15.3°C 49.3°F9.6°C 69% 9.0 mph WSW14.5 kmh WSW 11.0 mph17.7 kmh 29.57 in1001.4 mb 0.00 in0.0 mm 0.00 in0.0 mm 0.00 in0.0 mm
09:46 AM 59.6°F15.3°C 49.8°F9.9°C 70% 11.1 mph WSW17.9 kmh WSW 13.0 mph20.9 kmh 29.57 in1001.4 mb 0.00 in0.0 mm 0.00 in0.0 mm 0.00 in0.0 mm
09:47 AM 59.6°F15.3°C 49.4°F9.7°C 69% 11.9 mph WSW19.2 kmh WSW 14.0 mph22.5 kmh 29.57 in1001.4 mb 0.00 in0.0 mm 0.00 in0.0 mm 0.00 in0.0 mm
09:48 AM 59.6°F15.3°C 49.4°F9.7°C 69% 10.5 mph WSW16.9 kmh WSW 14.0 mph22.5 kmh 29.57 in1001.4 mb 0.00 in0.0 mm 0.00 in0.0 mm 0.00 in0.0 mm
09:49 AM 59.6°F15.3°C 49.0°F9.4°C 68% 11.3 mph WSW18.2 kmh WSW 14.0 mph22.5 kmh 29.57 in1001.4 mb 0.00 in0.0 mm 0.00 in0.0 mm 0.00 in0.0 mm
09:50 AM 59.6°F15.3°C 49.0°F9.4°C 68% 10.5 mph WSW16.9 kmh WSW 14.0 mph22.5 kmh 29.57 in1001.4 mb 0.00 in0.0 mm 0.00 in0.0 mm 0.00 in0.0 mm
09:51 AM 59.6°F15.3°C 49.0°F9.4°C 68% 10.8 mph WSW17.4 kmh WSW 12.0 mph19.3 kmh 29.57 in1001.4 mb 0.00 in0.0 mm 0.00 in0.0 mm 0.00 in0.0 mm
09:52 AM 59.6°F15.3°C 49.4°F9.7°C 69% 9.9 mph WSW15.9 kmh WSW 12.0 mph19.3 kmh 29.57 in1001.4 mb 0.00 in0.0 mm 0.00 in0.0 mm 0.00 in0.0 mm
09:53 AM 59.7°F15.4°C 49.1°F9.5°C 68% 10.0 mph WSW16.1 kmh WSW 12.0 mph19.3 kmh 29.57 in1001.4 mb 0.00 in0.0 mm 0.00 in0.0 mm 0.00 in0.0 mm
09:54 AM 59.7°F15.4°C 49.5°F9.7°C 69% 9.9 mph WSW15.9 kmh WSW 12.0 mph19.3 kmh 29.57 in1001.4 mb 0.00 in0.0 mm 0.00 in0.0 mm 0.00 in0.0 mm
09:55 AM 59.7°F15.4°C 49.5°F9.7°C 69% 11.9 mph WSW19.2 kmh WSW 14.0 mph22.5 kmh 29.57 in1001.4 mb 0.00 in0.0 mm 0.00 in0.0 mm 0.00 in0.0 mm
09:56 AM 59.7°F15.4°C 49.1°F9.5°C 68% 11.9 mph WSW19.2 kmh WSW 14.0 mph22.5 kmh 29.57 in1001.4 mb 0.00 in0.0 mm 0.00 in0.0 mm 0.00 in0.0 mm
09:57 AM 59.6°F15.3°C 48.6°F9.2°C 67% 11.5 mph W18.5 kmh W 14.0 mph22.5 kmh 29.57 in1001.4 mb 0.00 in0.0 mm 0.00 in0.0 mm 0.00 in0.0 mm
09:58 AM 59.5°F15.3°C 48.5°F9.2°C 67% 10.6 mph WSW17.1 kmh WSW 13.0 mph20.9 kmh 29.57 in1001.4 mb 0.00 in0.0 mm 0.00 in0.0 mm 0.00 in0.0 mm
09:59 AM 59.5°F15.3°C 49.3°F9.6°C 69% 9.7 mph WSW15.6 kmh WSW 12.0 mph19.3 kmh 29.57 in1001.4 mb 0.00 in0.0 mm 0.00 in0.0 mm 0.00 in0.0 mm
10:00 AM 59.4°F15.2°C 49.2°F9.6°C 69% 10.4 mph WSW16.7 kmh WSW 12.0 mph19.3 kmh 29.57 in1001.4 mb 0.00 in0.0 mm 0.00 in0.0 mm 0.00 in0.0 mm
10:01 AM 59.3°F15.2°C 49.1°F9.5°C 69% 10.8 mph WSW17.4 kmh WSW 13.0 mph20.9 kmh 29.57 in1001.4 mb 0.00 in0.0 mm 0.00 in0.0 mm 0.00 in0.0 mm
10:02 AM 59.3°F15.2°C 49.5°F9.7°C 70% 9.0 mph WSW14.5 kmh WSW 13.0 mph20.9 kmh 29.57 in1001.4 mb 0.00 in0.0 mm 0.00 in0.0 mm 0.00 in0.0 mm
10:03 AM 59.3°F15.2°C 49.9°F9.9°C 71% 8.2 mph WSW13.2 kmh WSW 10.0 mph16.1 kmh 29.57 in1001.4 mb 0.00 in0.0 mm 0.00 in0.0 mm 0.00 in0.0 mm
10:04 AM 59.2°F15.1°C 49.8°F9.9°C 71% 8.8 mph WSW14.2 kmh WSW 10.0 mph16.1 kmh 29.57 in1001.4 mb 0.00 in0.0 mm 0.00 in0.0 mm 0.00 in0.0 mm
10:05 AM 59.2°F15.1°C 49.4°F9.7°C 70% 9.0 mph W14.5 kmh W 11.0 mph17.7 kmh 29.57 in1001.4 mb 0.00 in0.0 mm 0.00 in0.0 mm 0.00 in0.0 mm
10:06 AM 59.2°F15.1°C 49.0°F9.4°C 69% 8.3 mph W13.4 kmh W 11.0 mph17.7 kmh 29.57 in1001.4 mb 0.00 in0.0 mm 0.00 in0.0 mm 0.00 in0.0 mm
10:07 AM 59.0°F15.0°C 49.6°F9.8°C 71% 9.6 mph WSW15.4 kmh WSW 11.0 mph17.7 kmh 29.57 in1001.4 mb 0.00 in0.0 mm 0.00 in0.0 mm 0.00 in0.0 mm
10:08 AM 58.9°F14.9°C 49.5°F9.7°C 71% 10.2 mph WSW16.4 kmh WSW 11.0 mph17.7 kmh 29.57 in1001.4 mb 0.00 in0.0 mm 0.00 in0.0 mm 0.00 in0.0 mm
10:09 AM 58.9°F14.9°C 49.5°F9.7°C 71% 10.3 mph WSW16.6 kmh WSW 12.0 mph19.3 kmh 29.57 in1001.4 mb 0.00 in0.0 mm 0.00 in0.0 mm 0.00 in0.0 mm
10:10 AM 58.9°F14.9°C 49.5°F9.7°C 71% 9.8 mph WSW15.8 kmh WSW 12.0 mph19.3 kmh 29.58 in1001.7 mb 0.00 in0.0 mm 0.00 in0.0 mm 0.00 in0.0 mm
10:11 AM 58.9°F14.9°C 49.1°F9.5°C 70% 9.5 mph WSW15.3 kmh WSW 11.0 mph17.7 kmh 29.58 in1001.7 mb 0.00 in0.0 mm 0.00 in0.0 mm 0.00 in0.0 mm
10:12 AM 58.9°F14.9°C 49.1°F9.5°C 70% 9.8 mph W15.8 kmh W 12.0 mph19.3 kmh 29.57 in1001.4 mb 0.00 in0.0 mm 0.00 in0.0 mm 0.00 in0.0 mm
10:13 AM 59.0°F15.0°C 48.8°F9.3°C 69% 8.9 mph WSW14.3 kmh WSW 12.0 mph19.3 kmh 29.57 in1001.4 mb 0.00 in0.0 mm 0.00 in0.0 mm 0.00 in0.0 mm
10:14 AM 59.1°F15.1°C 49.7°F9.8°C 71% 7.7 mph W12.4 kmh W 11.0 mph17.7 kmh 29.57 in1001.4 mb 0.00 in0.0 mm 0.00 in0.0 mm 0.00 in0.0 mm
10:15 AM 59.1°F15.1°C 50.1°F10.1°C 72% 8.1 mph WSW13.0 kmh WSW 10.0 mph16.1 kmh 29.57 in1001.4 mb 0.00 in0.0 mm 0.00 in0.0 mm 0.00 in0.0 mm
10:16 AM 59.2°F15.1°C 49.8°F9.9°C 71% 9.1 mph W14.6 kmh W 11.0 mph17.7 kmh 29.57 in1001.4 mb 0.00 in0.0 mm 0.00 in0.0 mm 0.00 in0.0 mm
10:17 AM 59.3°F15.2°C 49.9°F9.9°C 71% 9.5 mph WSW15.3 kmh WSW 11.0 mph17.7 kmh 29.58 in1001.7 mb 0.00 in0.0 mm 0.00 in0.0 mm 0.00 in0.0 mm
10:18 AM 59.3°F15.2°C 49.9°F9.9°C 71% 8.6 mph W13.8 kmh W 11.0 mph17.7 kmh 29.58 in1001.7 mb 0.00 in0.0 mm 0.00 in0.0 mm 0.00 in0.0 mm
10:19 AM 59.3°F15.2°C 50.3°F10.2°C 72% 7.9 mph WSW12.7 kmh WSW 11.0 mph17.7 kmh 29.57 in1001.4 mb 0.00 in0.0 mm 0.00 in0.0 mm 0.00 in0.0 mm
10:20 AM 59.2°F15.1°C 49.4°F9.7°C 70% 10.5 mph WSW16.9 kmh WSW 12.0 mph19.3 kmh 29.57 in1001.4 mb 0.00 in0.0 mm 0.00 in0.0 mm 0.00 in0.0 mm
10:21 AM 59.2°F15.1°C 49.8°F9.9°C 71% 9.4 mph WSW15.1 kmh WSW 12.0 mph19.3 kmh 29.57 in1001.4 mb 0.00 in0.0 mm 0.00 in0.0 mm 0.00 in0.0 mm
10:22 AM 59.1°F15.1°C 49.3°F9.6°C 70% 11.6 mph WSW18.7 kmh WSW 13.0 mph20.9 kmh 29.57 in1001.4 mb 0.00 in0.0 mm 0.00 in0.0 mm 0.00 in0.0 mm
10:23 AM 58.9°F14.9°C 49.5°F9.7°C 71% 9.1 mph WSW14.6 kmh WSW 13.0 mph20.9 kmh 29.58 in1001.7 mb 0.00 in0.0 mm 0.00 in0.0 mm 0.00 in0.0 mm
10:24 AM 58.9°F14.9°C 49.5°F9.7°C 71% 9.5 mph WSW15.3 kmh WSW 12.0 mph19.3 kmh 29.58 in1001.7 mb 0.00 in0.0 mm 0.00 in0.0 mm 0.00 in0.0 mm
10:25 AM 58.8°F14.9°C 49.8°F9.9°C 72% 10.7 mph WSW17.2 kmh WSW 12.0 mph19.3 kmh 29.58 in1001.7 mb 0.00 in0.0 mm 0.00 in0.0 mm 0.00 in0.0 mm
10:26 AM 58.8°F14.9°C 49.4°F9.7°C 71% 11.3 mph WSW18.2 kmh WSW 13.0 mph20.9 kmh 29.58 in1001.7 mb 0.00 in0.0 mm 0.00 in0.0 mm 0.00 in0.0 mm
10:27 AM 58.8°F14.9°C 49.8°F9.9°C 72% 9.0 mph WSW14.5 kmh WSW 13.0 mph20.9 kmh 29.58 in1001.7 mb 0.00 in0.0 mm 0.00 in0.0 mm 0.00 in0.0 mm
10:28 AM 58.8°F14.9°C 49.4°F9.7°C 71% 11.0 mph WSW17.7 kmh WSW 12.0 mph19.3 kmh 29.58 in1001.7 mb 0.00 in0.0 mm 0.00 in0.0 mm 0.00 in0.0 mm
10:29 AM 58.8°F14.9°C 49.4°F9.7°C 71% 9.7 mph W15.6 kmh W 13.0 mph20.9 kmh 29.58 in1001.7 mb 0.00 in0.0 mm 0.00 in0.0 mm 0.00 in0.0 mm
10:30 AM 58.9°F14.9°C 49.5°F9.7°C 71% 9.8 mph WSW15.8 kmh WSW 13.0 mph20.9 kmh 29.58 in1001.7 mb 0.00 in0.0 mm 0.00 in0.0 mm 0.00 in0.0 mm
10:31 AM 58.9°F14.9°C 49.9°F9.9°C 72% 8.6 mph W13.8 kmh W 11.0 mph17.7 kmh 29.58 in1001.7 mb 0.00 in0.0 mm 0.00 in0.0 mm 0.00 in0.0 mm
10:32 AM 59.0°F15.0°C 49.6°F9.8°C 71% 9.8 mph W15.8 kmh W 11.0 mph17.7 kmh 29.58 in1001.7 mb 0.00 in0.0 mm 0.00 in0.0 mm 0.00 in0.0 mm
10:33 AM 59.1°F15.1°C 49.7°F9.8°C 71% 9.8 mph WSW15.8 kmh WSW 12.0 mph19.3 kmh 29.58 in1001.7 mb 0.00 in0.0 mm 0.00 in0.0 mm 0.00 in0.0 mm
10:34 AM 59.1°F15.1°C 49.7°F9.8°C 71% 9.6 mph WSW15.4 kmh WSW 13.0 mph20.9 kmh 29.58 in1001.7 mb 0.00 in0.0 mm 0.00 in0.0 mm 0.00 in0.0 mm
10:35 AM 59.1°F15.1°C 49.7°F9.8°C 71% 9.9 mph WSW15.9 kmh WSW 13.0 mph20.9 kmh 29.58 in1001.7 mb 0.00 in0.0 mm 0.00 in0.0 mm 0.00 in0.0 mm
10:36 AM 59.2°F15.1°C 49.8°F9.9°C 71% 9.9 mph WSW15.9 kmh WSW 13.0 mph20.9 kmh 29.58 in1001.7 mb 0.00 in0.0 mm 0.00 in0.0 mm 0.00 in0.0 mm
10:37 AM 59.3°F15.2°C 49.9°F9.9°C 71% 10.8 mph WSW17.4 kmh WSW 14.0 mph22.5 kmh 29.58 in1001.7 mb 0.00 in0.0 mm 0.00 in0.0 mm 0.00 in0.0 mm
10:38 AM 59.3°F15.2°C 49.5°F9.7°C 70% 10.9 mph WSW17.5 kmh WSW 13.0 mph20.9 kmh 29.58 in1001.7 mb 0.00 in0.0 mm 0.00 in0.0 mm 0.00 in0.0 mm
10:39 AM 59.3°F15.2°C 49.9°F9.9°C 71% 10.3 mph WSW16.6 kmh WSW 13.0 mph20.9 kmh 29.58 in1001.7 mb 0.00 in0.0 mm 0.00 in0.0 mm 0.00 in0.0 mm
10:40 AM 59.4°F15.2°C 49.6°F9.8°C 70% 9.6 mph WSW15.4 kmh WSW 12.0 mph19.3 kmh 29.58 in1001.7 mb 0.00 in0.0 mm 0.00 in0.0 mm 0.00 in0.0 mm
10:41 AM 59.5°F15.3°C 49.7°F9.8°C 70% 10.7 mph WSW17.2 kmh WSW 12.0 mph19.3 kmh 29.58 in1001.7 mb 0.00 in0.0 mm 0.00 in0.0 mm 0.00 in0.0 mm
10:42 AM 59.5°F15.3°C 49.3°F9.6°C 69% 9.5 mph WSW15.3 kmh WSW 12.0 mph19.3 kmh 29.58 in1001.7 mb 0.00 in0.0 mm 0.00 in0.0 mm 0.00 in0.0 mm
10:43 AM 59.5°F15.3°C 49.7°F9.8°C 70% 9.3 mph WSW15.0 kmh WSW 11.0 mph17.7 kmh 29.58 in1001.7 mb 0.00 in0.0 mm 0.00 in0.0 mm 0.00 in0.0 mm
10:44 AM 59.7°F15.4°C 48.7°F9.3°C 67% 10.5 mph WSW16.9 kmh WSW 12.0 mph19.3 kmh 29.58 in1001.7 mb 0.00 in0.0 mm 0.00 in0.0 mm 0.00 in0.0 mm
10:45 AM 59.8°F15.4°C 48.4°F9.1°C 66% 10.1 mph WSW16.3 kmh WSW 12.0 mph19.3 kmh 29.58 in1001.7 mb 0.00 in0.0 mm 0.00 in0.0 mm 0.00 in0.0 mm
10:46 AM 59.7°F15.4°C 48.7°F9.3°C 67% 9.1 mph WSW14.6 kmh WSW 12.0 mph19.3 kmh 29.58 in1001.7 mb 0.00 in0.0 mm 0.00 in0.0 mm 0.00 in0.0 mm
10:47 AM 59.8°F15.4°C 48.8°F9.3°C 67% 10.0 mph WSW16.1 kmh WSW 11.0 mph17.7 kmh 29.58 in1001.7 mb 0.00 in0.0 mm 0.00 in0.0 mm 0.00 in0.0 mm
10:48 AM 59.9°F15.5°C 48.5°F9.2°C 66% 9.0 mph WSW14.5 kmh WSW 11.0 mph17.7 kmh 29.58 in1001.7 mb 0.00 in0.0 mm 0.00 in0.0 mm 0.00 in0.0 mm
10:49 AM 60.0°F15.6°C 48.6°F9.2°C 66% 6.2 mph WSW10.0 kmh WSW 11.0 mph17.7 kmh 29.58 in1001.7 mb 0.00 in0.0 mm 0.00 in0.0 mm 0.00 in0.0 mm
10:50 AM 60.0°F15.6°C 48.6°F9.2°C 66% 8.2 mph WSW13.2 kmh WSW 9.0 mph14.5 kmh 29.58 in1001.7 mb 0.00 in0.0 mm 0.00 in0.0 mm 0.00 in0.0 mm
10:51 AM 60.1°F15.6°C 48.7°F9.3°C 66% 7.5 mph WSW12.1 kmh WSW 9.0 mph14.5 kmh 29.58 in1001.7 mb 0.00 in0.0 mm 0.00 in0.0 mm 0.00 in0.0 mm
10:52 AM 60.2°F15.7°C 49.6°F9.8°C 68% 6.9 mph WSW11.1 kmh WSW 9.0 mph14.5 kmh 29.58 in1001.7 mb 0.00 in0.0 mm 0.00 in0.0 mm 0.00 in0.0 mm
10:53 AM 60.2°F15.7°C 49.6°F9.8°C 68% 9.3 mph WSW15.0 kmh WSW 11.0 mph17.7 kmh 29.58 in1001.7 mb 0.00 in0.0 mm 0.00 in0.0 mm 0.00 in0.0 mm
10:54 AM 60.2°F15.7°C 48.4°F9.1°C 65% 10.0 mph WSW16.1 kmh WSW 12.0 mph19.3 kmh 29.58 in1001.7 mb 0.00 in0.0 mm 0.00 in0.0 mm 0.00 in0.0 mm
10:55 AM 60.1°F15.6°C 48.3°F9.1°C 65% 9.7 mph WSW15.6 kmh WSW 12.0 mph19.3 kmh 29.58 in1001.7 mb 0.00 in0.0 mm 0.00 in0.0 mm 0.00 in0.0 mm
10:56 AM 60.1°F15.6°C 48.7°F9.3°C 66% 8.3 mph WSW13.4 kmh WSW 12.0 mph19.3 kmh 29.58 in1001.7 mb 0.00 in0.0 mm 0.00 in0.0 mm 0.00 in0.0 mm
10:57 AM 60.0°F15.6°C 49.0°F9.4°C 67% 10.0 mph WSW16.1 kmh WSW 12.0 mph19.3 kmh 29.58 in1001.7 mb 0.00 in0.0 mm 0.00 in0.0 mm 0.00 in0.0 mm
10:58 AM 60.0°F15.6°C 48.6°F9.2°C 66% 10.6 mph WSW17.1 kmh WSW 13.0 mph20.9 kmh 29.58 in1001.7 mb 0.00 in0.0 mm 0.00 in0.0 mm 0.00 in0.0 mm
10:59 AM 60.1°F15.6°C 49.1°F9.5°C 67% 10.2 mph WSW16.4 kmh WSW 13.0 mph20.9 kmh 29.58 in1001.7 mb 0.00 in0.0 mm 0.00 in0.0 mm 0.00 in0.0 mm
11:00 AM 60.0°F15.6°C 49.4°F9.7°C 68% 10.9 mph WSW17.5 kmh WSW 12.0 mph19.3 kmh 29.58 in1001.7 mb 0.00 in0.0 mm 0.00 in0.0 mm 0.00 in0.0 mm
11:01 AM 59.9°F15.5°C 48.5°F9.2°C 66% 10.7 mph WSW17.2 kmh WSW 12.0 mph19.3 kmh 29.58 in1001.7 mb 0.00 in0.0 mm 0.00 in0.0 mm 0.00 in0.0 mm
11:02 AM 59.8°F15.4°C 48.8°F9.3°C 67% 10.2 mph WSW16.4 kmh WSW 12.0 mph19.3 kmh 29.58 in1001.7 mb 0.00 in0.0 mm 0.00 in0.0 mm 0.00 in0.0 mm
11:03 AM 59.8°F15.4°C 48.8°F9.3°C 67% 9.8 mph W15.8 kmh W 12.0 mph19.3 kmh 29.58 in1001.7 mb 0.00 in0.0 mm 0.00 in0.0 mm 0.00 in0.0 mm
11:04 AM 59.7°F15.4°C 48.7°F9.3°C 67% 9.6 mph W15.4 kmh W 11.0 mph17.7 kmh 29.58 in1001.7 mb 0.00 in0.0 mm 0.00 in0.0 mm 0.00 in0.0 mm
11:05 AM 59.8°F15.4°C 48.8°F9.3°C 67% 8.7 mph W14.0 kmh W 11.0 mph17.7 kmh 29.58 in1001.7 mb 0.00 in0.0 mm 0.00 in0.0 mm 0.00 in0.0 mm
11:06 AM 59.7°F15.4°C 49.1°F9.5°C 68% 9.0 mph WSW14.5 kmh WSW 11.0 mph17.7 kmh 29.58 in1001.7 mb 0.00 in0.0 mm 0.00 in0.0 mm 0.00 in0.0 mm
11:07 AM 59.7°F15.4°C 49.5°F9.7°C 69% 10.0 mph WSW16.1 kmh WSW 11.0 mph17.7 kmh 29.58 in1001.7 mb 0.00 in0.0 mm 0.00 in0.0 mm 0.00 in0.0 mm
11:08 AM 59.7°F15.4°C 49.1°F9.5°C 68% 9.5 mph WSW15.3 kmh WSW 11.0 mph17.7 kmh 29.58 in1001.7 mb 0.00 in0.0 mm 0.00 in0.0 mm 0.00 in0.0 mm
11:09 AM 59.7°F15.4°C 49.1°F9.5°C 68% 8.4 mph WSW13.5 kmh WSW 11.0 mph17.7 kmh 29.58 in1001.7 mb 0.00 in0.0 mm 0.00 in0.0 mm 0.00 in0.0 mm
11:10 AM 59.7°F15.4°C 49.1°F9.5°C 68% 8.1 mph WSW13.0 kmh WSW 10.0 mph16.1 kmh 29.58 in1001.7 mb 0.00 in0.0 mm 0.00 in0.0 mm 0.00 in0.0 mm
11:11 AM 59.6°F15.3°C 49.8°F9.9°C 70% 8.5 mph WSW13.7 kmh WSW 10.0 mph16.1 kmh 29.58 in1001.7 mb 0.00 in0.0 mm 0.00 in0.0 mm 0.00 in0.0 mm
11:12 AM 59.6°F15.3°C 49.4°F9.7°C 69% 7.5 mph WSW12.1 kmh WSW 10.0 mph16.1 kmh 29.58 in1001.7 mb 0.00 in0.0 mm 0.00 in0.0 mm 0.00 in0.0 mm
11:13 AM 59.7°F15.4°C 48.7°F9.3°C 67% 6.4 mph W10.3 kmh W 9.0 mph14.5 kmh 29.58 in1001.7 mb 0.00 in0.0 mm 0.00 in0.0 mm 0.00 in0.0 mm
11:14 AM 59.7°F15.4°C 48.7°F9.3°C 67% 8.2 mph WSW13.2 kmh WSW 11.0 mph17.7 kmh 29.58 in1001.7 mb 0.00 in0.0 mm 0.00 in0.0 mm 0.00 in0.0 mm
11:15 AM 59.6°F15.3°C 49.0°F9.4°C 68% 9.5 mph W15.3 kmh W 11.0 mph17.7 kmh 29.58 in1001.7 mb 0.00 in0.0 mm 0.00 in0.0 mm 0.00 in0.0 mm
11:16 AM 59.6°F15.3°C 47.8°F8.8°C 65% 9.7 mph W15.6 kmh W 11.0 mph17.7 kmh 29.58 in1001.7 mb 0.00 in0.0 mm 0.00 in0.0 mm 0.00 in0.0 mm
11:17 AM 59.6°F15.3°C 48.2°F9.0°C 66% 9.6 mph WSW15.4 kmh WSW 11.0 mph17.7 kmh 29.58 in1001.7 mb 0.00 in0.0 mm 0.00 in0.0 mm 0.00 in0.0 mm
11:18 AM 59.6°F15.3°C 48.6°F9.2°C 67% 8.9 mph WSW14.3 kmh WSW 11.0 mph17.7 kmh 29.58 in1001.7 mb 0.00 in0.0 mm 0.00 in0.0 mm 0.00 in0.0 mm
11:19 AM 59.5°F15.3°C 48.1°F8.9°C 66% 7.8 mph WSW12.6 kmh WSW 10.0 mph16.1 kmh 29.58 in1001.7 mb 0.00 in0.0 mm 0.00 in0.0 mm 0.00 in0.0 mm
11:20 AM 59.6°F15.3°C 49.0°F9.4°C 68% 7.9 mph WSW12.7 kmh WSW 11.0 mph17.7 kmh 29.58 in1001.7 mb 0.00 in0.0 mm 0.00 in0.0 mm 0.00 in0.0 mm
11:21 AM 59.6°F15.3°C 48.6°F9.2°C 67% 9.8 mph WSW15.8 kmh WSW 11.0 mph17.7 kmh 29.58 in1001.7 mb 0.00 in0.0 mm 0.00 in0.0 mm 0.00 in0.0 mm
11:22 AM 59.6°F15.3°C 48.6°F9.2°C 67% 9.3 mph W15.0 kmh W 11.0 mph17.7 kmh 29.58 in1001.7 mb 0.00 in0.0 mm 0.00 in0.0 mm 0.00 in0.0 mm
11:23 AM 59.8°F15.4°C 49.6°F9.8°C 69% 8.4 mph W13.5 kmh W 11.0 mph17.7 kmh 29.58 in1001.7 mb 0.00 in0.0 mm 0.00 in0.0 mm 0.00 in0.0 mm
11:24 AM 59.8°F15.4°C 49.6°F9.8°C 69% 8.5 mph W13.7 kmh W 10.0 mph16.1 kmh 29.58 in1001.7 mb 0.00 in0.0 mm 0.00 in0.0 mm 0.00 in0.0 mm
11:25 AM 59.9°F15.5°C 48.9°F9.4°C 67% 9.5 mph WSW15.3 kmh WSW 11.0 mph17.7 kmh 29.58 in1001.7 mb 0.00 in0.0 mm 0.00 in0.0 mm 0.00 in0.0 mm
11:26 AM 60.0°F15.6°C 49.0°F9.4°C 67% 8.6 mph W13.8 kmh W 11.0 mph17.7 kmh 29.58 in1001.7 mb 0.00 in0.0 mm 0.00 in0.0 mm 0.00 in0.0 mm
11:27 AM 60.1°F15.6°C 49.1°F9.5°C 67% 8.5 mph W13.7 kmh W 10.0 mph16.1 kmh 29.58 in1001.7 mb 0.00 in0.0 mm 0.00 in0.0 mm 0.00 in0.0 mm
11:28 AM 60.2°F15.7°C 49.6°F9.8°C 68% 8.3 mph W13.4 kmh W 10.0 mph16.1 kmh 29.58 in1001.7 mb 0.00 in0.0 mm 0.00 in0.0 mm 0.00 in0.0 mm
11:29 AM 60.3°F15.7°C 49.7°F9.8°C 68% 8.6 mph W13.8 kmh W 10.0 mph16.1 kmh 29.58 in1001.7 mb 0.00 in0.0 mm 0.00 in0.0 mm 0.00 in0.0 mm
11:30 AM 60.3°F15.7°C 49.7°F9.8°C 68% 7.8 mph W12.6 kmh W 10.0 mph16.1 kmh 29.58 in1001.7 mb 0.00 in0.0 mm 0.00 in0.0 mm 0.00 in0.0 mm
11:31 AM 60.4°F15.8°C 49.8°F9.9°C 68% 8.7 mph W14.0 kmh W 10.0 mph16.1 kmh 29.58 in1001.7 mb 0.00 in0.0 mm 0.00 in0.0 mm 0.00 in0.0 mm
11:32 AM 60.4°F15.8°C 49.4°F9.7°C 67% 9.0 mph W14.5 kmh W 10.0 mph16.1 kmh 29.58 in1001.7 mb 0.00 in0.0 mm 0.00 in0.0 mm 0.00 in0.0 mm
11:33 AM 60.4°F15.8°C 49.0°F9.4°C 66% 8.1 mph W13.0 kmh W 10.0 mph16.1 kmh 29.58 in1001.7 mb 0.00 in0.0 mm 0.00 in0.0 mm 0.00 in0.0 mm
11:34 AM 60.4°F15.8°C 49.0°F9.4°C 66% 7.2 mph WSW11.6 kmh WSW 9.0 mph14.5 kmh 29.58 in1001.7 mb 0.00 in0.0 mm 0.00 in0.0 mm 0.00 in0.0 mm
11:35 AM 60.3°F15.7°C 48.9°F9.4°C 66% 7.1 mph WSW11.4 kmh WSW 8.0 mph12.9 kmh 29.58 in1001.7 mb 0.00 in0.0 mm 0.00 in0.0 mm 0.00 in0.0 mm
11:36 AM 60.4°F15.8°C 49.0°F9.4°C 66% 8.4 mph WSW13.5 kmh WSW 10.0 mph16.1 kmh 29.58 in1001.7 mb 0.00 in0.0 mm 0.00 in0.0 mm 0.00 in0.0 mm
11:37 AM 60.3°F15.7°C 48.9°F9.4°C 66% 9.5 mph W15.3 kmh W 11.0 mph17.7 kmh 29.58 in1001.7 mb 0.00 in0.0 mm 0.00 in0.0 mm 0.00 in0.0 mm
11:38 AM 60.2°F15.7°C 49.2°F9.6°C 67% 7.9 mph WSW12.7 kmh WSW 11.0 mph17.7 kmh 29.58 in1001.7 mb 0.00 in0.0 mm 0.00 in0.0 mm 0.00 in0.0 mm
11:39 AM 60.2°F15.7°C 49.2°F9.6°C 67% 7.1 mph WSW11.4 kmh WSW 9.0 mph14.5 kmh 29.58 in1001.7 mb 0.00 in0.0 mm 0.00 in0.0 mm 0.00 in0.0 mm
11:40 AM 60.2°F15.7°C 49.2°F9.6°C 67% 6.0 mph WSW9.7 kmh WSW 8.0 mph12.9 kmh 29.58 in1001.7 mb 0.00 in0.0 mm 0.00 in0.0 mm 0.00 in0.0 mm
11:41 AM 60.3°F15.7°C 49.7°F9.8°C 68% 8.2 mph W13.2 kmh W 9.0 mph14.5 kmh 29.58 in1001.7 mb 0.00 in0.0 mm 0.00 in0.0 mm 0.00 in0.0 mm
11:42 AM 60.4°F15.8°C 49.8°F9.9°C 68% 7.5 mph W12.1 kmh W 9.0 mph14.5 kmh 29.58 in1001.7 mb 0.00 in0.0 mm 0.00 in0.0 mm 0.00 in0.0 mm
11:43 AM 60.4°F15.8°C 49.4°F9.7°C 67% 7.1 mph W11.4 kmh W 10.0 mph16.1 kmh 29.58 in1001.7 mb 0.00 in0.0 mm 0.00 in0.0 mm 0.00 in0.0 mm
11:44 AM 60.5°F15.8°C 49.9°F9.9°C 68% 8.1 mph WSW13.0 kmh WSW 10.0 mph16.1 kmh 29.58 in1001.7 mb 0.00 in0.0 mm 0.00 in0.0 mm 0.00 in0.0 mm
11:45 AM 60.5°F15.8°C 48.7°F9.3°C 65% 7.3 mph WSW11.7 kmh WSW 9.0 mph14.5 kmh 29.58 in1001.7 mb 0.00 in0.0 mm 0.00 in0.0 mm 0.00 in0.0 mm
11:46 AM 60.6°F15.9°C 49.2°F9.6°C 66% 7.9 mph WSW12.7 kmh WSW 9.0 mph14.5 kmh 29.58 in1001.7 mb 0.00 in0.0 mm 0.00 in0.0 mm 0.00 in0.0 mm
11:47 AM 60.5°F15.8°C 49.5°F9.7°C 67% 8.0 mph WSW12.9 kmh WSW 10.0 mph16.1 kmh 29.58 in1001.7 mb 0.00 in0.0 mm 0.00 in0.0 mm 0.00 in0.0 mm
11:48 AM 60.5°F15.8°C 49.1°F9.5°C 66% 9.9 mph W15.9 kmh W 11.0 mph17.7 kmh 29.58 in1001.7 mb 0.00 in0.0 mm 0.00 in0.0 mm 0.00 in0.0 mm
11:49 AM 60.4°F15.8°C 49.4°F9.7°C 67% 9.1 mph W14.6 kmh W 11.0 mph17.7 kmh 29.58 in1001.7 mb 0.00 in0.0 mm 0.00 in0.0 mm 0.00 in0.0 mm
11:50 AM 60.3°F15.7°C 49.3°F9.6°C 67% 7.1 mph WNW11.4 kmh WNW 11.0 mph17.7 kmh 29.58 in1001.7 mb 0.00 in0.0 mm 0.00 in0.0 mm 0.00 in0.0 mm
11:51 AM 60.4°F15.8°C 50.2°F10.1°C 69% 8.5 mph W13.7 kmh W 10.0 mph16.1 kmh 29.58 in1001.7 mb 0.00 in0.0 mm 0.00 in0.0 mm 0.00 in0.0 mm
11:52 AM 60.4°F15.8°C 50.2°F10.1°C 69% 8.5 mph W13.7 kmh W 11.0 mph17.7 kmh 29.58 in1001.7 mb 0.00 in0.0 mm 0.00 in0.0 mm 0.00 in0.0 mm
11:53 AM 60.5°F15.8°C 50.3°F10.2°C 69% 9.6 mph W15.4 kmh W 11.0 mph17.7 kmh 29.58 in1001.7 mb 0.00 in0.0 mm 0.00 in0.0 mm 0.00 in0.0 mm
11:54 AM 60.5°F15.8°C 50.7°F10.4°C 70% 10.0 mph WNW16.1 kmh WNW 12.0 mph19.3 kmh 29.58 in1001.7 mb 0.00 in0.0 mm 0.00 in0.0 mm 0.00 in0.0 mm
11:55 AM 60.6°F15.9°C 51.1°F10.6°C 71% 9.3 mph WNW15.0 kmh WNW 12.0 mph19.3 kmh 29.58 in1001.7 mb 0.00 in0.0 mm 0.00 in0.0 mm 0.00 in0.0 mm
11:56 AM 60.6°F15.9°C 51.1°F10.6°C 71% 8.7 mph W14.0 kmh W 11.0 mph17.7 kmh 29.58 in1001.7 mb 0.00 in0.0 mm 0.00 in0.0 mm 0.00 in0.0 mm
11:57 AM 60.7°F15.9°C 50.9°F10.5°C 70% 7.6 mph W12.2 kmh W 11.0 mph17.7 kmh 29.58 in1001.7 mb 0.00 in0.0 mm 0.00 in0.0 mm 0.00 in0.0 mm
11:58 AM 60.7°F15.9°C 51.2°F10.7°C 71% 8.5 mph WNW13.7 kmh WNW 10.0 mph16.1 kmh 29.59 in1002.0 mb 0.00 in0.0 mm 0.00 in0.0 mm 0.00 in0.0 mm
11:59 AM 60.7°F15.9°C 50.9°F10.5°C 70% 9.0 mph WNW14.5 kmh WNW 11.0 mph17.7 kmh 29.58 in1001.7 mb 0.00 in0.0 mm 0.00 in0.0 mm 0.00 in0.0 mm
12:00 PM 60.7°F15.9°C 50.9°F10.5°C 70% 9.9 mph WNW15.9 kmh WNW 12.0 mph19.3 kmh 29.58 in1001.7 mb 0.00 in0.0 mm 0.00 in0.0 mm 0.00 in0.0 mm
12:01 PM 60.5°F15.8°C 49.9°F9.9°C 68% 10.4 mph WNW16.7 kmh WNW 12.0 mph19.3 kmh 29.58 in1001.7 mb 0.00 in0.0 mm 0.00 in0.0 mm 0.00 in0.0 mm
12:02 PM 60.4°F15.8°C 49.4°F9.7°C 67% 9.0 mph WNW14.5 kmh WNW 12.0 mph19.3 kmh 29.58 in1001.7 mb 0.00 in0.0 mm 0.00 in0.0 mm 0.00 in0.0 mm
12:03 PM 60.5°F15.8°C 50.3°F10.2°C 69% 9.3 mph W15.0 kmh W 11.0 mph17.7 kmh 29.59 in1002.0 mb 0.00 in0.0 mm 0.00 in0.0 mm 0.00 in0.0 mm
12:04 PM 60.4°F15.8°C 50.2°F10.1°C 69% 7.9 mph WSW12.7 kmh WSW 11.0 mph17.7 kmh 29.58 in1001.7 mb 0.00 in0.0 mm 0.00 in0.0 mm 0.00 in0.0 mm
12:05 PM 60.4°F15.8°C 49.4°F9.7°C 67% 8.5 mph W13.7 kmh W 10.0 mph16.1 kmh 29.58 in1001.7 mb 0.00 in0.0 mm 0.00 in0.0 mm 0.00 in0.0 mm
12:06 PM 60.2°F15.7°C 50.0°F10.0°C 69% 9.6 mph WSW15.4 kmh WSW 11.0 mph17.7 kmh 29.59 in1002.0 mb 0.00 in0.0 mm 0.00 in0.0 mm 0.00 in0.0 mm
12:07 PM 60.2°F15.7°C 49.6°F9.8°C 68% 9.2 mph W14.8 kmh W 11.0 mph17.7 kmh 29.58 in1001.7 mb 0.00 in0.0 mm 0.00 in0.0 mm 0.00 in0.0 mm
12:08 PM 60.1°F15.6°C 50.3°F10.2°C 70% 8.3 mph W13.4 kmh W 11.0 mph17.7 kmh 29.59 in1002.0 mb 0.00 in0.0 mm 0.00 in0.0 mm 0.00 in0.0 mm
12:09 PM 60.1°F15.6°C 50.7°F10.4°C 71% 9.1 mph W14.6 kmh W 11.0 mph17.7 kmh 29.58 in1001.7 mb 0.00 in0.0 mm 0.00 in0.0 mm 0.00 in0.0 mm
12:10 PM 60.0°F15.6°C 50.6°F10.3°C 71% 8.4 mph W13.5 kmh W 11.0 mph17.7 kmh 29.59 in1002.0 mb 0.00 in0.0 mm 0.00 in0.0 mm 0.00 in0.0 mm
12:11 PM 60.1°F15.6°C 51.0°F10.6°C 72% 7.1 mph W11.4 kmh W 10.0 mph16.1 kmh 29.59 in1002.0 mb 0.00 in0.0 mm 0.00 in0.0 mm 0.00 in0.0 mm
12:12 PM 60.0°F15.6°C 50.2°F10.1°C 70% 8.1 mph W13.0 kmh W 10.0 mph16.1 kmh 29.59 in1002.0 mb 0.00 in0.0 mm 0.00 in0.0 mm 0.00 in0.0 mm
12:13 PM 60.0°F15.6°C 50.6°F10.3°C 71% 7.5 mph W12.1 kmh W 10.0 mph16.1 kmh 29.59 in1002.0 mb 0.00 in0.0 mm 0.00 in0.0 mm 0.00 in0.0 mm
12:14 PM 59.9°F15.5°C 50.5°F10.3°C 71% 10.0 mph W16.1 kmh W 11.0 mph17.7 kmh 29.59 in1002.0 mb 0.00 in0.0 mm 0.00 in0.0 mm 0.00 in0.0 mm
12:15 PM 59.9°F15.5°C 50.5°F10.3°C 71% 8.5 mph W13.7 kmh W 11.0 mph17.7 kmh 29.59 in1002.0 mb 0.00 in0.0 mm 0.00 in0.0 mm 0.00 in0.0 mm
12:16 PM 59.8°F15.4°C 50.8°F10.4°C 72% 9.1 mph W14.6 kmh W 11.0 mph17.7 kmh 29.59 in1002.0 mb 0.00 in0.0 mm 0.00 in0.0 mm 0.00 in0.0 mm
12:17 PM 59.7°F15.4°C 50.3°F10.2°C 71% 8.9 mph W14.3 kmh W 11.0 mph17.7 kmh 29.59 in1002.0 mb 0.00 in0.0 mm 0.00 in0.0 mm 0.00 in0.0 mm
12:18 PM 59.7°F15.4°C 50.7°F10.4°C 72% 8.6 mph W13.8 kmh W 10.0 mph16.1 kmh 29.59 in1002.0 mb 0.00 in0.0 mm 0.00 in0.0 mm 0.00 in0.0 mm
12:19 PM 59.7°F15.4°C 51.0°F10.6°C 73% 6.8 mph W10.9 kmh W 10.0 mph16.1 kmh 29.59 in1002.0 mb 0.00 in0.0 mm 0.00 in0.0 mm 0.00 in0.0 mm
12:20 PM 59.7°F15.4°C 51.0°F10.6°C 73% 6.6 mph W10.6 kmh W 9.0 mph14.5 kmh 29.59 in1002.0 mb 0.00 in0.0 mm 0.00 in0.0 mm 0.00 in0.0 mm
12:21 PM 59.7°F15.4°C 51.0°F10.6°C 73% 7.8 mph W12.6 kmh W 9.0 mph14.5 kmh 29.59 in1002.0 mb 0.00 in0.0 mm 0.00 in0.0 mm 0.00 in0.0 mm
12:22 PM 59.8°F15.4°C 51.1°F10.6°C 73% 7.6 mph W12.2 kmh W 9.0 mph14.5 kmh 29.59 in1002.0 mb 0.00 in0.0 mm 0.00 in0.0 mm 0.00 in0.0 mm
12:23 PM 59.8°F15.4°C 50.8°F10.4°C 72% 5.9 mph W9.5 kmh W 9.0 mph14.5 kmh 29.59 in1002.0 mb 0.00 in0.0 mm 0.00 in0.0 mm 0.00 in0.0 mm
12:24 PM 59.9°F15.5°C 50.5°F10.3°C 71% 7.6 mph W12.2 kmh W 10.0 mph16.1 kmh 29.59 in1002.0 mb 0.00 in0.0 mm 0.00 in0.0 mm 0.00 in0.0 mm
12:25 PM 60.0°F15.6°C 50.6°F10.3°C 71% 6.4 mph W10.3 kmh W 10.0 mph16.1 kmh 29.59 in1002.0 mb 0.00 in0.0 mm 0.00 in0.0 mm 0.00 in0.0 mm
12:26 PM 60.0°F15.6°C 50.9°F10.5°C 72% 6.7 mph W10.8 kmh W 8.0 mph12.9 kmh 29.59 in1002.0 mb 0.00 in0.0 mm 0.00 in0.0 mm 0.00 in0.0 mm
12:27 PM 60.2°F15.7°C 51.1°F10.6°C 72% 7.0 mph WSW11.3 kmh WSW 8.0 mph12.9 kmh 29.59 in1002.0 mb 0.00 in0.0 mm 0.00 in0.0 mm 0.00 in0.0 mm
12:28 PM 60.3°F15.7°C 50.5°F10.3°C 70% 6.4 mph WSW10.3 kmh WSW 9.0 mph14.5 kmh 29.59 in1002.0 mb 0.00 in0.0 mm 0.00 in0.0 mm 0.00 in0.0 mm
12:29 PM 60.4°F15.8°C 51.0°F10.6°C 71% 7.0 mph WSW11.3 kmh WSW 9.0 mph14.5 kmh 29.59 in1002.0 mb 0.00 in0.0 mm 0.00 in0.0 mm 0.00 in0.0 mm
12:30 PM 60.5°F15.8°C 51.0°F10.6°C 71% 6.3 mph WSW10.1 kmh WSW 8.0 mph12.9 kmh 29.59 in1002.0 mb 0.00 in0.0 mm 0.00 in0.0 mm 0.00 in0.0 mm
12:31 PM 60.6°F15.9°C 50.8°F10.4°C 70% 7.7 mph WSW12.4 kmh WSW 9.0 mph14.5 kmh 29.59 in1002.0 mb 0.00 in0.0 mm 0.00 in0.0 mm 0.00 in0.0 mm
12:32 PM 60.7°F15.9°C 50.9°F10.5°C 70% 8.9 mph WSW14.3 kmh WSW 11.0 mph17.7 kmh 29.59 in1002.0 mb 0.00 in0.0 mm 0.00 in0.0 mm 0.00 in0.0 mm
12:33 PM 60.8°F16.0°C 51.0°F10.6°C 70% 11.1 mph WSW17.9 kmh WSW 14.0 mph22.5 kmh 29.59 in1002.0 mb 0.00 in0.0 mm 0.00 in0.0 mm 0.00 in0.0 mm
12:34 PM 60.9°F16.1°C 51.4°F10.8°C 71% 11.0 mph WSW17.7 kmh WSW 14.0 mph22.5 kmh 29.59 in1002.0 mb 0.00 in0.0 mm 0.00 in0.0 mm 0.00 in0.0 mm
12:35 PM 61.0°F16.1°C 51.5°F10.8°C 71% 11.8 mph WSW19.0 kmh WSW 14.0 mph22.5 kmh 29.59 in1002.0 mb 0.00 in0.0 mm 0.00 in0.0 mm 0.00 in0.0 mm
12:36 PM 61.1°F16.2°C 51.2°F10.7°C 70% 11.0 mph WSW17.7 kmh WSW 13.0 mph20.9 kmh 29.59 in1002.0 mb 0.00 in0.0 mm 0.00 in0.0 mm 0.00 in0.0 mm
12:37 PM 61.2°F16.2°C 51.3°F10.7°C 70% 11.5 mph WSW18.5 kmh WSW 15.0 mph24.1 kmh 29.59 in1002.0 mb 0.00 in0.0 mm 0.00 in0.0 mm 0.00 in0.0 mm
12:38 PM 61.3°F16.3°C 51.0°F10.6°C 69% 13.0 mph WSW20.9 kmh WSW 15.0 mph24.1 kmh 29.59 in1002.0 mb 0.00 in0.0 mm 0.00 in0.0 mm 0.00 in0.0 mm
12:39 PM 61.3°F16.3°C 51.0°F10.6°C 69% 11.9 mph WSW19.2 kmh WSW 14.0 mph22.5 kmh 29.59 in1002.0 mb 0.00 in0.0 mm 0.00 in0.0 mm 0.00 in0.0 mm
12:40 PM 61.4°F16.3°C 51.5°F10.8°C 70% 9.7 mph WSW15.6 kmh WSW 13.0 mph20.9 kmh 29.59 in1002.0 mb 0.00 in0.0 mm 0.00 in0.0 mm 0.00 in0.0 mm
12:41 PM 61.4°F16.3°C 51.5°F10.8°C 70% 9.4 mph WSW15.1 kmh WSW 12.0 mph19.3 kmh 29.59 in1002.0 mb 0.00 in0.0 mm 0.00 in0.0 mm 0.00 in0.0 mm
12:42 PM 61.5°F16.4°C 51.2°F10.7°C 69% 9.8 mph WSW15.8 kmh WSW 12.0 mph19.3 kmh 29.59 in1002.0 mb 0.00 in0.0 mm 0.00 in0.0 mm 0.00 in0.0 mm
12:43 PM 61.5°F16.4°C 51.6°F10.9°C 70% 9.0 mph SW14.5 kmh SW 11.0 mph17.7 kmh 29.59 in1002.0 mb 0.00 in0.0 mm 0.00 in0.0 mm 0.00 in0.0 mm
12:44 PM 61.5°F16.4°C 50.8°F10.4°C 68% 10.6 mph SW17.1 kmh SW 12.0 mph19.3 kmh 29.59 in1002.0 mb 0.00 in0.0 mm 0.00 in0.0 mm 0.00 in0.0 mm
12:45 PM 61.4°F16.3°C 50.7°F10.4°C 68% 10.4 mph SW16.7 kmh SW 12.0 mph19.3 kmh 29.59 in1002.0 mb 0.00 in0.0 mm 0.00 in0.0 mm 0.00 in0.0 mm
12:46 PM 61.4°F16.3°C 51.1°F10.6°C 69% 9.7 mph SW15.6 kmh SW 12.0 mph19.3 kmh 29.59 in1002.0 mb 0.00 in0.0 mm 0.00 in0.0 mm 0.00 in0.0 mm
12:47 PM 61.4°F16.3°C 49.9°F9.9°C 66% 9.5 mph SW15.3 kmh SW 12.0 mph19.3 kmh 29.59 in1002.0 mb 0.00 in0.0 mm 0.00 in0.0 mm 0.00 in0.0 mm
12:48 PM 61.5°F16.4°C 49.6°F9.8°C 65% 9.3 mph SW15.0 kmh SW 11.0 mph17.7 kmh 29.59 in1002.0 mb 0.00 in0.0 mm 0.00 in0.0 mm 0.00 in0.0 mm
12:49 PM 61.4°F16.3°C 49.9°F9.9°C 66% 7.7 mph SW12.4 kmh SW 10.0 mph16.1 kmh 29.59 in1002.0 mb 0.00 in0.0 mm 0.00 in0.0 mm 0.00 in0.0 mm
12:50 PM 61.5°F16.4°C 50.0°F10.0°C 66% 8.5 mph SW13.7 kmh SW 11.0 mph17.7 kmh 29.59 in1002.0 mb 0.00 in0.0 mm 0.00 in0.0 mm 0.00 in0.0 mm
12:51 PM 61.4°F16.3°C 49.9°F9.9°C 66% 9.6 mph SW15.4 kmh SW 11.0 mph17.7 kmh 29.59 in1002.0 mb 0.00 in0.0 mm 0.00 in0.0 mm 0.00 in0.0 mm
12:52 PM 61.4°F16.3°C 49.9°F9.9°C 66% 9.8 mph SW15.8 kmh SW 11.0 mph17.7 kmh 29.59 in1002.0 mb 0.00 in0.0 mm 0.00 in0.0 mm 0.00 in0.0 mm
12:53 PM 61.5°F16.4°C 50.0°F10.0°C 66% 6.8 mph SW10.9 kmh SW 11.0 mph17.7 kmh 29.58 in1001.7 mb 0.00 in0.0 mm 0.00 in0.0 mm 0.00 in0.0 mm
12:54 PM 61.5°F16.4°C 50.4°F10.2°C 67% 6.6 mph WSW10.6 kmh WSW 9.0 mph14.5 kmh 29.58 in1001.7 mb 0.00 in0.0 mm 0.00 in0.0 mm 0.00 in0.0 mm
12:55 PM 61.6°F16.4°C 50.9°F10.5°C 68% 7.7 mph SW12.4 kmh SW 10.0 mph16.1 kmh 29.58 in1001.7 mb 0.00 in0.0 mm 0.00 in0.0 mm 0.00 in0.0 mm
12:56 PM 61.7°F16.5°C 50.6°F10.3°C 67% 9.2 mph SW14.8 kmh SW 12.0 mph19.3 kmh 29.58 in1001.7 mb 0.00 in0.0 mm 0.00 in0.0 mm 0.00 in0.0 mm
12:57 PM 61.8°F16.6°C 50.3°F10.2°C 66% 9.7 mph SW15.6 kmh SW 12.0 mph19.3 kmh 29.58 in1001.7 mb 0.00 in0.0 mm 0.00 in0.0 mm 0.00 in0.0 mm
12:58 PM 61.8°F16.6°C 50.3°F10.2°C 66% 8.6 mph SW13.8 kmh SW 11.0 mph17.7 kmh 29.58 in1001.7 mb 0.00 in0.0 mm 0.00 in0.0 mm 0.00 in0.0 mm
12:59 PM 61.8°F16.6°C 49.9°F9.9°C 65% 10.1 mph WSW16.3 kmh WSW 13.0 mph20.9 kmh 29.58 in1001.7 mb 0.00 in0.0 mm 0.00 in0.0 mm 0.00 in0.0 mm
01:00 PM 62.0°F16.7°C 50.5°F10.3°C 66% 9.8 mph WSW15.8 kmh WSW 13.0 mph20.9 kmh 29.58 in1001.7 mb 0.00 in0.0 mm 0.00 in0.0 mm 0.00 in0.0 mm
01:01 PM 62.0°F16.7°C 50.9°F10.5°C 67% 8.2 mph WSW13.2 kmh WSW 13.0 mph20.9 kmh 29.58 in1001.7 mb 0.00 in0.0 mm 0.00 in0.0 mm 0.00 in0.0 mm
01:02 PM 62.1°F16.7°C 51.0°F10.6°C 67% 9.5 mph WSW15.3 kmh WSW 14.0 mph22.5 kmh 29.58 in1001.7 mb 0.00 in0.0 mm 0.00 in0.0 mm 0.00 in0.0 mm
01:03 PM 62.1°F16.7°C 51.0°F10.6°C 67% 12.8 mph WSW20.6 kmh WSW 14.0 mph22.5 kmh 29.58 in1001.7 mb 0.00 in0.0 mm 0.00 in0.0 mm 0.00 in0.0 mm
01:04 PM 62.1°F16.7°C 50.6°F10.3°C 66% 11.5 mph WSW18.5 kmh WSW 14.0 mph22.5 kmh 29.58 in1001.7 mb 0.00 in0.0 mm 0.00 in0.0 mm 0.00 in0.0 mm
01:05 PM 62.1°F16.7°C 50.2°F10.1°C 65% 11.4 mph WSW18.3 kmh WSW 14.0 mph22.5 kmh 29.58 in1001.7 mb 0.00 in0.0 mm 0.00 in0.0 mm 0.00 in0.0 mm
01:06 PM 62.1°F16.7°C 50.2°F10.1°C 65% 12.4 mph WSW20.0 kmh WSW 14.0 mph22.5 kmh 29.58 in1001.7 mb 0.00 in0.0 mm 0.00 in0.0 mm 0.00 in0.0 mm
01:07 PM 62.1°F16.7°C 50.2°F10.1°C 65% 11.8 mph WSW19.0 kmh WSW 14.0 mph22.5 kmh 29.58 in1001.7 mb 0.00 in0.0 mm 0.00 in0.0 mm 0.00 in0.0 mm
01:08 PM 62.1°F16.7°C 50.6°F10.3°C 66% 10.7 mph WSW17.2 kmh WSW 13.0 mph20.9 kmh 29.58 in1001.7 mb 0.00 in0.0 mm 0.00 in0.0 mm 0.00 in0.0 mm
01:09 PM 62.1°F16.7°C 51.0°F10.6°C 67% 9.0 mph WSW14.5 kmh WSW 12.0 mph19.3 kmh 29.58 in1001.7 mb 0.00 in0.0 mm 0.00 in0.0 mm 0.00 in0.0 mm
01:10 PM 62.2°F16.8°C 51.1°F10.6°C 67% 13.3 mph WSW21.4 kmh WSW 16.0 mph25.7 kmh 29.58 in1001.7 mb 0.00 in0.0 mm 0.00 in0.0 mm 0.00 in0.0 mm
01:11 PM 62.2°F16.8°C 51.1°F10.6°C 67% 10.7 mph WSW17.2 kmh WSW 16.0 mph25.7 kmh 29.58 in1001.7 mb 0.00 in0.0 mm 0.00 in0.0 mm 0.00 in0.0 mm
01:12 PM 62.0°F16.7°C 51.3°F10.7°C 68% 9.8 mph WSW15.8 kmh WSW 14.0 mph22.5 kmh 29.59 in1002.0 mb 0.00 in0.0 mm 0.00 in0.0 mm 0.00 in0.0 mm
01:13 PM 61.9°F16.6°C 50.0°F10.0°C 65% 10.1 mph WSW16.3 kmh WSW 14.0 mph22.5 kmh 29.58 in1001.7 mb 0.00 in0.0 mm 0.00 in0.0 mm 0.00 in0.0 mm
01:14 PM 62.0°F16.7°C 50.9°F10.5°C 67% 11.2 mph WSW18.0 kmh WSW 13.0 mph20.9 kmh 29.58 in1001.7 mb 0.00 in0.0 mm 0.00 in0.0 mm 0.00 in0.0 mm
01:15 PM 62.0°F16.7°C 50.5°F10.3°C 66% 10.5 mph WSW16.9 kmh WSW 14.0 mph22.5 kmh 29.58 in1001.7 mb 0.00 in0.0 mm 0.00 in0.0 mm 0.00 in0.0 mm
01:16 PM 61.9°F16.6°C 50.8°F10.4°C 67% 10.5 mph WSW16.9 kmh WSW 14.0 mph22.5 kmh 29.58 in1001.7 mb 0.00 in0.0 mm 0.00 in0.0 mm 0.00 in0.0 mm
01:17 PM 61.8°F16.6°C 49.5°F9.7°C 64% 10.9 mph WSW17.5 kmh WSW 13.0 mph20.9 kmh 29.58 in1001.7 mb 0.00 in0.0 mm 0.00 in0.0 mm 0.00 in0.0 mm
01:18 PM 61.8°F16.6°C 49.5°F9.7°C 64% 10.7 mph WSW17.2 kmh WSW 13.0 mph20.9 kmh 29.58 in1001.7 mb 0.00 in0.0 mm 0.00 in0.0 mm 0.00 in0.0 mm
01:19 PM 61.7°F16.5°C 49.8°F9.9°C 65% 10.6 mph W17.1 kmh W 12.0 mph19.3 kmh 29.59 in1002.0 mb 0.00 in0.0 mm 0.00 in0.0 mm 0.00 in0.0 mm
01:20 PM 61.6°F16.4°C 49.7°F9.8°C 65% 10.0 mph W16.1 kmh W 12.0 mph19.3 kmh 29.58 in1001.7 mb 0.00 in0.0 mm 0.00 in0.0 mm 0.00 in0.0 mm
01:21 PM 61.5°F16.4°C 49.6°F9.8°C 65% 9.7 mph W15.6 kmh W 11.0 mph17.7 kmh 29.59 in1002.0 mb 0.00 in0.0 mm 0.00 in0.0 mm 0.00 in0.0 mm
01:22 PM 61.5°F16.4°C 50.4°F10.2°C 67% 9.5 mph W15.3 kmh W 11.0 mph17.7 kmh 29.59 in1002.0 mb 0.00 in0.0 mm 0.00 in0.0 mm 0.00 in0.0 mm
01:23 PM 61.4°F16.3°C 49.9°F9.9°C 66% 10.5 mph W16.9 kmh W 12.0 mph19.3 kmh 29.59 in1002.0 mb 0.00 in0.0 mm 0.00 in0.0 mm 0.00 in0.0 mm
01:24 PM 61.4°F16.3°C 50.3°F10.2°C 67% 10.3 mph W16.6 kmh W 12.0 mph19.3 kmh 29.59 in1002.0 mb 0.00 in0.0 mm 0.00 in0.0 mm 0.00 in0.0 mm
01:25 PM 61.3°F16.3°C 49.8°F9.9°C 66% 11.1 mph WSW17.9 kmh WSW 14.0 mph22.5 kmh 29.59 in1002.0 mb 0.00 in0.0 mm 0.00 in0.0 mm 0.00 in0.0 mm
01:26 PM 61.4°F16.3°C 49.5°F9.7°C 65% 8.9 mph WSW14.3 kmh WSW 14.0 mph22.5 kmh 29.59 in1002.0 mb 0.00 in0.0 mm 0.00 in0.0 mm 0.00 in0.0 mm
01:27 PM 61.5°F16.4°C 50.0°F10.0°C 66% 8.8 mph WSW14.2 kmh WSW 10.0 mph16.1 kmh 29.59 in1002.0 mb 0.00 in0.0 mm 0.00 in0.0 mm 0.00 in0.0 mm
01:28 PM 61.4°F16.3°C 50.3°F10.2°C 67% 9.3 mph WSW15.0 kmh WSW 11.0 mph17.7 kmh 29.59 in1002.0 mb 0.00 in0.0 mm 0.00 in0.0 mm 0.00 in0.0 mm
01:29 PM 61.5°F16.4°C 49.6°F9.8°C 65% 8.5 mph WSW13.7 kmh WSW 11.0 mph17.7 kmh 29.59 in1002.0 mb 0.00 in0.0 mm 0.00 in0.0 mm 0.00 in0.0 mm
01:30 PM 61.6°F16.4°C 50.9°F10.5°C 68% 8.7 mph WSW14.0 kmh WSW 11.0 mph17.7 kmh 29.59 in1002.0 mb 0.00 in0.0 mm 0.00 in0.0 mm 0.00 in0.0 mm
01:31 PM 61.7°F16.5°C 50.6°F10.3°C 67% 8.9 mph WSW14.3 kmh WSW 11.0 mph17.7 kmh 29.59 in1002.0 mb 0.00 in0.0 mm 0.00 in0.0 mm 0.00 in0.0 mm
01:32 PM 61.8°F16.6°C 50.7°F10.4°C 67% 9.9 mph WSW15.9 kmh WSW 11.0 mph17.7 kmh 29.59 in1002.0 mb 0.00 in0.0 mm 0.00 in0.0 mm 0.00 in0.0 mm
01:33 PM 61.9°F16.6°C 51.2°F10.7°C 68% 9.5 mph WSW15.3 kmh WSW 11.0 mph17.7 kmh 29.59 in1002.0 mb 0.00 in0.0 mm 0.00 in0.0 mm 0.00 in0.0 mm
01:34 PM 62.0°F16.7°C 50.9°F10.5°C 67% 8.8 mph WSW14.2 kmh WSW 11.0 mph17.7 kmh 29.58 in1001.7 mb 0.00 in0.0 mm 0.00 in0.0 mm 0.00 in0.0 mm
01:35 PM 62.0°F16.7°C 50.5°F10.3°C 66% 9.5 mph WSW15.3 kmh WSW 11.0 mph17.7 kmh 29.58 in1001.7 mb 0.00 in0.0 mm 0.00 in0.0 mm 0.00 in0.0 mm
01:36 PM 62.1°F16.7°C 51.0°F10.6°C 67% 10.4 mph WSW16.7 kmh WSW 13.0 mph20.9 kmh 29.58 in1001.7 mb 0.00 in0.0 mm 0.00 in0.0 mm 0.00 in0.0 mm
01:37 PM 62.1°F16.7°C 50.2°F10.1°C 65% 11.5 mph WSW18.5 kmh WSW 14.0 mph22.5 kmh 29.58 in1001.7 mb 0.00 in0.0 mm 0.00 in0.0 mm 0.00 in0.0 mm
01:38 PM 62.0°F16.7°C 48.8°F9.3°C 62% 12.0 mph WSW19.3 kmh WSW 14.0 mph22.5 kmh 29.58 in1001.7 mb 0.00 in0.0 mm 0.00 in0.0 mm 0.00 in0.0 mm
01:39 PM 62.0°F16.7°C 49.3°F9.6°C 63% 11.5 mph WSW18.5 kmh WSW 13.0 mph20.9 kmh 29.59 in1002.0 mb 0.00 in0.0 mm 0.00 in0.0 mm 0.00 in0.0 mm
01:40 PM 62.1°F16.7°C 50.6°F10.3°C 66% 11.1 mph WSW17.9 kmh WSW 13.0 mph20.9 kmh 29.58 in1001.7 mb 0.00 in0.0 mm 0.00 in0.0 mm 0.00 in0.0 mm
01:41 PM 62.1°F16.7°C 50.2°F10.1°C 65% 10.4 mph WSW16.7 kmh WSW 13.0 mph20.9 kmh 29.59 in1002.0 mb 0.00 in0.0 mm 0.00 in0.0 mm 0.00 in0.0 mm
01:42 PM 62.1°F16.7°C 50.6°F10.3°C 66% 9.4 mph WSW15.1 kmh WSW 13.0 mph20.9 kmh 29.58 in1001.7 mb 0.00 in0.0 mm 0.00 in0.0 mm 0.00 in0.0 mm
01:43 PM 62.2°F16.8°C 50.3°F10.2°C 65% 10.3 mph WSW16.6 kmh WSW 12.0 mph19.3 kmh 29.58 in1001.7 mb 0.00 in0.0 mm 0.00 in0.0 mm 0.00 in0.0 mm
01:44 PM 62.3°F16.8°C 50.8°F10.4°C 66% 11.5 mph WSW18.5 kmh WSW 14.0 mph22.5 kmh 29.58 in1001.7 mb 0.00 in0.0 mm 0.00 in0.0 mm 0.00 in0.0 mm
01:45 PM 62.2°F16.8°C 50.3°F10.2°C 65% 11.8 mph SW19.0 kmh SW 14.0 mph22.5 kmh 29.58 in1001.7 mb 0.00 in0.0 mm 0.00 in0.0 mm 0.00 in0.0 mm
01:46 PM 62.2°F16.8°C 50.3°F10.2°C 65% 12.5 mph SW20.1 kmh SW 14.0 mph22.5 kmh 29.58 in1001.7 mb 0.00 in0.0 mm 0.00 in0.0 mm 0.00 in0.0 mm
01:47 PM 62.3°F16.8°C 50.4°F10.2°C 65% 12.7 mph WSW20.4 kmh WSW 14.0 mph22.5 kmh 29.58 in1001.7 mb 0.00 in0.0 mm 0.00 in0.0 mm 0.00 in0.0 mm
01:48 PM 62.3°F16.8°C 50.0°F10.0°C 64% 11.8 mph WSW19.0 kmh WSW 14.0 mph22.5 kmh 29.58 in1001.7 mb 0.00 in0.0 mm 0.00 in0.0 mm 0.00 in0.0 mm
01:49 PM 62.3°F16.8°C 50.4°F10.2°C 65% 9.8 mph SW15.8 kmh SW 13.0 mph20.9 kmh 29.58 in1001.7 mb 0.00 in0.0 mm 0.00 in0.0 mm 0.00 in0.0 mm
01:50 PM 62.4°F16.9°C 50.5°F10.3°C 65% 11.5 mph SW18.5 kmh SW 14.0 mph22.5 kmh 29.58 in1001.7 mb 0.00 in0.0 mm 0.00 in0.0 mm 0.00 in0.0 mm
01:51 PM 62.4°F16.9°C 50.1°F10.1°C 64% 12.0 mph WSW19.3 kmh WSW 14.0 mph22.5 kmh 29.58 in1001.7 mb 0.00 in0.0 mm 0.00 in0.0 mm 0.00 in0.0 mm
01:52 PM 62.5°F16.9°C 51.0°F10.6°C 66% 8.9 mph WSW14.3 kmh WSW 13.0 mph20.9 kmh 29.58 in1001.7 mb 0.00 in0.0 mm 0.00 in0.0 mm 0.00 in0.0 mm
01:53 PM 62.6°F17.0°C 50.2°F10.1°C 64% 9.2 mph WSW14.8 kmh WSW 11.0 mph17.7 kmh 29.58 in1001.7 mb 0.00 in0.0 mm 0.00 in0.0 mm 0.00 in0.0 mm
01:54 PM 62.6°F17.0°C 50.7°F10.4°C 65% 10.6 mph WSW17.1 kmh WSW 13.0 mph20.9 kmh 29.58 in1001.7 mb 0.00 in0.0 mm 0.00 in0.0 mm 0.00 in0.0 mm
01:55 PM 62.6°F17.0°C 50.7°F10.4°C 65% 10.9 mph WSW17.5 kmh WSW 13.0 mph20.9 kmh 29.58 in1001.7 mb 0.00 in0.0 mm 0.00 in0.0 mm 0.00 in0.0 mm
01:56 PM 62.6°F17.0°C 50.7°F10.4°C 65% 9.8 mph WSW15.8 kmh WSW 13.0 mph20.9 kmh 29.58 in1001.7 mb 0.00 in0.0 mm 0.00 in0.0 mm 0.00 in0.0 mm
01:57 PM 62.4°F16.9°C 50.5°F10.3°C 65% 11.5 mph WSW18.5 kmh WSW 13.0 mph20.9 kmh 29.58 in1001.7 mb 0.00 in0.0 mm 0.00 in0.0 mm 0.00 in0.0 mm
01:58 PM 62.4°F16.9°C 49.6°F9.8°C 63% 10.0 mph W16.1 kmh W 11.0 mph17.7 kmh 29.58 in1001.7 mb 0.00 in0.0 mm 0.00 in0.0 mm 0.00 in0.0 mm
01:59 PM 62.2°F16.8°C 49.9°F9.9°C 64% 9.0 mph WSW14.5 kmh WSW 10.0 mph16.1 kmh 29.58 in1001.7 mb 0.00 in0.0 mm 0.00 in0.0 mm 0.00 in0.0 mm
02:00 PM 62.2°F16.8°C 50.7°F10.4°C 66% 8.0 mph WSW12.9 kmh WSW 10.0 mph16.1 kmh 29.58 in1001.7 mb 0.00 in0.0 mm 0.00 in0.0 mm 0.00 in0.0 mm
02:01 PM 62.2°F16.8°C 51.1°F10.6°C 67% 9.8 mph WSW15.8 kmh WSW 12.0 mph19.3 kmh 29.58 in1001.7 mb 0.00 in0.0 mm 0.00 in0.0 mm 0.00 in0.0 mm
02:02 PM 62.2°F16.8°C 50.7°F10.4°C 66% 8.4 mph WSW13.5 kmh WSW 12.0 mph19.3 kmh 29.58 in1001.7 mb 0.00 in0.0 mm 0.00 in0.0 mm 0.00 in0.0 mm
02:03 PM 62.1°F16.7°C 50.6°F10.3°C 66% 8.8 mph WSW14.2 kmh WSW 11.0 mph17.7 kmh 29.58 in1001.7 mb 0.00 in0.0 mm 0.00 in0.0 mm 0.00 in0.0 mm
02:04 PM 62.1°F16.7°C 51.0°F10.6°C 67% 8.5 mph WSW13.7 kmh WSW 11.0 mph17.7 kmh 29.58 in1001.7 mb 0.00 in0.0 mm 0.00 in0.0 mm 0.00 in0.0 mm
02:05 PM 62.1°F16.7°C 50.6°F10.3°C 66% 9.7 mph WSW15.6 kmh WSW 12.0 mph19.3 kmh 29.59 in1002.0 mb 0.00 in0.0 mm 0.00 in0.0 mm 0.00 in0.0 mm
02:06 PM 62.0°F16.7°C 48.4°F9.1°C 61% 10.0 mph WSW16.1 kmh WSW 12.0 mph19.3 kmh 29.58 in1001.7 mb 0.00 in0.0 mm 0.00 in0.0 mm 0.00 in0.0 mm
02:07 PM 62.0°F16.7°C 49.3°F9.6°C 63% 10.0 mph WSW16.1 kmh WSW 12.0 mph19.3 kmh 29.58 in1001.7 mb 0.00 in0.0 mm 0.00 in0.0 mm 0.00 in0.0 mm
02:08 PM 62.0°F16.7°C 48.8°F9.3°C 62% 9.3 mph WSW15.0 kmh WSW 11.0 mph17.7 kmh 29.58 in1001.7 mb 0.00 in0.0 mm 0.00 in0.0 mm 0.00 in0.0 mm
02:09 PM 62.0°F16.7°C 48.8°F9.3°C 62% 10.2 mph WSW16.4 kmh WSW 12.0 mph19.3 kmh 29.58 in1001.7 mb 0.00 in0.0 mm 0.00 in0.0 mm 0.00 in0.0 mm
02:10 PM 62.0°F16.7°C 49.3°F9.6°C 63% 10.4 mph WSW16.7 kmh WSW 12.0 mph19.3 kmh 29.58 in1001.7 mb 0.00 in0.0 mm 0.00 in0.0 mm 0.00 in0.0 mm
02:11 PM 62.0°F16.7°C 49.3°F9.6°C 63% 11.1 mph WSW17.9 kmh WSW 13.0 mph20.9 kmh 29.58 in1001.7 mb 0.00 in0.0 mm 0.00 in0.0 mm 0.00 in0.0 mm
02:12 PM 62.1°F16.7°C 49.4°F9.7°C 63% 10.5 mph WSW16.9 kmh WSW 13.0 mph20.9 kmh 29.58 in1001.7 mb 0.00 in0.0 mm 0.00 in0.0 mm 0.00 in0.0 mm
02:13 PM 62.2°F16.8°C 50.3°F10.2°C 65% 9.3 mph WSW15.0 kmh WSW 12.0 mph19.3 kmh 29.58 in1001.7 mb 0.00 in0.0 mm 0.00 in0.0 mm 0.00 in0.0 mm
02:14 PM 62.3°F16.8°C 50.0°F10.0°C 64% 8.3 mph WSW13.4 kmh WSW 11.0 mph17.7 kmh 29.58 in1001.7 mb 0.00 in0.0 mm 0.00 in0.0 mm 0.00 in0.0 mm
02:15 PM 62.4°F16.9°C 50.1°F10.1°C 64% 8.1 mph WSW13.0 kmh WSW 11.0 mph17.7 kmh 29.58 in1001.7 mb 0.00 in0.0 mm 0.00 in0.0 mm 0.00 in0.0 mm
02:16 PM 62.5°F16.9°C 50.2°F10.1°C 64% 8.9 mph WSW14.3 kmh WSW 11.0 mph17.7 kmh 29.58 in1001.7 mb 0.00 in0.0 mm 0.00 in0.0 mm 0.00 in0.0 mm
02:17 PM 62.6°F17.0°C 49.8°F9.9°C 63% 9.9 mph WSW15.9 kmh WSW 12.0 mph19.3 kmh 29.58 in1001.7 mb 0.00 in0.0 mm 0.00 in0.0 mm 0.00 in0.0 mm
02:18 PM 62.7°F17.1°C 49.5°F9.7°C 62% 10.1 mph WSW16.3 kmh WSW 12.0 mph19.3 kmh 29.58 in1001.7 mb 0.00 in0.0 mm 0.00 in0.0 mm 0.00 in0.0 mm
02:19 PM 62.7°F17.1°C 49.9°F9.9°C 63% 9.5 mph WSW15.3 kmh WSW 12.0 mph19.3 kmh 29.58 in1001.7 mb 0.00 in0.0 mm 0.00 in0.0 mm 0.00 in0.0 mm
02:20 PM 62.7°F17.1°C 49.9°F9.9°C 63% 7.2 mph WSW11.6 kmh WSW 11.0 mph17.7 kmh 29.58 in1001.7 mb 0.00 in0.0 mm 0.00 in0.0 mm 0.00 in0.0 mm
02:21 PM 62.6°F17.0°C 49.8°F9.9°C 63% 9.4 mph WSW15.1 kmh WSW 11.0 mph17.7 kmh 29.58 in1001.7 mb 0.00 in0.0 mm 0.00 in0.0 mm 0.00 in0.0 mm
02:22 PM 62.5°F16.9°C 49.7°F9.8°C 63% 8.4 mph WSW13.5 kmh WSW 11.0 mph17.7 kmh 29.58 in1001.7 mb 0.00 in0.0 mm 0.00 in0.0 mm 0.00 in0.0 mm
02:23 PM 62.4°F16.9°C 49.6°F9.8°C 63% 8.8 mph WSW14.2 kmh WSW 11.0 mph17.7 kmh 29.58 in1001.7 mb 0.00 in0.0 mm 0.00 in0.0 mm 0.00 in0.0 mm
02:24 PM 62.4°F16.9°C 50.1°F10.1°C 64% 8.6 mph WSW13.8 kmh WSW 11.0 mph17.7 kmh 29.58 in1001.7 mb 0.00 in0.0 mm 0.00 in0.0 mm 0.00 in0.0 mm
02:25 PM 62.4°F16.9°C 50.1°F10.1°C 64% 8.1 mph WSW13.0 kmh WSW 10.0 mph16.1 kmh 29.58 in1001.7 mb 0.00 in0.0 mm 0.00 in0.0 mm 0.00 in0.0 mm
02:26 PM 62.5°F16.9°C 49.7°F9.8°C 63% 8.0 mph WSW12.9 kmh WSW 9.0 mph14.5 kmh 29.58 in1001.7 mb 0.00 in0.0 mm 0.00 in0.0 mm 0.00 in0.0 mm
02:27 PM 62.4°F16.9°C 49.6°F9.8°C 63% 10.7 mph W17.2 kmh W 13.0 mph20.9 kmh 29.59 in1002.0 mb 0.00 in0.0 mm 0.00 in0.0 mm 0.00 in0.0 mm
02:28 PM 62.3°F16.8°C 49.5°F9.7°C 63% 9.0 mph WSW14.5 kmh WSW 13.0 mph20.9 kmh 29.58 in1001.7 mb 0.00 in0.0 mm 0.00 in0.0 mm 0.00 in0.0 mm
02:29 PM 62.2°F16.8°C 49.9°F9.9°C 64% 6.8 mph WSW10.9 kmh WSW 10.0 mph16.1 kmh 29.58 in1001.7 mb 0.00 in0.0 mm 0.00 in0.0 mm 0.00 in0.0 mm
02:30 PM 62.2°F16.8°C 49.9°F9.9°C 64% 6.6 mph WSW10.6 kmh WSW 9.0 mph14.5 kmh 29.58 in1001.7 mb 0.00 in0.0 mm 0.00 in0.0 mm 0.00 in0.0 mm
02:31 PM 62.4°F16.9°C 50.5°F10.3°C 65% 6.5 mph WSW10.5 kmh WSW 10.0 mph16.1 kmh 29.58 in1001.7 mb 0.00 in0.0 mm 0.00 in0.0 mm 0.00 in0.0 mm
02:32 PM 62.4°F16.9°C 50.5°F10.3°C 65% 8.1 mph WSW13.0 kmh WSW 11.0 mph17.7 kmh 29.58 in1001.7 mb 0.00 in0.0 mm 0.00 in0.0 mm 0.00 in0.0 mm
02:33 PM 62.5°F16.9°C 49.7°F9.8°C 63% 8.1 mph WSW13.0 kmh WSW 11.0 mph17.7 kmh 29.59 in1002.0 mb 0.00 in0.0 mm 0.00 in0.0 mm 0.00 in0.0 mm
02:34 PM 62.5°F16.9°C 50.2°F10.1°C 64% 8.6 mph WSW13.8 kmh WSW 11.0 mph17.7 kmh 29.58 in1001.7 mb 0.00 in0.0 mm 0.00 in0.0 mm 0.00 in0.0 mm
02:35 PM 62.6°F17.0°C 49.0°F9.4°C 61% 9.5 mph WSW15.3 kmh WSW 13.0 mph20.9 kmh 29.58 in1001.7 mb 0.00 in0.0 mm 0.00 in0.0 mm 0.00 in0.0 mm
02:36 PM 62.6°F17.0°C 49.4°F9.7°C 62% 7.8 mph WSW12.6 kmh WSW 13.0 mph20.9 kmh 29.58 in1001.7 mb 0.00 in0.0 mm 0.00 in0.0 mm 0.00 in0.0 mm
02:37 PM 62.7°F17.1°C 49.5°F9.7°C 62% 9.3 mph WSW15.0 kmh WSW 12.0 mph19.3 kmh 29.58 in1001.7 mb 0.00 in0.0 mm 0.00 in0.0 mm 0.00 in0.0 mm
02:38 PM 62.6°F17.0°C 49.4°F9.7°C 62% 10.5 mph WSW16.9 kmh WSW 12.0 mph19.3 kmh 29.58 in1001.7 mb 0.00 in0.0 mm 0.00 in0.0 mm 0.00 in0.0 mm
02:39 PM 62.7°F17.1°C 50.3°F10.2°C 64% 9.7 mph WSW15.6 kmh WSW 12.0 mph19.3 kmh 29.58 in1001.7 mb 0.00 in0.0 mm 0.00 in0.0 mm 0.00 in0.0 mm
02:40 PM 62.6°F17.0°C 51.1°F10.6°C 66% 7.3 mph WSW11.7 kmh WSW 11.0 mph17.7 kmh 29.58 in1001.7 mb 0.00 in0.0 mm 0.00 in0.0 mm 0.00 in0.0 mm
02:41 PM 62.7°F17.1°C 50.3°F10.2°C 64% 7.9 mph WSW12.7 kmh WSW 10.0 mph16.1 kmh 29.58 in1001.7 mb 0.00 in0.0 mm 0.00 in0.0 mm 0.00 in0.0 mm
02:42 PM 62.8°F17.1°C 49.6°F9.8°C 62% 8.4 mph SW13.5 kmh SW 10.0 mph16.1 kmh 29.58 in1001.7 mb 0.00 in0.0 mm 0.00 in0.0 mm 0.00 in0.0 mm
02:43 PM 62.8°F17.1°C 49.6°F9.8°C 62% 7.7 mph SW12.4 kmh SW 10.0 mph16.1 kmh 29.58 in1001.7 mb 0.00 in0.0 mm 0.00 in0.0 mm 0.00 in0.0 mm
02:44 PM 62.9°F17.2°C 49.2°F9.6°C 61% 7.9 mph SW12.7 kmh SW 9.0 mph14.5 kmh 29.58 in1001.7 mb 0.00 in0.0 mm 0.00 in0.0 mm 0.00 in0.0 mm
02:45 PM 63.0°F17.2°C 49.3°F9.6°C 61% 9.1 mph SW14.6 kmh SW 10.0 mph16.1 kmh 29.58 in1001.7 mb 0.00 in0.0 mm 0.00 in0.0 mm 0.00 in0.0 mm
02:46 PM 63.0°F17.2°C 49.8°F9.9°C 62% 9.2 mph SW14.8 kmh SW 13.0 mph20.9 kmh 29.58 in1001.7 mb 0.00 in0.0 mm 0.00 in0.0 mm 0.00 in0.0 mm
02:47 PM 63.1°F17.3°C 50.3°F10.2°C 63% 11.0 mph WSW17.7 kmh WSW 13.0 mph20.9 kmh 29.58 in1001.7 mb 0.00 in0.0 mm 0.00 in0.0 mm 0.00 in0.0 mm
02:48 PM 63.1°F17.3°C 50.7°F10.4°C 64% 10.7 mph WSW17.2 kmh WSW 13.0 mph20.9 kmh 29.58 in1001.7 mb 0.00 in0.0 mm 0.00 in0.0 mm 0.00 in0.0 mm
02:49 PM 63.2°F17.3°C 50.4°F10.2°C 63% 9.9 mph SW15.9 kmh SW 13.0 mph20.9 kmh 29.58 in1001.7 mb 0.00 in0.0 mm 0.00 in0.0 mm 0.00 in0.0 mm
02:50 PM 63.2°F17.3°C 50.0°F10.0°C 62% 9.5 mph WSW15.3 kmh WSW 12.0 mph19.3 kmh 29.58 in1001.7 mb 0.00 in0.0 mm 0.00 in0.0 mm 0.00 in0.0 mm
02:51 PM 63.2°F17.3°C 50.0°F10.0°C 62% 10.0 mph WSW16.1 kmh WSW 11.0 mph17.7 kmh 29.58 in1001.7 mb 0.00 in0.0 mm 0.00 in0.0 mm 0.00 in0.0 mm
02:52 PM 63.2°F17.3°C 50.8°F10.4°C 64% 9.9 mph WSW15.9 kmh WSW 12.0 mph19.3 kmh 29.58 in1001.7 mb 0.00 in0.0 mm 0.00 in0.0 mm 0.00 in0.0 mm
02:53 PM 63.2°F17.3°C 50.8°F10.4°C 64% 9.7 mph WSW15.6 kmh WSW 12.0 mph19.3 kmh 29.58 in1001.7 mb 0.00 in0.0 mm 0.00 in0.0 mm 0.00 in0.0 mm
02:54 PM 63.1°F17.3°C 50.3°F10.2°C 63% 8.7 mph WSW14.0 kmh WSW 11.0 mph17.7 kmh 29.58 in1001.7 mb 0.00 in0.0 mm 0.00 in0.0 mm 0.00 in0.0 mm
02:55 PM 63.1°F17.3°C 50.7°F10.4°C 64% 7.3 mph WSW11.7 kmh WSW 11.0 mph17.7 kmh 29.58 in1001.7 mb 0.00 in0.0 mm 0.00 in0.0 mm 0.00 in0.0 mm
02:56 PM 63.2°F17.3°C 50.0°F10.0°C 62% 8.2 mph WSW13.2 kmh WSW 11.0 mph17.7 kmh 29.58 in1001.7 mb 0.00 in0.0 mm 0.00 in0.0 mm 0.00 in0.0 mm
02:57 PM 63.3°F17.4°C 50.5°F10.3°C 63% 8.8 mph WSW14.2 kmh WSW 11.0 mph17.7 kmh 29.59 in1002.0 mb 0.00 in0.0 mm 0.00 in0.0 mm 0.00 in0.0 mm
02:58 PM 63.2°F17.3°C 50.8°F10.4°C 64% 9.0 mph WSW14.5 kmh WSW 11.0 mph17.7 kmh 29.58 in1001.7 mb 0.00 in0.0 mm 0.00 in0.0 mm 0.00 in0.0 mm
02:59 PM 63.2°F17.3°C 50.8°F10.4°C 64% 7.8 mph WSW12.6 kmh WSW 11.0 mph17.7 kmh 29.59 in1002.0 mb 0.00 in0.0 mm 0.00 in0.0 mm 0.00 in0.0 mm
03:00 PM 63.2°F17.3°C 50.8°F10.4°C 64% 7.4 mph WSW11.9 kmh WSW 10.0 mph16.1 kmh 29.58 in1001.7 mb 0.00 in0.0 mm 0.00 in0.0 mm 0.00 in0.0 mm
03:01 PM 63.0°F17.2°C 50.2°F10.1°C 63% 8.7 mph W14.0 kmh W 10.0 mph16.1 kmh 29.58 in1001.7 mb 0.00 in0.0 mm 0.00 in0.0 mm 0.00 in0.0 mm
03:02 PM 62.8°F17.1°C 50.4°F10.2°C 64% 8.0 mph W12.9 kmh W 10.0 mph16.1 kmh 29.58 in1001.7 mb 0.00 in0.0 mm 0.00 in0.0 mm 0.00 in0.0 mm
03:03 PM 62.8°F17.1°C 50.4°F10.2°C 64% 8.6 mph WSW13.8 kmh WSW 10.0 mph16.1 kmh 29.58 in1001.7 mb 0.00 in0.0 mm 0.00 in0.0 mm 0.00 in0.0 mm
03:04 PM 62.7°F17.1°C 50.8°F10.4°C 65% 6.9 mph WSW11.1 kmh WSW 9.0 mph14.5 kmh 29.58 in1001.7 mb 0.00 in0.0 mm 0.00 in0.0 mm 0.00 in0.0 mm
03:05 PM 62.7°F17.1°C 51.2°F10.7°C 66% 5.5 mph WSW8.9 kmh WSW 8.0 mph12.9 kmh 29.58 in1001.7 mb 0.00 in0.0 mm 0.00 in0.0 mm 0.00 in0.0 mm
03:06 PM 62.7°F17.1°C 51.2°F10.7°C 66% 4.9 mph WSW7.9 kmh WSW 7.0 mph11.3 kmh 29.58 in1001.7 mb 0.00 in0.0 mm 0.00 in0.0 mm 0.00 in0.0 mm
03:07 PM 62.6°F17.0°C 51.1°F10.6°C 66% 7.1 mph WSW11.4 kmh WSW 9.0 mph14.5 kmh 29.58 in1001.7 mb 0.00 in0.0 mm 0.00 in0.0 mm 0.00 in0.0 mm
03:08 PM 62.7°F17.1°C 51.2°F10.7°C 66% 6.8 mph WSW10.9 kmh WSW 9.0 mph14.5 kmh 29.58 in1001.7 mb 0.00 in0.0 mm 0.00 in0.0 mm 0.00 in0.0 mm
03:09 PM 62.8°F17.1°C 50.4°F10.2°C 64% 9.0 mph WSW14.5 kmh WSW 11.0 mph17.7 kmh 29.58 in1001.7 mb 0.00 in0.0 mm 0.00 in0.0 mm 0.00 in0.0 mm
03:10 PM 62.7°F17.1°C 51.2°F10.7°C 66% 10.7 mph WSW17.2 kmh WSW 12.0 mph19.3 kmh 29.58 in1001.7 mb 0.00 in0.0 mm 0.00 in0.0 mm 0.00 in0.0 mm
03:11 PM 62.6°F17.0°C 50.7°F10.4°C 65% 10.3 mph WSW16.6 kmh WSW 12.0 mph19.3 kmh 29.58 in1001.7 mb 0.00 in0.0 mm 0.00 in0.0 mm 0.00 in0.0 mm
03:12 PM 62.4°F16.9°C 49.2°F9.6°C 62% 10.7 mph WSW17.2 kmh WSW 12.0 mph19.3 kmh 29.58 in1001.7 mb 0.00 in0.0 mm 0.00 in0.0 mm 0.00 in0.0 mm
03:13 PM 62.2°F16.8°C 49.0°F9.4°C 62% 8.6 mph WSW13.8 kmh WSW 12.0 mph19.3 kmh 29.58 in1001.7 mb 0.00 in0.0 mm 0.00 in0.0 mm 0.00 in0.0 mm
03:14 PM 62.0°F16.7°C 49.7°F9.8°C 64% 8.5 mph WSW13.7 kmh WSW 10.0 mph16.1 kmh 29.58 in1001.7 mb 0.00 in0.0 mm 0.00 in0.0 mm 0.00 in0.0 mm
03:15 PM 62.0°F16.7°C 50.5°F10.3°C 66% 9.7 mph WSW15.6 kmh WSW 12.0 mph19.3 kmh 29.58 in1001.7 mb 0.00 in0.0 mm 0.00 in0.0 mm 0.00 in0.0 mm
03:16 PM 62.0°F16.7°C 50.5°F10.3°C 66% 9.0 mph WSW14.5 kmh WSW 12.0 mph19.3 kmh 29.58 in1001.7 mb 0.00 in0.0 mm 0.00 in0.0 mm 0.00 in0.0 mm
03:17 PM 62.0°F16.7°C 49.7°F9.8°C 64% 9.2 mph WSW14.8 kmh WSW 11.0 mph17.7 kmh 29.58 in1001.7 mb 0.00 in0.0 mm 0.00 in0.0 mm 0.00 in0.0 mm
03:18 PM 62.1°F16.7°C 50.2°F10.1°C 65% 8.2 mph WSW13.2 kmh WSW 11.0 mph17.7 kmh 29.58 in1001.7 mb 0.00 in0.0 mm 0.00 in0.0 mm 0.00 in0.0 mm
03:19 PM 62.1°F16.7°C 49.8°F9.9°C 64% 8.8 mph WSW14.2 kmh WSW 10.0 mph16.1 kmh 29.58 in1001.7 mb 0.00 in0.0 mm 0.00 in0.0 mm 0.00 in0.0 mm
03:20 PM 62.1°F16.7°C 50.2°F10.1°C 65% 8.9 mph WSW14.3 kmh WSW 11.0 mph17.7 kmh 29.58 in1001.7 mb 0.00 in0.0 mm 0.00 in0.0 mm 0.00 in0.0 mm
03:21 PM 62.1°F16.7°C 50.2°F10.1°C 65% 9.3 mph WSW15.0 kmh WSW 11.0 mph17.7 kmh 29.58 in1001.7 mb 0.00 in0.0 mm 0.00 in0.0 mm 0.00 in0.0 mm
03:22 PM 62.2°F16.8°C 49.9°F9.9°C 64% 9.1 mph WSW14.6 kmh WSW 11.0 mph17.7 kmh 29.58 in1001.7 mb 0.00 in0.0 mm 0.00 in0.0 mm 0.00 in0.0 mm
03:23 PM 62.3°F16.8°C 50.4°F10.2°C 65% 8.3 mph WSW13.4 kmh WSW 10.0 mph16.1 kmh 29.58 in1001.7 mb 0.00 in0.0 mm 0.00 in0.0 mm 0.00 in0.0 mm
03:24 PM 62.3°F16.8°C 49.5°F9.7°C 63% 8.8 mph WSW14.2 kmh WSW 11.0 mph17.7 kmh 29.58 in1001.7 mb 0.00 in0.0 mm 0.00 in0.0 mm 0.00 in0.0 mm
03:25 PM 62.4°F16.9°C 50.1°F10.1°C 64% 8.0 mph WSW12.9 kmh WSW 11.0 mph17.7 kmh 29.58 in1001.7 mb 0.00 in0.0 mm 0.00 in0.0 mm 0.00 in0.0 mm
03:26 PM 62.5°F16.9°C 50.2°F10.1°C 64% 11.0 mph WSW17.7 kmh WSW 12.0 mph19.3 kmh 29.58 in1001.7 mb 0.00 in0.0 mm 0.00 in0.0 mm 0.00 in0.0 mm
03:27 PM 62.5°F16.9°C 51.0°F10.6°C 66% 10.0 mph WSW16.1 kmh WSW 12.0 mph19.3 kmh 29.58 in1001.7 mb 0.00 in0.0 mm 0.00 in0.0 mm 0.00 in0.0 mm
03:28 PM 62.6°F17.0°C 50.7°F10.4°C 65% 9.3 mph WSW15.0 kmh WSW 11.0 mph17.7 kmh 29.58 in1001.7 mb 0.00 in0.0 mm 0.00 in0.0 mm 0.00 in0.0 mm
03:29 PM 62.7°F17.1°C 50.8°F10.4°C 65% 9.5 mph WSW15.3 kmh WSW 12.0 mph19.3 kmh 29.58 in1001.7 mb 0.00 in0.0 mm 0.00 in0.0 mm 0.00 in0.0 mm
03:30 PM 62.7°F17.1°C 49.9°F9.9°C 63% 10.0 mph WSW16.1 kmh WSW 12.0 mph19.3 kmh 29.58 in1001.7 mb 0.00 in0.0 mm 0.00 in0.0 mm 0.00 in0.0 mm
03:31 PM 62.5°F16.9°C 50.2°F10.1°C 64% 11.5 mph WSW18.5 kmh WSW 13.0 mph20.9 kmh 29.58 in1001.7 mb 0.00 in0.0 mm 0.00 in0.0 mm 0.00 in0.0 mm
03:32 PM 62.4°F16.9°C 49.6°F9.8°C 63% 12.5 mph WSW20.1 kmh WSW 14.0 mph22.5 kmh 29.58 in1001.7 mb 0.00 in0.0 mm 0.00 in0.0 mm 0.00 in0.0 mm
03:33 PM 62.3°F16.8°C 50.0°F10.0°C 64% 11.4 mph WSW18.3 kmh WSW 14.0 mph22.5 kmh 29.58 in1001.7 mb 0.00 in0.0 mm 0.00 in0.0 mm 0.00 in0.0 mm
03:34 PM 62.3°F16.8°C 50.4°F10.2°C 65% 9.2 mph WSW14.8 kmh WSW 12.0 mph19.3 kmh 29.58 in1001.7 mb 0.00 in0.0 mm 0.00 in0.0 mm 0.00 in0.0 mm
03:35 PM 62.3°F16.8°C 50.4°F10.2°C 65% 8.7 mph WSW14.0 kmh WSW 11.0 mph17.7 kmh 29.58 in1001.7 mb 0.00 in0.0 mm 0.00 in0.0 mm 0.00 in0.0 mm
03:36 PM 62.2°F16.8°C 49.9°F9.9°C 64% 8.6 mph WSW13.8 kmh WSW 11.0 mph17.7 kmh 29.58 in1001.7 mb 0.00 in0.0 mm 0.00 in0.0 mm 0.00 in0.0 mm
03:37 PM 62.2°F16.8°C 49.9°F9.9°C 64% 9.4 mph WSW15.1 kmh WSW 11.0 mph17.7 kmh 29.58 in1001.7 mb 0.00 in0.0 mm 0.00 in0.0 mm 0.00 in0.0 mm
03:38 PM 62.2°F16.8°C 49.9°F9.9°C 64% 7.4 mph WSW11.9 kmh WSW 11.0 mph17.7 kmh 29.58 in1001.7 mb 0.00 in0.0 mm 0.00 in0.0 mm 0.00 in0.0 mm
03:39 PM 62.2°F16.8°C 50.3°F10.2°C 65% 7.1 mph WSW11.4 kmh WSW 9.0 mph14.5 kmh 29.58 in1001.7 mb 0.00 in0.0 mm 0.00 in0.0 mm 0.00 in0.0 mm
03:40 PM 62.2°F16.8°C 50.3°F10.2°C 65% 8.8 mph WSW14.2 kmh WSW 10.0 mph16.1 kmh 29.58 in1001.7 mb 0.00 in0.0 mm 0.00 in0.0 mm 0.00 in0.0 mm
03:41 PM 62.2°F16.8°C 50.3°F10.2°C 65% 6.8 mph WSW10.9 kmh WSW 10.0 mph16.1 kmh 29.58 in1001.7 mb 0.00 in0.0 mm 0.00 in0.0 mm 0.00 in0.0 mm
03:42 PM 62.3°F16.8°C 50.4°F10.2°C 65% 8.0 mph WSW12.9 kmh WSW 9.0 mph14.5 kmh 29.58 in1001.7 mb 0.00 in0.0 mm 0.00 in0.0 mm 0.00 in0.0 mm
03:43 PM 62.4°F16.9°C 49.2°F9.6°C 62% 10.0 mph WSW16.1 kmh WSW 12.0 mph19.3 kmh 29.58 in1001.7 mb 0.00 in0.0 mm 0.00 in0.0 mm 0.00 in0.0 mm
03:44 PM 62.3°F16.8°C 50.0°F10.0°C 64% 8.2 mph W13.2 kmh W 9.0 mph14.5 kmh 29.58 in1001.7 mb 0.00 in0.0 mm 0.00 in0.0 mm 0.00 in0.0 mm
03:45 PM 62.3°F16.8°C 50.4°F10.2°C 65% 7.6 mph W12.2 kmh W 10.0 mph16.1 kmh 29.58 in1001.7 mb 0.00 in0.0 mm 0.00 in0.0 mm 0.00 in0.0 mm
03:46 PM 62.4°F16.9°C 50.1°F10.1°C 64% 7.7 mph W12.4 kmh W 10.0 mph16.1 kmh 29.58 in1001.7 mb 0.00 in0.0 mm 0.00 in0.0 mm 0.00 in0.0 mm
03:47 PM 62.3°F16.8°C 50.0°F10.0°C 64% 7.7 mph W12.4 kmh W 10.0 mph16.1 kmh 29.58 in1001.7 mb 0.00 in0.0 mm 0.00 in0.0 mm 0.00 in0.0 mm
03:48 PM 62.4°F16.9°C 49.6°F9.8°C 63% 8.5 mph WSW13.7 kmh WSW 11.0 mph17.7 kmh 29.58 in1001.7 mb 0.00 in0.0 mm 0.00 in0.0 mm 0.00 in0.0 mm
03:49 PM 62.3°F16.8°C 49.1°F9.5°C 62% 6.9 mph WSW11.1 kmh WSW 11.0 mph17.7 kmh 29.58 in1001.7 mb 0.00 in0.0 mm 0.00 in0.0 mm 0.00 in0.0 mm
03:50 PM 62.4°F16.9°C 49.2°F9.6°C 62% 6.5 mph W10.5 kmh W 8.0 mph12.9 kmh 29.58 in1001.7 mb 0.00 in0.0 mm 0.00 in0.0 mm 0.00 in0.0 mm
03:51 PM 62.4°F16.9°C 49.2°F9.6°C 62% 7.9 mph W12.7 kmh W 10.0 mph16.1 kmh 29.58 in1001.7 mb 0.00 in0.0 mm 0.00 in0.0 mm 0.00 in0.0 mm
03:52 PM 62.4°F16.9°C 50.1°F10.1°C 64% 8.2 mph WSW13.2 kmh WSW 12.0 mph19.3 kmh 29.58 in1001.7 mb 0.00 in0.0 mm 0.00 in0.0 mm 0.00 in0.0 mm
03:53 PM 62.4°F16.9°C 50.5°F10.3°C 65% 11.0 mph WSW17.7 kmh WSW 13.0 mph20.9 kmh 29.58 in1001.7 mb 0.00 in0.0 mm 0.00 in0.0 mm 0.00 in0.0 mm
03:54 PM 62.4°F16.9°C 50.5°F10.3°C 65% 10.6 mph WSW17.1 kmh WSW 13.0 mph20.9 kmh 29.58 in1001.7 mb 0.00 in0.0 mm 0.00 in0.0 mm 0.00 in0.0 mm
03:55 PM 62.4°F16.9°C 50.1°F10.1°C 64% 10.2 mph WSW16.4 kmh WSW 12.0 mph19.3 kmh 29.58 in1001.7 mb 0.00 in0.0 mm 0.00 in0.0 mm 0.00 in0.0 mm
03:56 PM 62.4°F16.9°C 49.6°F9.8°C 63% 9.9 mph WSW15.9 kmh WSW 12.0 mph19.3 kmh 29.58 in1001.7 mb 0.00 in0.0 mm 0.00 in0.0 mm 0.00 in0.0 mm
03:57 PM 62.4°F16.9°C 49.6°F9.8°C 63% 9.4 mph WSW15.1 kmh WSW 11.0 mph17.7 kmh 29.58 in1001.7 mb 0.00 in0.0 mm 0.00 in0.0 mm 0.00 in0.0 mm
03:58 PM 62.3°F16.8°C 48.7°F9.3°C 61% 7.5 mph WSW12.1 kmh WSW 10.0 mph16.1 kmh 29.58 in1001.7 mb 0.00 in0.0 mm 0.00 in0.0 mm 0.00 in0.0 mm
03:59 PM 62.3°F16.8°C 49.5°F9.7°C 63% 9.2 mph WSW14.8 kmh WSW 11.0 mph17.7 kmh 29.58 in1001.7 mb 0.00 in0.0 mm 0.00 in0.0 mm 0.00 in0.0 mm
04:00 PM 62.4°F16.9°C 50.1°F10.1°C 64% 9.0 mph WSW14.5 kmh WSW 12.0 mph19.3 kmh 29.58 in1001.7 mb 0.00 in0.0 mm 0.00 in0.0 mm 0.00 in0.0 mm
04:01 PM 62.5°F16.9°C 50.2°F10.1°C 64% 11.0 mph WSW17.7 kmh WSW 12.0 mph19.3 kmh 29.58 in1001.7 mb 0.00 in0.0 mm 0.00 in0.0 mm 0.00 in0.0 mm
04:02 PM 62.6°F17.0°C 50.2°F10.1°C 64% 11.0 mph WSW17.7 kmh WSW 12.0 mph19.3 kmh 29.58 in1001.7 mb 0.00 in0.0 mm 0.00 in0.0 mm 0.00 in0.0 mm
04:03 PM 62.7°F17.1°C 50.3°F10.2°C 64% 10.3 mph WSW16.6 kmh WSW 12.0 mph19.3 kmh 29.58 in1001.7 mb 0.00 in0.0 mm 0.00 in0.0 mm 0.00 in0.0 mm
04:04 PM 62.7°F17.1°C 50.8°F10.4°C 65% 9.4 mph WSW15.1 kmh WSW 12.0 mph19.3 kmh 29.58 in1001.7 mb 0.00 in0.0 mm 0.00 in0.0 mm 0.00 in0.0 mm
04:05 PM 62.8°F17.1°C 50.4°F10.2°C 64% 8.9 mph WSW14.3 kmh WSW 11.0 mph17.7 kmh 29.58 in1001.7 mb 0.00 in0.0 mm 0.00 in0.0 mm 0.00 in0.0 mm
04:06 PM 62.8°F17.1°C 49.6°F9.8°C 62% 9.8 mph WSW15.8 kmh WSW 11.0 mph17.7 kmh 29.58 in1001.7 mb 0.00 in0.0 mm 0.00 in0.0 mm 0.00 in0.0 mm
04:07 PM 62.9°F17.2°C 49.7°F9.8°C 62% 8.7 mph WSW14.0 kmh WSW 11.0 mph17.7 kmh 29.58 in1001.7 mb 0.00 in0.0 mm 0.00 in0.0 mm 0.00 in0.0 mm
04:08 PM 62.8°F17.1°C 50.0°F10.0°C 63% 8.7 mph WSW14.0 kmh WSW 10.0 mph16.1 kmh 29.58 in1001.7 mb 0.00 in0.0 mm 0.00 in0.0 mm 0.00 in0.0 mm
04:09 PM 62.8°F17.1°C 50.0°F10.0°C 63% 8.4 mph WSW13.5 kmh WSW 10.0 mph16.1 kmh 29.58 in1001.7 mb 0.00 in0.0 mm 0.00 in0.0 mm 0.00 in0.0 mm
04:10 PM 62.7°F17.1°C 50.3°F10.2°C 64% 10.0 mph W16.1 kmh W 12.0 mph19.3 kmh 29.58 in1001.7 mb 0.00 in0.0 mm 0.00 in0.0 mm 0.00 in0.0 mm
04:11 PM 62.6°F17.0°C 49.8°F9.9°C 63% 10.0 mph WSW16.1 kmh WSW 11.0 mph17.7 kmh 29.58 in1001.7 mb 0.00 in0.0 mm 0.00 in0.0 mm 0.00 in0.0 mm
04:12 PM 62.5°F16.9°C 50.2°F10.1°C 64% 9.7 mph WSW15.6 kmh WSW 10.0 mph16.1 kmh 29.58 in1001.7 mb 0.00 in0.0 mm 0.00 in0.0 mm 0.00 in0.0 mm
04:13 PM 62.4°F16.9°C 50.1°F10.1°C 64% 8.5 mph WSW13.7 kmh WSW 10.0 mph16.1 kmh 29.58 in1001.7 mb 0.00 in0.0 mm 0.00 in0.0 mm 0.00 in0.0 mm
04:14 PM 62.4°F16.9°C 50.5°F10.3°C 65% 9.0 mph WSW14.5 kmh WSW 10.0 mph16.1 kmh 29.58 in1001.7 mb 0.00 in0.0 mm 0.00 in0.0 mm 0.00 in0.0 mm
04:15 PM 62.4°F16.9°C 50.5°F10.3°C 65% 7.6 mph WSW12.2 kmh WSW 10.0 mph16.1 kmh 29.58 in1001.7 mb 0.00 in0.0 mm 0.00 in0.0 mm 0.00 in0.0 mm
04:16 PM 62.4°F16.9°C 50.5°F10.3°C 65% 9.0 mph WSW14.5 kmh WSW 10.0 mph16.1 kmh 29.58 in1001.7 mb 0.00 in0.0 mm 0.00 in0.0 mm 0.00 in0.0 mm
04:17 PM 62.4°F16.9°C 50.1°F10.1°C 64% 6.9 mph WSW11.1 kmh WSW 10.0 mph16.1 kmh 29.58 in1001.7 mb 0.00 in0.0 mm 0.00 in0.0 mm 0.00 in0.0 mm
04:18 PM 62.4°F16.9°C 49.6°F9.8°C 63% 8.1 mph W13.0 kmh W 10.0 mph16.1 kmh 29.59 in1002.0 mb 0.00 in0.0 mm 0.00 in0.0 mm 0.00 in0.0 mm
04:19 PM 62.4°F16.9°C 50.9°F10.5°C 66% 7.2 mph WSW11.6 kmh WSW 11.0 mph17.7 kmh 29.58 in1001.7 mb 0.00 in0.0 mm 0.00 in0.0 mm 0.00 in0.0 mm
04:20 PM 62.5°F16.9°C 51.0°F10.6°C 66% 9.8 mph WSW15.8 kmh WSW 11.0 mph17.7 kmh 29.59 in1002.0 mb 0.00 in0.0 mm 0.00 in0.0 mm 0.00 in0.0 mm
04:21 PM 62.5°F16.9°C 50.6°F10.3°C 65% 9.5 mph WSW15.3 kmh WSW 12.0 mph19.3 kmh 29.59 in1002.0 mb 0.00 in0.0 mm 0.00 in0.0 mm 0.00 in0.0 mm
04:22 PM 62.6°F17.0°C 50.7°F10.4°C 65% 9.0 mph WSW14.5 kmh WSW 11.0 mph17.7 kmh 29.59 in1002.0 mb 0.00 in0.0 mm 0.00 in0.0 mm 0.00 in0.0 mm
04:23 PM 62.6°F17.0°C 50.2°F10.1°C 64% 9.0 mph WSW14.5 kmh WSW 10.0 mph16.1 kmh 29.58 in1001.7 mb 0.00 in0.0 mm 0.00 in0.0 mm 0.00 in0.0 mm
04:24 PM 62.5°F16.9°C 49.3°F9.6°C 62% 9.0 mph WSW14.5 kmh WSW 10.0 mph16.1 kmh 29.58 in1001.7 mb 0.00 in0.0 mm 0.00 in0.0 mm 0.00 in0.0 mm
04:25 PM 62.5°F16.9°C 49.7°F9.8°C 63% 8.5 mph W13.7 kmh W 10.0 mph16.1 kmh 29.58 in1001.7 mb 0.00 in0.0 mm 0.00 in0.0 mm 0.00 in0.0 mm
04:26 PM 62.5°F16.9°C 49.7°F9.8°C 63% 6.5 mph W10.5 kmh W 10.0 mph16.1 kmh 29.58 in1001.7 mb 0.00 in0.0 mm 0.00 in0.0 mm 0.00 in0.0 mm
04:27 PM 62.5°F16.9°C 50.6°F10.3°C 65% 6.0 mph W9.7 kmh W 8.0 mph12.9 kmh 29.58 in1001.7 mb 0.00 in0.0 mm 0.00 in0.0 mm 0.00 in0.0 mm
04:28 PM 62.4°F16.9°C 50.1°F10.1°C 64% 7.4 mph WSW11.9 kmh WSW 10.0 mph16.1 kmh 29.58 in1001.7 mb 0.00 in0.0 mm 0.00 in0.0 mm 0.00 in0.0 mm
04:29 PM 62.3°F16.8°C 50.4°F10.2°C 65% 9.4 mph WSW15.1 kmh WSW 12.0 mph19.3 kmh 29.58 in1001.7 mb 0.00 in0.0 mm 0.00 in0.0 mm 0.00 in0.0 mm
04:30 PM 62.4°F16.9°C 50.5°F10.3°C 65% 9.0 mph W14.5 kmh W 11.0 mph17.7 kmh 29.58 in1001.7 mb 0.00 in0.0 mm 0.00 in0.0 mm 0.00 in0.0 mm
04:31 PM 62.3°F16.8°C 49.5°F9.7°C 63% 10.0 mph W16.1 kmh W 12.0 mph19.3 kmh 29.58 in1001.7 mb 0.00 in0.0 mm 0.00 in0.0 mm 0.00 in0.0 mm
04:32 PM 62.3°F16.8°C 50.0°F10.0°C 64% 10.1 mph WNW16.3 kmh WNW 12.0 mph19.3 kmh 29.58 in1001.7 mb 0.00 in0.0 mm 0.00 in0.0 mm 0.00 in0.0 mm
04:33 PM 62.2°F16.8°C 49.9°F9.9°C 64% 10.4 mph W16.7 kmh W 13.0 mph20.9 kmh 29.58 in1001.7 mb 0.00 in0.0 mm 0.00 in0.0 mm 0.00 in0.0 mm
04:34 PM 62.2°F16.8°C 49.9°F9.9°C 64% 8.8 mph W14.2 kmh W 13.0 mph20.9 kmh 29.59 in1002.0 mb 0.00 in0.0 mm 0.00 in0.0 mm 0.00 in0.0 mm
04:35 PM 62.2°F16.8°C 49.9°F9.9°C 64% 6.9 mph W11.1 kmh W 10.0 mph16.1 kmh 29.59 in1002.0 mb 0.00 in0.0 mm 0.00 in0.0 mm 0.00 in0.0 mm
04:36 PM 62.1°F16.7°C 50.6°F10.3°C 66% 8.2 mph W13.2 kmh W 10.0 mph16.1 kmh 29.59 in1002.0 mb 0.00 in0.0 mm 0.00 in0.0 mm 0.00 in0.0 mm
04:37 PM 62.1°F16.7°C 50.2°F10.1°C 65% 10.3 mph W16.6 kmh W 12.0 mph19.3 kmh 29.58 in1001.7 mb 0.00 in0.0 mm 0.00 in0.0 mm 0.00 in0.0 mm
04:38 PM 62.1°F16.7°C 49.8°F9.9°C 64% 8.0 mph W12.9 kmh W 10.0 mph16.1 kmh 29.58 in1001.7 mb 0.00 in0.0 mm 0.00 in0.0 mm 0.00 in0.0 mm
04:39 PM 62.1°F16.7°C 50.6°F10.3°C 66% 7.0 mph W11.3 kmh W 9.0 mph14.5 kmh 29.59 in1002.0 mb 0.00 in0.0 mm 0.00 in0.0 mm 0.00 in0.0 mm
04:40 PM 62.1°F16.7°C 50.6°F10.3°C 66% 6.9 mph WSW11.1 kmh WSW 8.0 mph12.9 kmh 29.58 in1001.7 mb 0.00 in0.0 mm 0.00 in0.0 mm 0.00 in0.0 mm
04:41 PM 62.1°F16.7°C 51.0°F10.6°C 67% 7.8 mph WSW12.6 kmh WSW 10.0 mph16.1 kmh 29.58 in1001.7 mb 0.00 in0.0 mm 0.00 in0.0 mm 0.00 in0.0 mm
04:42 PM 62.2°F16.8°C 50.7°F10.4°C 66% 9.1 mph WSW14.6 kmh WSW 11.0 mph17.7 kmh 29.58 in1001.7 mb 0.00 in0.0 mm 0.00 in0.0 mm 0.00 in0.0 mm
04:43 PM 62.2°F16.8°C 50.3°F10.2°C 65% 9.3 mph WSW15.0 kmh WSW 11.0 mph17.7 kmh 29.58 in1001.7 mb 0.00 in0.0 mm 0.00 in0.0 mm 0.00 in0.0 mm
04:44 PM 62.2°F16.8°C 50.7°F10.4°C 66% 7.9 mph WSW12.7 kmh WSW 10.0 mph16.1 kmh 29.58 in1001.7 mb 0.00 in0.0 mm 0.00 in0.0 mm 0.00 in0.0 mm
04:45 PM 62.2°F16.8°C 50.3°F10.2°C 65% 8.0 mph WSW12.9 kmh WSW 9.0 mph14.5 kmh 29.58 in1001.7 mb 0.00 in0.0 mm 0.00 in0.0 mm 0.00 in0.0 mm
04:46 PM 62.2°F16.8°C 50.3°F10.2°C 65% 7.0 mph W11.3 kmh W 9.0 mph14.5 kmh 29.58 in1001.7 mb 0.00 in0.0 mm 0.00 in0.0 mm 0.00 in0.0 mm
04:47 PM 62.2°F16.8°C 50.3°F10.2°C 65% 9.0 mph W14.5 kmh W 10.0 mph16.1 kmh 29.58 in1001.7 mb 0.00 in0.0 mm 0.00 in0.0 mm 0.00 in0.0 mm
04:48 PM 62.2°F16.8°C 51.1°F10.6°C 67% 9.0 mph W14.5 kmh W 11.0 mph17.7 kmh 29.59 in1002.0 mb 0.00 in0.0 mm 0.00 in0.0 mm 0.00 in0.0 mm
04:49 PM 62.1°F16.7°C 51.0°F10.6°C 67% 10.0 mph W16.1 kmh W 12.0 mph19.3 kmh 29.59 in1002.0 mb 0.00 in0.0 mm 0.00 in0.0 mm 0.00 in0.0 mm
04:50 PM 62.0°F16.7°C 50.9°F10.5°C 67% 9.7 mph W15.6 kmh W 12.0 mph19.3 kmh 29.58 in1001.7 mb 0.00 in0.0 mm 0.00 in0.0 mm 0.00 in0.0 mm
04:51 PM 62.0°F16.7°C 50.9°F10.5°C 67% 10.0 mph W16.1 kmh W 11.0 mph17.7 kmh 29.59 in1002.0 mb 0.00 in0.0 mm 0.00 in0.0 mm 0.00 in0.0 mm
04:52 PM 61.8°F16.6°C 50.3°F10.2°C 66% 8.8 mph WSW14.2 kmh WSW 11.0 mph17.7 kmh 29.58 in1001.7 mb 0.00 in0.0 mm 0.00 in0.0 mm 0.00 in0.0 mm
04:53 PM 61.8°F16.6°C 50.7°F10.4°C 67% 8.1 mph W13.0 kmh W 10.0 mph16.1 kmh 29.59 in1002.0 mb 0.00 in0.0 mm 0.00 in0.0 mm 0.00 in0.0 mm
04:54 PM 61.8°F16.6°C 51.1°F10.6°C 68% 7.5 mph WSW12.1 kmh WSW 10.0 mph16.1 kmh 29.59 in1002.0 mb 0.00 in0.0 mm 0.00 in0.0 mm 0.00 in0.0 mm
04:55 PM 61.8°F16.6°C 50.7°F10.4°C 67% 8.0 mph W12.9 kmh W 10.0 mph16.1 kmh 29.59 in1002.0 mb 0.00 in0.0 mm 0.00 in0.0 mm 0.00 in0.0 mm
04:56 PM 61.7°F16.5°C 50.6°F10.3°C 67% 8.0 mph W12.9 kmh W 10.0 mph16.1 kmh 29.59 in1002.0 mb 0.00 in0.0 mm 0.00 in0.0 mm 0.00 in0.0 mm
04:57 PM 61.7°F16.5°C 50.6°F10.3°C 67% 8.2 mph WSW13.2 kmh WSW 10.0 mph16.1 kmh 29.59 in1002.0 mb 0.00 in0.0 mm 0.00 in0.0 mm 0.00 in0.0 mm
04:58 PM 61.7°F16.5°C 50.6°F10.3°C 67% 7.9 mph WSW12.7 kmh WSW 10.0 mph16.1 kmh 29.59 in1002.0 mb 0.00 in0.0 mm 0.00 in0.0 mm 0.00 in0.0 mm
04:59 PM 61.7°F16.5°C 51.0°F10.6°C 68% 6.7 mph WSW10.8 kmh WSW 10.0 mph16.1 kmh 29.59 in1002.0 mb 0.00 in0.0 mm 0.00 in0.0 mm 0.00 in0.0 mm
05:00 PM 61.8°F16.6°C 50.7°F10.4°C 67% 8.1 mph WSW13.0 kmh WSW 10.0 mph16.1 kmh 29.59 in1002.0 mb 0.00 in0.0 mm 0.00 in0.0 mm 0.00 in0.0 mm
05:01 PM 61.8°F16.6°C 50.7°F10.4°C 67% 8.3 mph WSW13.4 kmh WSW 10.0 mph16.1 kmh 29.58 in1001.7 mb 0.00 in0.0 mm 0.00 in0.0 mm 0.00 in0.0 mm
05:02 PM 61.8°F16.6°C 50.7°F10.4°C 67% 6.5 mph W10.5 kmh W 9.0 mph14.5 kmh 29.59 in1002.0 mb 0.00 in0.0 mm 0.00 in0.0 mm 0.00 in0.0 mm
05:03 PM 61.7°F16.5°C 51.0°F10.6°C 68% 8.2 mph W13.2 kmh W 10.0 mph16.1 kmh 29.58 in1001.7 mb 0.00 in0.0 mm 0.00 in0.0 mm 0.00 in0.0 mm
05:04 PM 61.7°F16.5°C 50.6°F10.3°C 67% 10.0 mph W16.1 kmh W 12.0 mph19.3 kmh 29.58 in1001.7 mb 0.00 in0.0 mm 0.00 in0.0 mm 0.00 in0.0 mm
05:05 PM 61.6°F16.4°C 50.5°F10.3°C 67% 9.0 mph W14.5 kmh W 11.0 mph17.7 kmh 29.58 in1001.7 mb 0.00 in0.0 mm 0.00 in0.0 mm 0.00 in0.0 mm
05:06 PM 61.6°F16.4°C 50.9°F10.5°C 68% 10.1 mph W16.3 kmh W 11.0 mph17.7 kmh 29.58 in1001.7 mb 0.00 in0.0 mm 0.00 in0.0 mm 0.00 in0.0 mm
05:07 PM 61.5°F16.4°C 51.2°F10.7°C 69% 9.1 mph W14.6 kmh W 11.0 mph17.7 kmh 29.58 in1001.7 mb 0.00 in0.0 mm 0.00 in0.0 mm 0.00 in0.0 mm
05:08 PM 61.5°F16.4°C 50.8°F10.4°C 68% 10.0 mph W16.1 kmh W 11.0 mph17.7 kmh 29.59 in1002.0 mb 0.00 in0.0 mm 0.00 in0.0 mm 0.00 in0.0 mm
05:09 PM 61.4°F16.3°C 50.3°F10.2°C 67% 11.0 mph WNW17.7 kmh WNW 12.0 mph19.3 kmh 29.59 in1002.0 mb 0.00 in0.0 mm 0.00 in0.0 mm 0.00 in0.0 mm
05:10 PM 61.3°F16.3°C 49.8°F9.9°C 66% 9.0 mph W14.5 kmh W 11.0 mph17.7 kmh 29.59 in1002.0 mb 0.00 in0.0 mm 0.00 in0.0 mm 0.00 in0.0 mm
05:11 PM 61.3°F16.3°C 50.2°F10.1°C 67% 9.0 mph W14.5 kmh W 11.0 mph17.7 kmh 29.59 in1002.0 mb 0.00 in0.0 mm 0.00 in0.0 mm 0.00 in0.0 mm
05:12 PM 61.3°F16.3°C 50.2°F10.1°C 67% 9.0 mph W14.5 kmh W 10.0 mph16.1 kmh 29.59 in1002.0 mb 0.00 in0.0 mm 0.00 in0.0 mm 0.00 in0.0 mm
05:13 PM 61.3°F16.3°C 50.6°F10.3°C 68% 9.0 mph W14.5 kmh W 11.0 mph17.7 kmh 29.59 in1002.0 mb 0.00 in0.0 mm 0.00 in0.0 mm 0.00 in0.0 mm
05:14 PM 61.2°F16.2°C 50.9°F10.5°C 69% 9.7 mph W15.6 kmh W 11.0 mph17.7 kmh 29.59 in1002.0 mb 0.00 in0.0 mm 0.00 in0.0 mm 0.00 in0.0 mm
05:15 PM 61.3°F16.3°C 50.2°F10.1°C 67% 8.9 mph WSW14.3 kmh WSW 11.0 mph17.7 kmh 29.59 in1002.0 mb 0.00 in0.0 mm 0.00 in0.0 mm 0.00 in0.0 mm
05:16 PM 61.2°F16.2°C 50.6°F10.3°C 68% 9.8 mph WSW15.8 kmh WSW 12.0 mph19.3 kmh 29.59 in1002.0 mb 0.00 in0.0 mm 0.00 in0.0 mm 0.00 in0.0 mm
05:17 PM 61.3°F16.3°C 49.8°F9.9°C 66% 9.2 mph WSW14.8 kmh WSW 12.0 mph19.3 kmh 29.59 in1002.0 mb 0.00 in0.0 mm 0.00 in0.0 mm 0.00 in0.0 mm
05:18 PM 61.3°F16.3°C 50.2°F10.1°C 67% 6.8 mph WSW10.9 kmh WSW 10.0 mph16.1 kmh 29.59 in1002.0 mb 0.00 in0.0 mm 0.00 in0.0 mm 0.00 in0.0 mm
05:19 PM 61.3°F16.3°C 50.6°F10.3°C 68% 8.9 mph WSW14.3 kmh WSW 10.0 mph16.1 kmh 29.59 in1002.0 mb 0.00 in0.0 mm 0.00 in0.0 mm 0.00 in0.0 mm
05:20 PM 61.3°F16.3°C 50.6°F10.3°C 68% 8.0 mph WSW12.9 kmh WSW 10.0 mph16.1 kmh 29.59 in1002.0 mb 0.00 in0.0 mm 0.00 in0.0 mm 0.00 in0.0 mm
05:21 PM 61.3°F16.3°C 51.0°F10.6°C 69% 8.0 mph WSW12.9 kmh WSW 9.0 mph14.5 kmh 29.59 in1002.0 mb 0.00 in0.0 mm 0.00 in0.0 mm 0.00 in0.0 mm
05:22 PM 61.4°F16.3°C 51.1°F10.6°C 69% 6.0 mph WSW9.7 kmh WSW 8.0 mph12.9 kmh 29.59 in1002.0 mb 0.00 in0.0 mm 0.00 in0.0 mm 0.00 in0.0 mm
05:23 PM 61.3°F16.3°C 51.0°F10.6°C 69% 6.2 mph WSW10.0 kmh WSW 8.0 mph12.9 kmh 29.59 in1002.0 mb 0.00 in0.0 mm 0.00 in0.0 mm 0.00 in0.0 mm
05:24 PM 61.3°F16.3°C 50.6°F10.3°C 68% 6.6 mph WSW10.6 kmh WSW 8.0 mph12.9 kmh 29.59 in1002.0 mb 0.00 in0.0 mm 0.00 in0.0 mm 0.00 in0.0 mm
05:25 PM 61.3°F16.3°C 51.0°F10.6°C 69% 5.6 mph WSW9.0 kmh WSW 8.0 mph12.9 kmh 29.59 in1002.0 mb 0.00 in0.0 mm 0.00 in0.0 mm 0.00 in0.0 mm
05:26 PM 61.4°F16.3°C 51.1°F10.6°C 69% 8.1 mph WSW13.0 kmh WSW 9.0 mph14.5 kmh 29.59 in1002.0 mb 0.00 in0.0 mm 0.00 in0.0 mm 0.00 in0.0 mm
05:27 PM 61.4°F16.3°C 51.1°F10.6°C 69% 6.0 mph WSW9.7 kmh WSW 7.0 mph11.3 kmh 29.59 in1002.0 mb 0.00 in0.0 mm 0.00 in0.0 mm 0.00 in0.0 mm
05:28 PM 61.4°F16.3°C 51.9°F11.1°C 71% 6.0 mph WSW9.7 kmh WSW 7.0 mph11.3 kmh 29.59 in1002.0 mb 0.00 in0.0 mm 0.00 in0.0 mm 0.00 in0.0 mm
05:29 PM 61.4°F16.3°C 51.9°F11.1°C 71% - N N -- 29.59 in1002.0 mb 0.00 in0.0 mm 0.00 in0.0 mm 0.00 in0.0 mm
05:30 PM 61.2°F16.2°C 50.6°F10.3°C 68% 7.6 mph W12.2 kmh W 9.0 mph14.5 kmh 29.59 in1002.0 mb 0.00 in0.0 mm 0.00 in0.0 mm 0.00 in0.0 mm
05:31 PM 61.1°F16.2°C 50.8°F10.4°C 69% 7.7 mph W12.4 kmh W 9.0 mph14.5 kmh 29.59 in1002.0 mb 0.00 in0.0 mm 0.00 in0.0 mm 0.00 in0.0 mm
05:32 PM 61.0°F16.1°C 50.8°F10.4°C 69% 7.7 mph W12.4 kmh W 9.0 mph14.5 kmh 29.59 in1002.0 mb 0.00 in0.0 mm 0.00 in0.0 mm 0.00 in0.0 mm
05:33 PM 61.0°F16.1°C 51.1°F10.6°C 70% 7.2 mph W11.6 kmh W 9.0 mph14.5 kmh 29.59 in1002.0 mb 0.00 in0.0 mm 0.00 in0.0 mm 0.00 in0.0 mm
05:34 PM 60.9°F16.1°C 51.0°F10.6°C 70% 8.0 mph W12.9 kmh W 9.0 mph14.5 kmh 29.59 in1002.0 mb 0.00 in0.0 mm 0.00 in0.0 mm 0.00 in0.0 mm
05:35 PM 60.9°F16.1°C 51.0°F10.6°C 70% 7.0 mph W11.3 kmh W 9.0 mph14.5 kmh 29.59 in1002.0 mb 0.00 in0.0 mm 0.00 in0.0 mm 0.00 in0.0 mm
05:36 PM 60.8°F16.0°C 51.0°F10.6°C 70% 9.0 mph WSW14.5 kmh WSW 9.0 mph14.5 kmh 29.59 in1002.0 mb 0.00 in0.0 mm 0.00 in0.0 mm 0.00 in0.0 mm
05:37 PM 60.7°F15.9°C 50.9°F10.5°C 70% 7.7 mph WSW12.4 kmh WSW 9.0 mph14.5 kmh 29.59 in1002.0 mb 0.00 in0.0 mm 0.00 in0.0 mm 0.00 in0.0 mm
05:38 PM 60.7°F15.9°C 50.9°F10.5°C 70% 7.0 mph W11.3 kmh W 9.0 mph14.5 kmh 29.59 in1002.0 mb 0.00 in0.0 mm 0.00 in0.0 mm 0.00 in0.0 mm
05:39 PM 60.7°F15.9°C 50.9°F10.5°C 70% 8.0 mph W12.9 kmh W 10.0 mph16.1 kmh 29.59 in1002.0 mb 0.00 in0.0 mm 0.00 in0.0 mm 0.00 in0.0 mm
05:40 PM 60.7°F15.9°C 50.9°F10.5°C 70% 10.0 mph W16.1 kmh W 10.0 mph16.1 kmh 29.59 in1002.0 mb 0.00 in0.0 mm 0.00 in0.0 mm 0.00 in0.0 mm
05:41 PM 60.7°F15.9°C 50.9°F10.5°C 70% 9.1 mph W14.6 kmh W 11.0 mph17.7 kmh 29.59 in1002.0 mb 0.00 in0.0 mm 0.00 in0.0 mm 0.00 in0.0 mm
05:42 PM 60.6°F15.9°C 51.1°F10.6°C 71% 8.2 mph W13.2 kmh W 11.0 mph17.7 kmh 29.59 in1002.0 mb 0.00 in0.0 mm 0.00 in0.0 mm 0.00 in0.0 mm
05:43 PM 60.5°F15.8°C 51.0°F10.6°C 71% 8.9 mph WSW14.3 kmh WSW 11.0 mph17.7 kmh 29.59 in1002.0 mb 0.00 in0.0 mm 0.00 in0.0 mm 0.00 in0.0 mm
05:44 PM 60.5°F15.8°C 51.0°F10.6°C 71% 9.0 mph W14.5 kmh W 10.0 mph16.1 kmh 29.59 in1002.0 mb 0.00 in0.0 mm 0.00 in0.0 mm 0.00 in0.0 mm
05:45 PM 60.5°F15.8°C 51.0°F10.6°C 71% 11.0 mph W17.7 kmh W 13.0 mph20.9 kmh 29.59 in1002.0 mb 0.00 in0.0 mm 0.00 in0.0 mm 0.00 in0.0 mm
05:46 PM 60.5°F15.8°C 51.0°F10.6°C 71% 8.7 mph WSW14.0 kmh WSW 10.0 mph16.1 kmh 29.59 in1002.0 mb 0.00 in0.0 mm 0.00 in0.0 mm 0.00 in0.0 mm
05:47 PM 60.5°F15.8°C 51.0°F10.6°C 71% 8.0 mph W12.9 kmh W 10.0 mph16.1 kmh 29.59 in1002.0 mb 0.00 in0.0 mm 0.00 in0.0 mm 0.00 in0.0 mm
05:48 PM 60.5°F15.8°C 51.4°F10.8°C 72% 9.0 mph W14.5 kmh W 11.0 mph17.7 kmh 29.59 in1002.0 mb 0.00 in0.0 mm 0.00 in0.0 mm 0.00 in0.0 mm
05:49 PM 60.5°F15.8°C 51.4°F10.8°C 72% 9.4 mph WSW15.1 kmh WSW 10.0 mph16.1 kmh 29.59 in1002.0 mb 0.00 in0.0 mm 0.00 in0.0 mm 0.00 in0.0 mm
05:50 PM 60.5°F15.8°C 51.0°F10.6°C 71% 9.1 mph WSW14.6 kmh WSW 11.0 mph17.7 kmh 29.59 in1002.0 mb 0.00 in0.0 mm 0.00 in0.0 mm 0.00 in0.0 mm
05:51 PM 60.4°F15.8°C 51.0°F10.6°C 71% 8.6 mph WSW13.8 kmh WSW 11.0 mph17.7 kmh 29.59 in1002.0 mb 0.00 in0.0 mm 0.00 in0.0 mm 0.00 in0.0 mm
05:52 PM 60.4°F15.8°C 51.3°F10.7°C 72% 10.0 mph WSW16.1 kmh WSW 11.0 mph17.7 kmh 29.59 in1002.0 mb 0.00 in0.0 mm 0.00 in0.0 mm 0.00 in0.0 mm
05:53 PM 60.4°F15.8°C 51.0°F10.6°C 71% 11.0 mph W17.7 kmh W 12.0 mph19.3 kmh 29.59 in1002.0 mb 0.00 in0.0 mm 0.00 in0.0 mm 0.00 in0.0 mm
05:54 PM 60.3°F15.7°C 50.9°F10.5°C 71% 10.0 mph W16.1 kmh W 12.0 mph19.3 kmh 29.59 in1002.0 mb 0.00 in0.0 mm 0.00 in0.0 mm 0.00 in0.0 mm
05:55 PM 60.2°F15.7°C 50.8°F10.4°C 71% 9.0 mph W14.5 kmh W 11.0 mph17.7 kmh 29.59 in1002.0 mb 0.00 in0.0 mm 0.00 in0.0 mm 0.00 in0.0 mm
05:56 PM 60.2°F15.7°C 51.5°F10.8°C 73% 8.1 mph W13.0 kmh W 10.0 mph16.1 kmh 29.59 in1002.0 mb 0.00 in0.0 mm 0.00 in0.0 mm 0.00 in0.0 mm
05:57 PM 60.2°F15.7°C 51.1°F10.6°C 72% 8.0 mph WSW12.9 kmh WSW 10.0 mph16.1 kmh 29.59 in1002.0 mb 0.00 in0.0 mm 0.00 in0.0 mm 0.00 in0.0 mm
05:58 PM 60.2°F15.7°C 51.5°F10.8°C 73% 8.0 mph W12.9 kmh W 9.0 mph14.5 kmh 29.59 in1002.0 mb 0.00 in0.0 mm 0.00 in0.0 mm 0.00 in0.0 mm
05:59 PM 60.2°F15.7°C 51.5°F10.8°C 73% 8.0 mph W12.9 kmh W 10.0 mph16.1 kmh 29.59 in1002.0 mb 0.00 in0.0 mm 0.00 in0.0 mm 0.00 in0.0 mm
06:00 PM 60.1°F15.6°C 51.0°F10.6°C 72% 8.0 mph W12.9 kmh W 10.0 mph16.1 kmh 29.59 in1002.0 mb 0.00 in0.0 mm 0.00 in0.0 mm 0.00 in0.0 mm
06:01 PM 60.0°F15.6°C 51.3°F10.7°C 73% 8.0 mph WSW12.9 kmh WSW 9.0 mph14.5 kmh 29.59 in1002.0 mb 0.00 in0.0 mm 0.00 in0.0 mm 0.00 in0.0 mm
06:02 PM 60.0°F15.6°C 51.3°F10.7°C 73% 8.4 mph WSW13.5 kmh WSW 10.0 mph16.1 kmh 29.59 in1002.0 mb 0.00 in0.0 mm 0.00 in0.0 mm 0.00 in0.0 mm
06:03 PM 59.9°F15.5°C 50.8°F10.4°C 72% 7.5 mph WSW12.1 kmh WSW 10.0 mph16.1 kmh 29.59 in1002.0 mb 0.00 in0.0 mm 0.00 in0.0 mm 0.00 in0.0 mm
06:04 PM 59.8°F15.4°C 51.5°F10.8°C 74% 7.0 mph W11.3 kmh W 8.0 mph12.9 kmh 29.59 in1002.0 mb 0.00 in0.0 mm 0.00 in0.0 mm 0.00 in0.0 mm
06:05 PM 59.8°F15.4°C 51.5°F10.8°C 74% 8.0 mph WSW12.9 kmh WSW 10.0 mph16.1 kmh 29.59 in1002.0 mb 0.00 in0.0 mm 0.00 in0.0 mm 0.00 in0.0 mm
06:06 PM 59.7°F15.4°C 51.0°F10.6°C 73% 7.0 mph WSW11.3 kmh WSW 7.0 mph11.3 kmh 29.59 in1002.0 mb 0.00 in0.0 mm 0.00 in0.0 mm 0.00 in0.0 mm
06:07 PM 59.7°F15.4°C 51.4°F10.8°C 74% 7.9 mph WSW12.7 kmh WSW 10.0 mph16.1 kmh 29.59 in1002.0 mb 0.00 in0.0 mm 0.00 in0.0 mm 0.00 in0.0 mm
06:08 PM 59.7°F15.4°C 51.4°F10.8°C 74% 8.4 mph WSW13.5 kmh WSW 10.0 mph16.1 kmh 29.59 in1002.0 mb 0.00 in0.0 mm 0.00 in0.0 mm 0.00 in0.0 mm
06:09 PM 59.6°F15.3°C 51.3°F10.7°C 74% 8.8 mph WSW14.2 kmh WSW 10.0 mph16.1 kmh 29.59 in1002.0 mb 0.00 in0.0 mm 0.00 in0.0 mm 0.00 in0.0 mm
06:10 PM 59.6°F15.3°C 51.7°F10.9°C 75% 6.8 mph WSW10.9 kmh WSW 10.0 mph16.1 kmh 29.59 in1002.0 mb 0.00 in0.0 mm 0.00 in0.0 mm 0.00 in0.0 mm
06:11 PM 59.5°F15.3°C 51.6°F10.9°C 75% 7.0 mph W11.3 kmh W 9.0 mph14.5 kmh 29.59 in1002.0 mb 0.00 in0.0 mm 0.00 in0.0 mm 0.00 in0.0 mm
06:12 PM 59.4°F15.2°C 51.8°F11.0°C 76% 6.0 mph W9.7 kmh W 8.0 mph12.9 kmh 29.59 in1002.0 mb 0.00 in0.0 mm 0.00 in0.0 mm 0.00 in0.0 mm
06:13 PM 59.4°F15.2°C 51.5°F10.8°C 75% 6.5 mph WSW10.5 kmh WSW 7.0 mph11.3 kmh 29.59 in1002.0 mb 0.00 in0.0 mm 0.00 in0.0 mm 0.00 in0.0 mm
06:14 PM 59.3°F15.2°C 51.4°F10.8°C 75% 6.1 mph WSW9.8 kmh WSW 7.0 mph11.3 kmh 29.59 in1002.0 mb 0.00 in0.0 mm 0.00 in0.0 mm 0.00 in0.0 mm
06:15 PM 59.3°F15.2°C 51.4°F10.8°C 75% 7.0 mph WSW11.3 kmh WSW 8.0 mph12.9 kmh 29.60 in1002.4 mb 0.00 in0.0 mm 0.00 in0.0 mm 0.00 in0.0 mm
06:16 PM 59.3°F15.2°C 51.7°F10.9°C 76% 6.0 mph W9.7 kmh W 7.0 mph11.3 kmh 29.60 in1002.4 mb 0.00 in0.0 mm 0.00 in0.0 mm 0.00 in0.0 mm
06:17 PM 59.3°F15.2°C 51.7°F10.9°C 76% 7.0 mph W11.3 kmh W 8.0 mph12.9 kmh 29.60 in1002.4 mb 0.00 in0.0 mm 0.00 in0.0 mm 0.00 in0.0 mm
06:18 PM 59.2°F15.1°C 51.6°F10.9°C 76% 7.0 mph W11.3 kmh W 8.0 mph12.9 kmh 29.60 in1002.4 mb 0.00 in0.0 mm 0.00 in0.0 mm 0.00 in0.0 mm
06:19 PM 59.2°F15.1°C 51.3°F10.7°C 75% 8.0 mph WSW12.9 kmh WSW 8.0 mph12.9 kmh 29.60 in1002.4 mb 0.00 in0.0 mm 0.00 in0.0 mm 0.00 in0.0 mm
06:20 PM 59.1°F15.1°C 51.2°F10.7°C 75% 7.2 mph WSW11.6 kmh WSW 8.0 mph12.9 kmh 29.60 in1002.4 mb 0.00 in0.0 mm 0.00 in0.0 mm 0.00 in0.0 mm
06:21 PM 59.1°F15.1°C 51.2°F10.7°C 75% 7.0 mph W11.3 kmh W 8.0 mph12.9 kmh 29.60 in1002.4 mb 0.00 in0.0 mm 0.00 in0.0 mm 0.00 in0.0 mm
06:22 PM 59.1°F15.1°C 51.9°F11.1°C 77% 6.0 mph W9.7 kmh W 7.0 mph11.3 kmh 29.60 in1002.4 mb 0.00 in0.0 mm 0.00 in0.0 mm 0.00 in0.0 mm
06:23 PM 59.1°F15.1°C 51.5°F10.8°C 76% 6.5 mph WSW10.5 kmh WSW 7.0 mph11.3 kmh 29.60 in1002.4 mb 0.00 in0.0 mm 0.00 in0.0 mm 0.00 in0.0 mm
06:24 PM 59.0°F15.0°C 51.4°F10.8°C 76% 6.2 mph WSW10.0 kmh WSW 8.0 mph12.9 kmh 29.60 in1002.4 mb 0.00 in0.0 mm 0.00 in0.0 mm 0.00 in0.0 mm
06:25 PM 59.0°F15.0°C 51.8°F11.0°C 77% 4.2 mph WSW6.8 kmh WSW 8.0 mph12.9 kmh 29.60 in1002.4 mb 0.00 in0.0 mm 0.00 in0.0 mm 0.00 in0.0 mm
06:26 PM 58.9°F14.9°C 51.7°F10.9°C 77% 5.8 mph WSW9.3 kmh WSW 7.0 mph11.3 kmh 29.60 in1002.4 mb 0.00 in0.0 mm 0.00 in0.0 mm 0.00 in0.0 mm
06:27 PM 58.9°F14.9°C 51.7°F10.9°C 77% 6.0 mph W9.7 kmh W 7.0 mph11.3 kmh 29.60 in1002.4 mb 0.00 in0.0 mm 0.00 in0.0 mm 0.00 in0.0 mm
06:28 PM 58.9°F14.9°C 51.7°F10.9°C 77% 6.0 mph WSW9.7 kmh WSW 7.0 mph11.3 kmh 29.60 in1002.4 mb 0.00 in0.0 mm 0.00 in0.0 mm 0.00 in0.0 mm
06:29 PM 58.9°F14.9°C 52.1°F11.2°C 78% 5.0 mph WSW8.0 kmh WSW 5.0 mph8.0 kmh 29.60 in1002.4 mb 0.00 in0.0 mm 0.00 in0.0 mm 0.00 in0.0 mm
06:30 PM 58.9°F14.9°C 51.7°F10.9°C 77% 4.7 mph WSW7.6 kmh WSW 6.0 mph9.7 kmh 29.60 in1002.4 mb 0.00 in0.0 mm 0.00 in0.0 mm 0.00 in0.0 mm
06:31 PM 58.8°F14.9°C 51.6°F10.9°C 77% 4.5 mph WSW7.2 kmh WSW 7.0 mph11.3 kmh 29.60 in1002.4 mb 0.00 in0.0 mm 0.00 in0.0 mm 0.00 in0.0 mm
06:32 PM 58.8°F14.9°C 51.6°F10.9°C 77% 5.0 mph WSW8.0 kmh WSW 7.0 mph11.3 kmh 29.60 in1002.4 mb 0.00 in0.0 mm 0.00 in0.0 mm 0.00 in0.0 mm
06:33 PM 58.8°F14.9°C 51.6°F10.9°C 77% 6.0 mph WSW9.7 kmh WSW 8.0 mph12.9 kmh 29.60 in1002.4 mb 0.00 in0.0 mm 0.00 in0.0 mm 0.00 in0.0 mm
06:34 PM 58.7°F14.8°C 51.5°F10.8°C 77% 4.2 mph WSW6.8 kmh WSW 7.0 mph11.3 kmh 29.60 in1002.4 mb 0.00 in0.0 mm 0.00 in0.0 mm 0.00 in0.0 mm
06:35 PM 58.7°F14.8°C 51.5°F10.8°C 77% 5.6 mph WSW9.0 kmh WSW 7.0 mph11.3 kmh 29.60 in1002.4 mb 0.00 in0.0 mm 0.00 in0.0 mm 0.00 in0.0 mm
06:36 PM 58.8°F14.9°C 52.0°F11.1°C 78% 4.0 mph WSW6.4 kmh WSW 5.0 mph8.0 kmh 29.60 in1002.4 mb 0.00 in0.0 mm 0.00 in0.0 mm 0.00 in0.0 mm
06:37 PM 58.7°F14.8°C 51.9°F11.1°C 78% 4.0 mph WSW6.4 kmh WSW 6.0 mph9.7 kmh 29.60 in1002.4 mb 0.00 in0.0 mm 0.00 in0.0 mm 0.00 in0.0 mm
06:38 PM 58.7°F14.8°C 51.9°F11.1°C 78% 7.1 mph WSW11.4 kmh WSW 8.0 mph12.9 kmh 29.60 in1002.4 mb 0.00 in0.0 mm 0.00 in0.0 mm 0.00 in0.0 mm
06:39 PM 58.7°F14.8°C 51.5°F10.8°C 77% 6.0 mph WSW9.7 kmh WSW 8.0 mph12.9 kmh 29.60 in1002.4 mb 0.00 in0.0 mm 0.00 in0.0 mm 0.00 in0.0 mm
06:40 PM 58.7°F14.8°C 51.5°F10.8°C 77% 6.0 mph WSW9.7 kmh WSW 8.0 mph12.9 kmh 29.60 in1002.4 mb 0.00 in0.0 mm 0.00 in0.0 mm 0.00 in0.0 mm
06:41 PM 58.7°F14.8°C 51.9°F11.1°C 78% 5.0 mph WSW8.0 kmh WSW 7.0 mph11.3 kmh 29.60 in1002.4 mb 0.00 in0.0 mm 0.00 in0.0 mm 0.00 in0.0 mm
06:42 PM 58.7°F14.8°C 52.2°F11.2°C 79% 4.9 mph WSW7.9 kmh WSW 7.0 mph11.3 kmh 29.60 in1002.4 mb 0.00 in0.0 mm 0.00 in0.0 mm 0.00 in0.0 mm
06:43 PM 58.6°F14.8°C 51.8°F11.0°C 78% 5.0 mph WSW8.0 kmh WSW 8.0 mph12.9 kmh 29.60 in1002.4 mb 0.00 in0.0 mm 0.00 in0.0 mm 0.00 in0.0 mm
06:44 PM 58.6°F14.8°C 51.8°F11.0°C 78% 8.0 mph WSW12.9 kmh WSW 9.0 mph14.5 kmh 29.60 in1002.4 mb 0.00 in0.0 mm 0.00 in0.0 mm 0.00 in0.0 mm
06:45 PM 58.6°F14.8°C 51.8°F11.0°C 78% 6.0 mph WSW9.7 kmh WSW 8.0 mph12.9 kmh 29.60 in1002.4 mb 0.00 in0.0 mm 0.00 in0.0 mm 0.00 in0.0 mm
06:46 PM 58.6°F14.8°C 52.1°F11.2°C 79% 6.4 mph WSW10.3 kmh WSW 8.0 mph12.9 kmh 29.60 in1002.4 mb 0.00 in0.0 mm 0.00 in0.0 mm 0.00 in0.0 mm
06:47 PM 58.5°F14.7°C 52.0°F11.1°C 79% 7.6 mph WSW12.2 kmh WSW 9.0 mph14.5 kmh 29.60 in1002.4 mb 0.00 in0.0 mm 0.00 in0.0 mm 0.00 in0.0 mm
06:48 PM 58.5°F14.7°C 52.0°F11.1°C 79% 6.9 mph WSW11.1 kmh WSW 9.0 mph14.5 kmh 29.60 in1002.4 mb 0.00 in0.0 mm 0.00 in0.0 mm 0.00 in0.0 mm
06:49 PM 58.6°F14.8°C 51.8°F11.0°C 78% 7.0 mph WSW11.3 kmh WSW 8.0 mph12.9 kmh 29.60 in1002.4 mb 0.00 in0.0 mm 0.00 in0.0 mm 0.00 in0.0 mm
06:50 PM 58.5°F14.7°C 52.0°F11.1°C 79% 6.8 mph WSW10.9 kmh WSW 9.0 mph14.5 kmh 29.60 in1002.4 mb 0.00 in0.0 mm 0.00 in0.0 mm 0.00 in0.0 mm
06:51 PM 58.5°F14.7°C 52.0°F11.1°C 79% 7.5 mph WSW12.1 kmh WSW 9.0 mph14.5 kmh 29.60 in1002.4 mb 0.00 in0.0 mm 0.00 in0.0 mm 0.00 in0.0 mm
06:52 PM 58.4°F14.7°C 51.9°F11.1°C 79% 7.0 mph WSW11.3 kmh WSW 9.0 mph14.5 kmh 29.60 in1002.4 mb 0.00 in0.0 mm 0.00 in0.0 mm 0.00 in0.0 mm
06:53 PM 58.4°F14.7°C 51.9°F11.1°C 79% 6.0 mph WSW9.7 kmh WSW 8.0 mph12.9 kmh 29.61 in1002.7 mb 0.00 in0.0 mm 0.00 in0.0 mm 0.00 in0.0 mm
06:54 PM 58.3°F14.6°C 51.8°F11.0°C 79% 6.0 mph WSW9.7 kmh WSW 9.0 mph14.5 kmh 29.60 in1002.4 mb 0.00 in0.0 mm 0.00 in0.0 mm 0.00 in0.0 mm
06:55 PM 58.3°F14.6°C 51.8°F11.0°C 79% 8.1 mph WSW13.0 kmh WSW 9.0 mph14.5 kmh 29.61 in1002.7 mb 0.00 in0.0 mm 0.00 in0.0 mm 0.00 in0.0 mm
06:56 PM 58.3°F14.6°C 51.8°F11.0°C 79% 6.3 mph WSW10.1 kmh WSW 9.0 mph14.5 kmh 29.61 in1002.7 mb 0.00 in0.0 mm 0.00 in0.0 mm 0.00 in0.0 mm
06:57 PM 58.3°F14.6°C 51.8°F11.0°C 79% 8.4 mph WSW13.5 kmh WSW 9.0 mph14.5 kmh 29.60 in1002.4 mb 0.00 in0.0 mm 0.00 in0.0 mm 0.00 in0.0 mm
06:58 PM 58.3°F14.6°C 51.8°F11.0°C 79% 6.7 mph WSW10.8 kmh WSW 9.0 mph14.5 kmh 29.61 in1002.7 mb 0.00 in0.0 mm 0.00 in0.0 mm 0.00 in0.0 mm
06:59 PM 58.3°F14.6°C 51.8°F11.0°C 79% 7.6 mph WSW12.2 kmh WSW 9.0 mph14.5 kmh 29.60 in1002.4 mb 0.00 in0.0 mm 0.00 in0.0 mm 0.00 in0.0 mm
07:00 PM 58.3°F14.6°C 51.8°F11.0°C 79% 7.4 mph WSW11.9 kmh WSW 9.0 mph14.5 kmh 29.60 in1002.4 mb 0.00 in0.0 mm 0.00 in0.0 mm 0.00 in0.0 mm
07:01 PM 58.3°F14.6°C 52.2°F11.2°C 80% 5.6 mph WSW9.0 kmh WSW 9.0 mph14.5 kmh 29.60 in1002.4 mb 0.00 in0.0 mm 0.00 in0.0 mm 0.00 in0.0 mm
07:02 PM 58.2°F14.6°C 52.1°F11.2°C 80% 7.5 mph WSW12.1 kmh WSW 9.0 mph14.5 kmh 29.60 in1002.4 mb 0.00 in0.0 mm 0.00 in0.0 mm 0.00 in0.0 mm
07:03 PM 58.2°F14.6°C 52.1°F11.2°C 80% 6.5 mph WSW10.5 kmh WSW 9.0 mph14.5 kmh 29.61 in1002.7 mb 0.00 in0.0 mm 0.00 in0.0 mm 0.00 in0.0 mm
07:04 PM 58.2°F14.6°C 52.1°F11.2°C 80% 6.4 mph WSW10.3 kmh WSW 8.0 mph12.9 kmh 29.61 in1002.7 mb 0.00 in0.0 mm 0.00 in0.0 mm 0.00 in0.0 mm
07:05 PM 58.2°F14.6°C 52.1°F11.2°C 80% 8.0 mph WSW12.9 kmh WSW 9.0 mph14.5 kmh 29.61 in1002.7 mb 0.00 in0.0 mm 0.00 in0.0 mm 0.00 in0.0 mm
07:06 PM 58.1°F14.5°C 52.0°F11.1°C 80% 7.0 mph WSW11.3 kmh WSW 9.0 mph14.5 kmh 29.60 in1002.4 mb 0.00 in0.0 mm 0.00 in0.0 mm 0.00 in0.0 mm
07:07 PM 58.2°F14.6°C 52.1°F11.2°C 80% 6.0 mph WSW9.7 kmh WSW 8.0 mph12.9 kmh 29.61 in1002.7 mb 0.00 in0.0 mm 0.00 in0.0 mm 0.00 in0.0 mm
07:08 PM 58.1°F14.5°C 52.0°F11.1°C 80% 4.5 mph WSW7.2 kmh WSW 5.0 mph8.0 kmh 29.60 in1002.4 mb 0.00 in0.0 mm 0.00 in0.0 mm 0.00 in0.0 mm
07:09 PM 58.0°F14.4°C 51.9°F11.1°C 80% 6.1 mph WSW9.8 kmh WSW 8.0 mph12.9 kmh 29.60 in1002.4 mb 0.00 in0.0 mm 0.00 in0.0 mm 0.00 in0.0 mm
07:10 PM 58.1°F14.5°C 52.0°F11.1°C 80% 4.0 mph SW6.4 kmh SW 5.0 mph8.0 kmh 29.61 in1002.7 mb 0.00 in0.0 mm 0.00 in0.0 mm 0.00 in0.0 mm
07:11 PM 58.0°F14.4°C 51.9°F11.1°C 80% 4.0 mph WSW6.4 kmh WSW 5.0 mph8.0 kmh 29.61 in1002.7 mb 0.00 in0.0 mm 0.00 in0.0 mm 0.00 in0.0 mm
07:12 PM 57.9°F14.4°C 51.8°F11.0°C 80% 5.0 mph WSW8.0 kmh WSW 5.0 mph8.0 kmh 29.61 in1002.7 mb 0.00 in0.0 mm 0.00 in0.0 mm 0.00 in0.0 mm
07:13 PM 57.9°F14.4°C 51.8°F11.0°C 80% 4.7 mph SW7.6 kmh SW 8.0 mph12.9 kmh 29.60 in1002.4 mb 0.00 in0.0 mm 0.00 in0.0 mm 0.00 in0.0 mm
07:14 PM 57.8°F14.3°C 52.0°F11.1°C 81% 6.8 mph WSW10.9 kmh WSW 8.0 mph12.9 kmh 29.61 in1002.7 mb 0.00 in0.0 mm 0.00 in0.0 mm 0.00 in0.0 mm
07:15 PM 57.8°F14.3°C 52.0°F11.1°C 81% 6.0 mph WSW9.7 kmh WSW 9.0 mph14.5 kmh 29.60 in1002.4 mb 0.00 in0.0 mm 0.00 in0.0 mm 0.00 in0.0 mm
07:16 PM 57.8°F14.3°C 52.0°F11.1°C 81% 5.0 mph WSW8.0 kmh WSW 7.0 mph11.3 kmh 29.61 in1002.7 mb 0.00 in0.0 mm 0.00 in0.0 mm 0.00 in0.0 mm
07:17 PM 57.7°F14.3°C 51.9°F11.1°C 81% 6.0 mph WSW9.7 kmh WSW 9.0 mph14.5 kmh 29.61 in1002.7 mb 0.00 in0.0 mm 0.00 in0.0 mm 0.00 in0.0 mm
07:18 PM 57.8°F14.3°C 52.3°F11.3°C 82% 4.6 mph WSW7.4 kmh WSW 8.0 mph12.9 kmh 29.61 in1002.7 mb 0.00 in0.0 mm 0.00 in0.0 mm 0.00 in0.0 mm
07:19 PM 57.7°F14.3°C 52.2°F11.2°C 82% 5.6 mph WSW9.0 kmh WSW 8.0 mph12.9 kmh 29.61 in1002.7 mb 0.00 in0.0 mm 0.00 in0.0 mm 0.00 in0.0 mm
07:20 PM 57.7°F14.3°C 51.9°F11.1°C 81% 6.0 mph WSW9.7 kmh WSW 8.0 mph12.9 kmh 29.61 in1002.7 mb 0.00 in0.0 mm 0.00 in0.0 mm 0.00 in0.0 mm
07:21 PM 57.8°F14.3°C 52.3°F11.3°C 82% 5.0 mph WSW8.0 kmh WSW 6.0 mph9.7 kmh 29.61 in1002.7 mb 0.00 in0.0 mm 0.00 in0.0 mm 0.00 in0.0 mm
07:22 PM 57.7°F14.3°C 51.9°F11.1°C 81% 3.9 mph SW6.3 kmh SW 6.0 mph9.7 kmh 29.61 in1002.7 mb 0.00 in0.0 mm 0.00 in0.0 mm 0.00 in0.0 mm
07:23 PM 57.6°F14.2°C 51.8°F11.0°C 81% 4.7 mph SW7.6 kmh SW 6.0 mph9.7 kmh 29.61 in1002.7 mb 0.00 in0.0 mm 0.00 in0.0 mm 0.00 in0.0 mm
07:24 PM 57.6°F14.2°C 51.8°F11.0°C 81% 5.0 mph SW8.0 kmh SW 6.0 mph9.7 kmh 29.61 in1002.7 mb 0.00 in0.0 mm 0.00 in0.0 mm 0.00 in0.0 mm
07:25 PM 57.5°F14.2°C 51.7°F10.9°C 81% 5.0 mph SW8.0 kmh SW 7.0 mph11.3 kmh 29.61 in1002.7 mb 0.00 in0.0 mm 0.00 in0.0 mm 0.00 in0.0 mm
07:26 PM 57.4°F14.1°C 51.6°F10.9°C 81% 3.7 mph SW6.0 kmh SW 7.0 mph11.3 kmh 29.61 in1002.7 mb 0.00 in0.0 mm 0.00 in0.0 mm 0.00 in0.0 mm
07:27 PM 57.3°F14.1°C 51.5°F10.8°C 81% 4.1 mph SW6.6 kmh SW 5.0 mph8.0 kmh 29.61 in1002.7 mb 0.00 in0.0 mm 0.00 in0.0 mm 0.00 in0.0 mm
07:28 PM 57.2°F14.0°C 51.4°F10.8°C 81% 4.6 mph SW7.4 kmh SW 6.0 mph9.7 kmh 29.61 in1002.7 mb 0.00 in0.0 mm 0.00 in0.0 mm 0.00 in0.0 mm
07:29 PM 57.1°F13.9°C 51.3°F10.7°C 81% 4.0 mph SW6.4 kmh SW 6.0 mph9.7 kmh 29.61 in1002.7 mb 0.00 in0.0 mm 0.00 in0.0 mm 0.00 in0.0 mm
07:30 PM 57.0°F13.9°C 51.2°F10.7°C 81% 4.1 mph SW6.6 kmh SW 5.0 mph8.0 kmh 29.61 in1002.7 mb 0.00 in0.0 mm 0.00 in0.0 mm 0.00 in0.0 mm
07:31 PM 56.9°F13.8°C 51.1°F10.6°C 81% 4.4 mph SW7.1 kmh SW 6.0 mph9.7 kmh 29.61 in1002.7 mb 0.00 in0.0 mm 0.00 in0.0 mm 0.00 in0.0 mm
07:32 PM 56.8°F13.8°C 51.4°F10.8°C 82% 4.0 mph SW6.4 kmh SW 5.0 mph8.0 kmh 29.61 in1002.7 mb 0.00 in0.0 mm 0.00 in0.0 mm 0.00 in0